<?xml version="1.0" encoding="UTF-8" standalone="no" ?>
<gpx xmlns="http://www.topografix.com/GPX/1/1" xmlns:xsi="http://www.w3.org/2001/XMLSchema-instance" xsi:schemaLocation="http://www.topografix.com/GPX/1/1 http://www.topografix.com/GPX/1/1/gpx.xsd" version="1.1" creator="VisuGPX - https://www.visugpx.com">
  <metadata>
    <name>Créon Camiac St Quentin Cursan</name>
    <desc><![CDATA[Randonnée VTT]]></desc>
  </metadata>
  <trk>
    <name><![CDATA[Creon Camiac St Quentin Cursan]]></name>
    <trkseg>
      <trkpt lat="44.77644" lon="-0.34871">
        <ele>100</ele>
        <time>2012-12-02T12:28:18Z</time>
      </trkpt>
      <trkpt lat="44.77643" lon="-0.34861">
        <ele>100</ele>
        <time>2012-12-02T12:28:35Z</time>
      </trkpt>
      <trkpt lat="44.77644" lon="-0.3486">
        <ele>100</ele>
        <time>2012-12-02T12:28:54Z</time>
      </trkpt>
      <trkpt lat="44.77643" lon="-0.34855">
        <ele>100</ele>
        <time>2012-12-02T12:29:22Z</time>
      </trkpt>
      <trkpt lat="44.77645" lon="-0.34857">
        <ele>100</ele>
        <time>2012-12-02T12:29:50Z</time>
      </trkpt>
      <trkpt lat="44.77646" lon="-0.34857">
        <ele>100</ele>
        <time>2012-12-02T12:30:17Z</time>
      </trkpt>
      <trkpt lat="44.77646" lon="-0.34858">
        <ele>100</ele>
        <time>2012-12-02T12:30:44Z</time>
      </trkpt>
      <trkpt lat="44.77644" lon="-0.34858">
        <ele>100</ele>
        <time>2012-12-02T12:31:15Z</time>
      </trkpt>
      <trkpt lat="44.77643" lon="-0.34859">
        <ele>100</ele>
        <time>2012-12-02T12:31:51Z</time>
      </trkpt>
      <trkpt lat="44.77643" lon="-0.34858">
        <ele>100</ele>
        <time>2012-12-02T12:32:30Z</time>
      </trkpt>
      <trkpt lat="44.77643" lon="-0.34859">
        <ele>100</ele>
        <time>2012-12-02T12:33:01Z</time>
      </trkpt>
      <trkpt lat="44.77643" lon="-0.3486">
        <ele>100</ele>
        <time>2012-12-02T12:33:28Z</time>
      </trkpt>
      <trkpt lat="44.77643" lon="-0.34861">
        <ele>100</ele>
        <time>2012-12-02T12:34:00Z</time>
      </trkpt>
      <trkpt lat="44.77642" lon="-0.3486">
        <ele>100</ele>
        <time>2012-12-02T12:34:29Z</time>
      </trkpt>
      <trkpt lat="44.77643" lon="-0.34857">
        <ele>100</ele>
        <time>2012-12-02T12:35:01Z</time>
      </trkpt>
      <trkpt lat="44.77645" lon="-0.34856">
        <ele>100</ele>
        <time>2012-12-02T12:35:27Z</time>
      </trkpt>
      <trkpt lat="44.77644" lon="-0.34855">
        <ele>100</ele>
        <time>2012-12-02T12:35:59Z</time>
      </trkpt>
      <trkpt lat="44.77645" lon="-0.34855">
        <ele>100</ele>
        <time>2012-12-02T12:36:32Z</time>
      </trkpt>
      <trkpt lat="44.77644" lon="-0.34854">
        <ele>100</ele>
        <time>2012-12-02T12:37:00Z</time>
      </trkpt>
      <trkpt lat="44.77644" lon="-0.34855">
        <ele>100</ele>
        <time>2012-12-02T12:37:34Z</time>
      </trkpt>
      <trkpt lat="44.77644" lon="-0.34856">
        <ele>100</ele>
        <time>2012-12-02T12:38:05Z</time>
      </trkpt>
      <trkpt lat="44.77644" lon="-0.34857">
        <ele>100</ele>
        <time>2012-12-02T12:38:35Z</time>
      </trkpt>
      <trkpt lat="44.77644" lon="-0.34857">
        <ele>100</ele>
        <time>2012-12-02T12:39:06Z</time>
      </trkpt>
      <trkpt lat="44.77644" lon="-0.34857">
        <ele>100</ele>
        <time>2012-12-02T12:39:37Z</time>
      </trkpt>
      <trkpt lat="44.77644" lon="-0.34856">
        <ele>100</ele>
        <time>2012-12-02T12:40:12Z</time>
      </trkpt>
      <trkpt lat="44.77644" lon="-0.34856">
        <ele>100</ele>
        <time>2012-12-02T12:40:42Z</time>
      </trkpt>
      <trkpt lat="44.77644" lon="-0.34856">
        <ele>100</ele>
        <time>2012-12-02T12:41:10Z</time>
      </trkpt>
      <trkpt lat="44.77644" lon="-0.34856">
        <ele>100</ele>
        <time>2012-12-02T12:41:40Z</time>
      </trkpt>
      <trkpt lat="44.77644" lon="-0.34858">
        <ele>100</ele>
        <time>2012-12-02T12:41:55Z</time>
      </trkpt>
      <trkpt lat="44.77645" lon="-0.34859">
        <ele>100</ele>
        <time>2012-12-02T12:42:07Z</time>
      </trkpt>
      <trkpt lat="44.77644" lon="-0.34861">
        <ele>100</ele>
        <time>2012-12-02T12:42:23Z</time>
      </trkpt>
      <trkpt lat="44.77643" lon="-0.34862">
        <ele>100</ele>
        <time>2012-12-02T12:42:39Z</time>
      </trkpt>
      <trkpt lat="44.77643" lon="-0.34862">
        <ele>100</ele>
        <time>2012-12-02T12:42:50Z</time>
      </trkpt>
      <trkpt lat="44.77636" lon="-0.34875">
        <ele>99</ele>
        <time>2012-12-02T12:43:00Z</time>
      </trkpt>
      <trkpt lat="44.77632" lon="-0.34876">
        <ele>100</ele>
        <time>2012-12-02T12:43:03Z</time>
      </trkpt>
      <trkpt lat="44.77626" lon="-0.34864">
        <ele>100</ele>
        <time>2012-12-02T12:43:09Z</time>
      </trkpt>
      <trkpt lat="44.77627" lon="-0.34837">
        <ele>101</ele>
        <time>2012-12-02T12:43:20Z</time>
      </trkpt>
      <trkpt lat="44.77629" lon="-0.34824">
        <ele>101</ele>
        <time>2012-12-02T12:43:31Z</time>
      </trkpt>
      <trkpt lat="44.77626" lon="-0.34766">
        <ele>102</ele>
        <time>2012-12-02T12:43:43Z</time>
      </trkpt>
      <trkpt lat="44.77616" lon="-0.34704">
        <ele>102</ele>
        <time>2012-12-02T12:43:56Z</time>
      </trkpt>
      <trkpt lat="44.7759" lon="-0.34666">
        <ele>103</ele>
        <time>2012-12-02T12:44:06Z</time>
      </trkpt>
      <trkpt lat="44.77574" lon="-0.34658">
        <ele>104</ele>
        <time>2012-12-02T12:44:12Z</time>
      </trkpt>
      <trkpt lat="44.77553" lon="-0.34631">
        <ele>104</ele>
        <time>2012-12-02T12:44:21Z</time>
      </trkpt>
      <trkpt lat="44.77549" lon="-0.34629">
        <ele>104</ele>
        <time>2012-12-02T12:44:22Z</time>
      </trkpt>
      <trkpt lat="44.77495" lon="-0.34604">
        <ele>105</ele>
        <time>2012-12-02T12:44:35Z</time>
      </trkpt>
      <trkpt lat="44.7743" lon="-0.34578">
        <ele>105</ele>
        <time>2012-12-02T12:44:50Z</time>
      </trkpt>
      <trkpt lat="44.77426" lon="-0.34578">
        <ele>105</ele>
        <time>2012-12-02T12:44:51Z</time>
      </trkpt>
      <trkpt lat="44.77421" lon="-0.34578">
        <ele>105</ele>
        <time>2012-12-02T12:44:52Z</time>
      </trkpt>
      <trkpt lat="44.77417" lon="-0.34579">
        <ele>105</ele>
        <time>2012-12-02T12:44:53Z</time>
      </trkpt>
      <trkpt lat="44.77413" lon="-0.3458">
        <ele>105</ele>
        <time>2012-12-02T12:44:54Z</time>
      </trkpt>
      <trkpt lat="44.77409" lon="-0.34582">
        <ele>105</ele>
        <time>2012-12-02T12:44:55Z</time>
      </trkpt>
      <trkpt lat="44.77405" lon="-0.34584">
        <ele>105</ele>
        <time>2012-12-02T12:44:56Z</time>
      </trkpt>
      <trkpt lat="44.77401" lon="-0.34587">
        <ele>105</ele>
        <time>2012-12-02T12:44:57Z</time>
      </trkpt>
      <trkpt lat="44.77357" lon="-0.34637">
        <ele>104</ele>
        <time>2012-12-02T12:45:10Z</time>
      </trkpt>
      <trkpt lat="44.77355" lon="-0.34642">
        <ele>104</ele>
        <time>2012-12-02T12:45:11Z</time>
      </trkpt>
      <trkpt lat="44.7735" lon="-0.34659">
        <ele>104</ele>
        <time>2012-12-02T12:45:14Z</time>
      </trkpt>
      <trkpt lat="44.77346" lon="-0.34662">
        <ele>104</ele>
        <time>2012-12-02T12:45:15Z</time>
      </trkpt>
      <trkpt lat="44.77343" lon="-0.34664">
        <ele>104</ele>
        <time>2012-12-02T12:45:16Z</time>
      </trkpt>
      <trkpt lat="44.77338" lon="-0.34664">
        <ele>104</ele>
        <time>2012-12-02T12:45:17Z</time>
      </trkpt>
      <trkpt lat="44.77335" lon="-0.3466">
        <ele>104</ele>
        <time>2012-12-02T12:45:18Z</time>
      </trkpt>
      <trkpt lat="44.77332" lon="-0.34656">
        <ele>104</ele>
        <time>2012-12-02T12:45:19Z</time>
      </trkpt>
      <trkpt lat="44.7733" lon="-0.34651">
        <ele>104</ele>
        <time>2012-12-02T12:45:20Z</time>
      </trkpt>
      <trkpt lat="44.77327" lon="-0.34646">
        <ele>104</ele>
        <time>2012-12-02T12:45:21Z</time>
      </trkpt>
      <trkpt lat="44.77292" lon="-0.34592">
        <ele>105</ele>
        <time>2012-12-02T12:45:33Z</time>
      </trkpt>
      <trkpt lat="44.77289" lon="-0.34588">
        <ele>105</ele>
        <time>2012-12-02T12:45:34Z</time>
      </trkpt>
      <trkpt lat="44.77285" lon="-0.34585">
        <ele>105</ele>
        <time>2012-12-02T12:45:35Z</time>
      </trkpt>
      <trkpt lat="44.77283" lon="-0.3458">
        <ele>105</ele>
        <time>2012-12-02T12:45:36Z</time>
      </trkpt>
      <trkpt lat="44.77282" lon="-0.34575">
        <ele>105</ele>
        <time>2012-12-02T12:45:37Z</time>
      </trkpt>
      <trkpt lat="44.77283" lon="-0.34569">
        <ele>105</ele>
        <time>2012-12-02T12:45:38Z</time>
      </trkpt>
      <trkpt lat="44.77285" lon="-0.34565">
        <ele>105</ele>
        <time>2012-12-02T12:45:39Z</time>
      </trkpt>
      <trkpt lat="44.77288" lon="-0.34562">
        <ele>105</ele>
        <time>2012-12-02T12:45:40Z</time>
      </trkpt>
      <trkpt lat="44.77292" lon="-0.34555">
        <ele>105</ele>
        <time>2012-12-02T12:45:42Z</time>
      </trkpt>
      <trkpt lat="44.77292" lon="-0.34551">
        <ele>105</ele>
        <time>2012-12-02T12:45:43Z</time>
      </trkpt>
      <trkpt lat="44.7729" lon="-0.34549">
        <ele>105</ele>
        <time>2012-12-02T12:45:44Z</time>
      </trkpt>
      <trkpt lat="44.77288" lon="-0.34548">
        <ele>105</ele>
        <time>2012-12-02T12:45:45Z</time>
      </trkpt>
      <trkpt lat="44.77285" lon="-0.34547">
        <ele>105</ele>
        <time>2012-12-02T12:45:46Z</time>
      </trkpt>
      <trkpt lat="44.77278" lon="-0.34544">
        <ele>105</ele>
        <time>2012-12-02T12:45:48Z</time>
      </trkpt>
      <trkpt lat="44.77275" lon="-0.34541">
        <ele>105</ele>
        <time>2012-12-02T12:45:49Z</time>
      </trkpt>
      <trkpt lat="44.77273" lon="-0.34537">
        <ele>105</ele>
        <time>2012-12-02T12:45:50Z</time>
      </trkpt>
      <trkpt lat="44.7727" lon="-0.34533">
        <ele>105</ele>
        <time>2012-12-02T12:45:51Z</time>
      </trkpt>
      <trkpt lat="44.77267" lon="-0.34529">
        <ele>105</ele>
        <time>2012-12-02T12:45:52Z</time>
      </trkpt>
      <trkpt lat="44.77233" lon="-0.34473">
        <ele>105</ele>
        <time>2012-12-02T12:46:04Z</time>
      </trkpt>
      <trkpt lat="44.77214" lon="-0.34405">
        <ele>104</ele>
        <time>2012-12-02T12:46:16Z</time>
      </trkpt>
      <trkpt lat="44.77218" lon="-0.34329">
        <ele>104</ele>
        <time>2012-12-02T12:46:28Z</time>
      </trkpt>
      <trkpt lat="44.77212" lon="-0.34246">
        <ele>104</ele>
        <time>2012-12-02T12:46:40Z</time>
      </trkpt>
      <trkpt lat="44.77209" lon="-0.34149">
        <ele>103</ele>
        <time>2012-12-02T12:46:53Z</time>
      </trkpt>
      <trkpt lat="44.77212" lon="-0.34107">
        <ele>103</ele>
        <time>2012-12-02T12:47:01Z</time>
      </trkpt>
      <trkpt lat="44.77214" lon="-0.34095">
        <ele>103</ele>
        <time>2012-12-02T12:47:03Z</time>
      </trkpt>
      <trkpt lat="44.77221" lon="-0.34014">
        <ele>104</ele>
        <time>2012-12-02T12:47:15Z</time>
      </trkpt>
      <trkpt lat="44.77223" lon="-0.33981">
        <ele>104</ele>
        <time>2012-12-02T12:47:20Z</time>
      </trkpt>
      <trkpt lat="44.77233" lon="-0.33875">
        <ele>105</ele>
        <time>2012-12-02T12:47:35Z</time>
      </trkpt>
      <trkpt lat="44.7723" lon="-0.33777">
        <ele>104</ele>
        <time>2012-12-02T12:47:49Z</time>
      </trkpt>
      <trkpt lat="44.77208" lon="-0.33673">
        <ele>104</ele>
        <time>2012-12-02T12:48:04Z</time>
      </trkpt>
      <trkpt lat="44.77206" lon="-0.33667">
        <ele>104</ele>
        <time>2012-12-02T12:48:05Z</time>
      </trkpt>
      <trkpt lat="44.77202" lon="-0.33615">
        <ele>104</ele>
        <time>2012-12-02T12:48:15Z</time>
      </trkpt>
      <trkpt lat="44.77204" lon="-0.33612">
        <ele>104</ele>
        <time>2012-12-02T12:48:16Z</time>
      </trkpt>
      <trkpt lat="44.77206" lon="-0.33611">
        <ele>104</ele>
        <time>2012-12-02T12:48:17Z</time>
      </trkpt>
      <trkpt lat="44.77209" lon="-0.3361">
        <ele>104</ele>
        <time>2012-12-02T12:48:18Z</time>
      </trkpt>
      <trkpt lat="44.77222" lon="-0.33607">
        <ele>104</ele>
        <time>2012-12-02T12:48:22Z</time>
      </trkpt>
      <trkpt lat="44.77226" lon="-0.33605">
        <ele>104</ele>
        <time>2012-12-02T12:48:23Z</time>
      </trkpt>
      <trkpt lat="44.77229" lon="-0.33603">
        <ele>104</ele>
        <time>2012-12-02T12:48:24Z</time>
      </trkpt>
      <trkpt lat="44.77232" lon="-0.336">
        <ele>104</ele>
        <time>2012-12-02T12:48:25Z</time>
      </trkpt>
      <trkpt lat="44.77234" lon="-0.33597">
        <ele>104</ele>
        <time>2012-12-02T12:48:26Z</time>
      </trkpt>
      <trkpt lat="44.77236" lon="-0.33592">
        <ele>104</ele>
        <time>2012-12-02T12:48:27Z</time>
      </trkpt>
      <trkpt lat="44.77259" lon="-0.33573">
        <ele>103</ele>
        <time>2012-12-02T12:48:34Z</time>
      </trkpt>
      <trkpt lat="44.77262" lon="-0.33564">
        <ele>103</ele>
        <time>2012-12-02T12:48:36Z</time>
      </trkpt>
      <trkpt lat="44.77262" lon="-0.33558">
        <ele>103</ele>
        <time>2012-12-02T12:48:37Z</time>
      </trkpt>
      <trkpt lat="44.77262" lon="-0.33553">
        <ele>103</ele>
        <time>2012-12-02T12:48:38Z</time>
      </trkpt>
      <trkpt lat="44.7726" lon="-0.33548">
        <ele>103</ele>
        <time>2012-12-02T12:48:39Z</time>
      </trkpt>
      <trkpt lat="44.77259" lon="-0.33542">
        <ele>103</ele>
        <time>2012-12-02T12:48:40Z</time>
      </trkpt>
      <trkpt lat="44.77258" lon="-0.33537">
        <ele>103</ele>
        <time>2012-12-02T12:48:41Z</time>
      </trkpt>
      <trkpt lat="44.77257" lon="-0.33532">
        <ele>103</ele>
        <time>2012-12-02T12:48:42Z</time>
      </trkpt>
      <trkpt lat="44.77241" lon="-0.33474">
        <ele>103</ele>
        <time>2012-12-02T12:48:53Z</time>
      </trkpt>
      <trkpt lat="44.77228" lon="-0.33421">
        <ele>103</ele>
        <time>2012-12-02T12:49:03Z</time>
      </trkpt>
      <trkpt lat="44.77226" lon="-0.33409">
        <ele>103</ele>
        <time>2012-12-02T12:49:05Z</time>
      </trkpt>
      <trkpt lat="44.77225" lon="-0.33381">
        <ele>103</ele>
        <time>2012-12-02T12:49:10Z</time>
      </trkpt>
      <trkpt lat="44.77213" lon="-0.3336">
        <ele>103</ele>
        <time>2012-12-02T12:49:15Z</time>
      </trkpt>
      <trkpt lat="44.77211" lon="-0.33355">
        <ele>103</ele>
        <time>2012-12-02T12:49:16Z</time>
      </trkpt>
      <trkpt lat="44.77206" lon="-0.33345">
        <ele>103</ele>
        <time>2012-12-02T12:49:18Z</time>
      </trkpt>
      <trkpt lat="44.77204" lon="-0.3334">
        <ele>103</ele>
        <time>2012-12-02T12:49:19Z</time>
      </trkpt>
      <trkpt lat="44.77203" lon="-0.33335">
        <ele>103</ele>
        <time>2012-12-02T12:49:20Z</time>
      </trkpt>
      <trkpt lat="44.77201" lon="-0.33316">
        <ele>103</ele>
        <time>2012-12-02T12:49:23Z</time>
      </trkpt>
      <trkpt lat="44.77201" lon="-0.33309">
        <ele>103</ele>
        <time>2012-12-02T12:49:24Z</time>
      </trkpt>
      <trkpt lat="44.77201" lon="-0.33303">
        <ele>103</ele>
        <time>2012-12-02T12:49:25Z</time>
      </trkpt>
      <trkpt lat="44.772" lon="-0.33236">
        <ele>102</ele>
        <time>2012-12-02T12:49:37Z</time>
      </trkpt>
      <trkpt lat="44.77201" lon="-0.33233">
        <ele>102</ele>
        <time>2012-12-02T12:49:38Z</time>
      </trkpt>
      <trkpt lat="44.77203" lon="-0.33232">
        <ele>102</ele>
        <time>2012-12-02T12:49:39Z</time>
      </trkpt>
      <trkpt lat="44.77205" lon="-0.33231">
        <ele>102</ele>
        <time>2012-12-02T12:49:40Z</time>
      </trkpt>
      <trkpt lat="44.77207" lon="-0.33231">
        <ele>103</ele>
        <time>2012-12-02T12:49:41Z</time>
      </trkpt>
      <trkpt lat="44.77209" lon="-0.33231">
        <ele>103</ele>
        <time>2012-12-02T12:49:42Z</time>
      </trkpt>
      <trkpt lat="44.77211" lon="-0.33231">
        <ele>103</ele>
        <time>2012-12-02T12:49:43Z</time>
      </trkpt>
      <trkpt lat="44.77245" lon="-0.33227">
        <ele>103</ele>
        <time>2012-12-02T12:49:54Z</time>
      </trkpt>
      <trkpt lat="44.77271" lon="-0.33225">
        <ele>103</ele>
        <time>2012-12-02T12:50:05Z</time>
      </trkpt>
      <trkpt lat="44.77271" lon="-0.33225">
        <ele>103</ele>
        <time>2012-12-02T12:50:09Z</time>
      </trkpt>
      <trkpt lat="44.77274" lon="-0.33224">
        <ele>103</ele>
        <time>2012-12-02T12:50:17Z</time>
      </trkpt>
      <trkpt lat="44.77276" lon="-0.33225">
        <ele>103</ele>
        <time>2012-12-02T12:50:18Z</time>
      </trkpt>
      <trkpt lat="44.77277" lon="-0.33225">
        <ele>103</ele>
        <time>2012-12-02T12:50:19Z</time>
      </trkpt>
      <trkpt lat="44.77298" lon="-0.3322">
        <ele>103</ele>
        <time>2012-12-02T12:50:28Z</time>
      </trkpt>
      <trkpt lat="44.77305" lon="-0.33215">
        <ele>103</ele>
        <time>2012-12-02T12:50:31Z</time>
      </trkpt>
      <trkpt lat="44.77307" lon="-0.33211">
        <ele>103</ele>
        <time>2012-12-02T12:50:32Z</time>
      </trkpt>
      <trkpt lat="44.77309" lon="-0.33207">
        <ele>103</ele>
        <time>2012-12-02T12:50:33Z</time>
      </trkpt>
      <trkpt lat="44.77311" lon="-0.33202">
        <ele>103</ele>
        <time>2012-12-02T12:50:34Z</time>
      </trkpt>
      <trkpt lat="44.77312" lon="-0.33197">
        <ele>103</ele>
        <time>2012-12-02T12:50:35Z</time>
      </trkpt>
      <trkpt lat="44.7732" lon="-0.33171">
        <ele>102</ele>
        <time>2012-12-02T12:50:40Z</time>
      </trkpt>
      <trkpt lat="44.77321" lon="-0.33165">
        <ele>102</ele>
        <time>2012-12-02T12:50:41Z</time>
      </trkpt>
      <trkpt lat="44.77326" lon="-0.33149">
        <ele>101</ele>
        <time>2012-12-02T12:50:44Z</time>
      </trkpt>
      <trkpt lat="44.77334" lon="-0.33093">
        <ele>100</ele>
        <time>2012-12-02T12:50:54Z</time>
      </trkpt>
      <trkpt lat="44.77337" lon="-0.3306">
        <ele>99</ele>
        <time>2012-12-02T12:50:59Z</time>
      </trkpt>
      <trkpt lat="44.77345" lon="-0.33015">
        <ele>98</ele>
        <time>2012-12-02T12:51:06Z</time>
      </trkpt>
      <trkpt lat="44.77347" lon="-0.3301">
        <ele>98</ele>
        <time>2012-12-02T12:51:07Z</time>
      </trkpt>
      <trkpt lat="44.77349" lon="-0.33005">
        <ele>98</ele>
        <time>2012-12-02T12:51:08Z</time>
      </trkpt>
      <trkpt lat="44.77352" lon="-0.33002">
        <ele>98</ele>
        <time>2012-12-02T12:51:09Z</time>
      </trkpt>
      <trkpt lat="44.77355" lon="-0.33001">
        <ele>98</ele>
        <time>2012-12-02T12:51:10Z</time>
      </trkpt>
      <trkpt lat="44.77358" lon="-0.33001">
        <ele>98</ele>
        <time>2012-12-02T12:51:11Z</time>
      </trkpt>
      <trkpt lat="44.77362" lon="-0.33001">
        <ele>98</ele>
        <time>2012-12-02T12:51:12Z</time>
      </trkpt>
      <trkpt lat="44.77365" lon="-0.33001">
        <ele>98</ele>
        <time>2012-12-02T12:51:13Z</time>
      </trkpt>
      <trkpt lat="44.77381" lon="-0.33">
        <ele>98</ele>
        <time>2012-12-02T12:51:17Z</time>
      </trkpt>
      <trkpt lat="44.77387" lon="-0.32998">
        <ele>98</ele>
        <time>2012-12-02T12:51:18Z</time>
      </trkpt>
      <trkpt lat="44.77391" lon="-0.32996">
        <ele>98</ele>
        <time>2012-12-02T12:51:19Z</time>
      </trkpt>
      <trkpt lat="44.77395" lon="-0.32994">
        <ele>98</ele>
        <time>2012-12-02T12:51:20Z</time>
      </trkpt>
      <trkpt lat="44.77399" lon="-0.32991">
        <ele>98</ele>
        <time>2012-12-02T12:51:21Z</time>
      </trkpt>
      <trkpt lat="44.77416" lon="-0.32974">
        <ele>98</ele>
        <time>2012-12-02T12:51:26Z</time>
      </trkpt>
      <trkpt lat="44.77419" lon="-0.3297">
        <ele>98</ele>
        <time>2012-12-02T12:51:27Z</time>
      </trkpt>
      <trkpt lat="44.77447" lon="-0.32939">
        <ele>97</ele>
        <time>2012-12-02T12:51:35Z</time>
      </trkpt>
      <trkpt lat="44.77451" lon="-0.32935">
        <ele>97</ele>
        <time>2012-12-02T12:51:36Z</time>
      </trkpt>
      <trkpt lat="44.77484" lon="-0.32904">
        <ele>98</ele>
        <time>2012-12-02T12:51:46Z</time>
      </trkpt>
      <trkpt lat="44.77522" lon="-0.32871">
        <ele>99</ele>
        <time>2012-12-02T12:51:57Z</time>
      </trkpt>
      <trkpt lat="44.7753" lon="-0.32867">
        <ele>99</ele>
        <time>2012-12-02T12:51:59Z</time>
      </trkpt>
      <trkpt lat="44.77545" lon="-0.32858">
        <ele>98</ele>
        <time>2012-12-02T12:52:03Z</time>
      </trkpt>
      <trkpt lat="44.7755" lon="-0.32857">
        <ele>98</ele>
        <time>2012-12-02T12:52:04Z</time>
      </trkpt>
      <trkpt lat="44.7756" lon="-0.32855">
        <ele>98</ele>
        <time>2012-12-02T12:52:06Z</time>
      </trkpt>
      <trkpt lat="44.77579" lon="-0.32847">
        <ele>97</ele>
        <time>2012-12-02T12:52:10Z</time>
      </trkpt>
      <trkpt lat="44.77596" lon="-0.32842">
        <ele>97</ele>
        <time>2012-12-02T12:52:14Z</time>
      </trkpt>
      <trkpt lat="44.77599" lon="-0.3284">
        <ele>97</ele>
        <time>2012-12-02T12:52:15Z</time>
      </trkpt>
      <trkpt lat="44.77602" lon="-0.32837">
        <ele>97</ele>
        <time>2012-12-02T12:52:16Z</time>
      </trkpt>
      <trkpt lat="44.77604" lon="-0.32832">
        <ele>97</ele>
        <time>2012-12-02T12:52:17Z</time>
      </trkpt>
      <trkpt lat="44.77602" lon="-0.32809">
        <ele>97</ele>
        <time>2012-12-02T12:52:21Z</time>
      </trkpt>
      <trkpt lat="44.77589" lon="-0.32742">
        <ele>96</ele>
        <time>2012-12-02T12:52:32Z</time>
      </trkpt>
      <trkpt lat="44.77585" lon="-0.32703">
        <ele>95</ele>
        <time>2012-12-02T12:52:38Z</time>
      </trkpt>
      <trkpt lat="44.77581" lon="-0.32675">
        <ele>93</ele>
        <time>2012-12-02T12:52:42Z</time>
      </trkpt>
      <trkpt lat="44.77587" lon="-0.32624">
        <ele>90</ele>
        <time>2012-12-02T12:52:49Z</time>
      </trkpt>
      <trkpt lat="44.77579" lon="-0.32529">
        <ele>87</ele>
        <time>2012-12-02T12:53:00Z</time>
      </trkpt>
      <trkpt lat="44.77574" lon="-0.32475">
        <ele>85</ele>
        <time>2012-12-02T12:53:08Z</time>
      </trkpt>
      <trkpt lat="44.77571" lon="-0.32468">
        <ele>85</ele>
        <time>2012-12-02T12:53:09Z</time>
      </trkpt>
      <trkpt lat="44.77551" lon="-0.3241">
        <ele>82</ele>
        <time>2012-12-02T12:53:18Z</time>
      </trkpt>
      <trkpt lat="44.77549" lon="-0.32401">
        <ele>82</ele>
        <time>2012-12-02T12:53:20Z</time>
      </trkpt>
      <trkpt lat="44.77555" lon="-0.3239">
        <ele>82</ele>
        <time>2012-12-02T12:53:25Z</time>
      </trkpt>
      <trkpt lat="44.77589" lon="-0.32388">
        <ele>81</ele>
        <time>2012-12-02T12:53:36Z</time>
      </trkpt>
      <trkpt lat="44.77613" lon="-0.32388">
        <ele>80</ele>
        <time>2012-12-02T12:53:45Z</time>
      </trkpt>
      <trkpt lat="44.77643" lon="-0.3239">
        <ele>78</ele>
        <time>2012-12-02T12:53:53Z</time>
      </trkpt>
      <trkpt lat="44.77687" lon="-0.32393">
        <ele>76</ele>
        <time>2012-12-02T12:54:05Z</time>
      </trkpt>
      <trkpt lat="44.77714" lon="-0.32388">
        <ele>75</ele>
        <time>2012-12-02T12:54:14Z</time>
      </trkpt>
      <trkpt lat="44.77731" lon="-0.32396">
        <ele>74</ele>
        <time>2012-12-02T12:54:23Z</time>
      </trkpt>
      <trkpt lat="44.77766" lon="-0.324">
        <ele>74</ele>
        <time>2012-12-02T12:54:34Z</time>
      </trkpt>
      <trkpt lat="44.77811" lon="-0.32403">
        <ele>73</ele>
        <time>2012-12-02T12:54:46Z</time>
      </trkpt>
      <trkpt lat="44.77818" lon="-0.32401">
        <ele>72</ele>
        <time>2012-12-02T12:54:48Z</time>
      </trkpt>
      <trkpt lat="44.77826" lon="-0.32377">
        <ele>71</ele>
        <time>2012-12-02T12:54:53Z</time>
      </trkpt>
      <trkpt lat="44.77834" lon="-0.32288">
        <ele>69</ele>
        <time>2012-12-02T12:55:05Z</time>
      </trkpt>
      <trkpt lat="44.77852" lon="-0.32273">
        <ele>68</ele>
        <time>2012-12-02T12:55:10Z</time>
      </trkpt>
      <trkpt lat="44.77861" lon="-0.32276">
        <ele>67</ele>
        <time>2012-12-02T12:55:12Z</time>
      </trkpt>
      <trkpt lat="44.77876" lon="-0.32278">
        <ele>66</ele>
        <time>2012-12-02T12:55:15Z</time>
      </trkpt>
      <trkpt lat="44.77919" lon="-0.32293">
        <ele>66</ele>
        <time>2012-12-02T12:55:24Z</time>
      </trkpt>
      <trkpt lat="44.77935" lon="-0.32297">
        <ele>66</ele>
        <time>2012-12-02T12:55:28Z</time>
      </trkpt>
      <trkpt lat="44.77949" lon="-0.32276">
        <ele>65</ele>
        <time>2012-12-02T12:55:34Z</time>
      </trkpt>
      <trkpt lat="44.77956" lon="-0.32272">
        <ele>65</ele>
        <time>2012-12-02T12:55:36Z</time>
      </trkpt>
      <trkpt lat="44.77985" lon="-0.32276">
        <ele>64</ele>
        <time>2012-12-02T12:55:41Z</time>
      </trkpt>
      <trkpt lat="44.78003" lon="-0.32257">
        <ele>63</ele>
        <time>2012-12-02T12:55:46Z</time>
      </trkpt>
      <trkpt lat="44.78006" lon="-0.32243">
        <ele>63</ele>
        <time>2012-12-02T12:55:48Z</time>
      </trkpt>
      <trkpt lat="44.78011" lon="-0.32221">
        <ele>62</ele>
        <time>2012-12-02T12:55:51Z</time>
      </trkpt>
      <trkpt lat="44.78016" lon="-0.32175">
        <ele>61</ele>
        <time>2012-12-02T12:55:58Z</time>
      </trkpt>
      <trkpt lat="44.78021" lon="-0.32151">
        <ele>60</ele>
        <time>2012-12-02T12:56:05Z</time>
      </trkpt>
      <trkpt lat="44.78023" lon="-0.32145">
        <ele>60</ele>
        <time>2012-12-02T12:56:19Z</time>
      </trkpt>
      <trkpt lat="44.78024" lon="-0.32144">
        <ele>60</ele>
        <time>2012-12-02T12:56:42Z</time>
      </trkpt>
      <trkpt lat="44.78024" lon="-0.32144">
        <ele>60</ele>
        <time>2012-12-02T12:56:52Z</time>
      </trkpt>
      <trkpt lat="44.78019" lon="-0.32143">
        <ele>60</ele>
        <time>2012-12-02T12:57:00Z</time>
      </trkpt>
      <trkpt lat="44.78022" lon="-0.32143">
        <ele>60</ele>
        <time>2012-12-02T12:57:08Z</time>
      </trkpt>
      <trkpt lat="44.78021" lon="-0.32143">
        <ele>60</ele>
        <time>2012-12-02T12:57:15Z</time>
      </trkpt>
      <trkpt lat="44.78022" lon="-0.32144">
        <ele>60</ele>
        <time>2012-12-02T12:57:32Z</time>
      </trkpt>
      <trkpt lat="44.78022" lon="-0.32144">
        <ele>60</ele>
        <time>2012-12-02T12:57:53Z</time>
      </trkpt>
      <trkpt lat="44.78023" lon="-0.3214">
        <ele>60</ele>
        <time>2012-12-02T12:58:24Z</time>
      </trkpt>
      <trkpt lat="44.78022" lon="-0.3214">
        <ele>60</ele>
        <time>2012-12-02T12:58:27Z</time>
      </trkpt>
      <trkpt lat="44.77999" lon="-0.32128">
        <ele>60</ele>
        <time>2012-12-02T12:58:38Z</time>
      </trkpt>
      <trkpt lat="44.77965" lon="-0.32109">
        <ele>60</ele>
        <time>2012-12-02T12:58:48Z</time>
      </trkpt>
      <trkpt lat="44.77952" lon="-0.32102">
        <ele>61</ele>
        <time>2012-12-02T12:58:52Z</time>
      </trkpt>
      <trkpt lat="44.77949" lon="-0.32078">
        <ele>60</ele>
        <time>2012-12-02T12:58:58Z</time>
      </trkpt>
      <trkpt lat="44.77957" lon="-0.3204">
        <ele>60</ele>
        <time>2012-12-02T12:59:05Z</time>
      </trkpt>
      <trkpt lat="44.77958" lon="-0.32034">
        <ele>60</ele>
        <time>2012-12-02T12:59:06Z</time>
      </trkpt>
      <trkpt lat="44.77959" lon="-0.32022">
        <ele>60</ele>
        <time>2012-12-02T12:59:08Z</time>
      </trkpt>
      <trkpt lat="44.77959" lon="-0.32016">
        <ele>60</ele>
        <time>2012-12-02T12:59:09Z</time>
      </trkpt>
      <trkpt lat="44.77958" lon="-0.3201">
        <ele>60</ele>
        <time>2012-12-02T12:59:10Z</time>
      </trkpt>
      <trkpt lat="44.77957" lon="-0.32003">
        <ele>60</ele>
        <time>2012-12-02T12:59:11Z</time>
      </trkpt>
      <trkpt lat="44.77955" lon="-0.31997">
        <ele>60</ele>
        <time>2012-12-02T12:59:12Z</time>
      </trkpt>
      <trkpt lat="44.77931" lon="-0.31941">
        <ele>60</ele>
        <time>2012-12-02T12:59:22Z</time>
      </trkpt>
      <trkpt lat="44.7793" lon="-0.31935">
        <ele>60</ele>
        <time>2012-12-02T12:59:23Z</time>
      </trkpt>
      <trkpt lat="44.77929" lon="-0.31929">
        <ele>61</ele>
        <time>2012-12-02T12:59:24Z</time>
      </trkpt>
      <trkpt lat="44.77928" lon="-0.31923">
        <ele>61</ele>
        <time>2012-12-02T12:59:25Z</time>
      </trkpt>
      <trkpt lat="44.77928" lon="-0.31916">
        <ele>61</ele>
        <time>2012-12-02T12:59:26Z</time>
      </trkpt>
      <trkpt lat="44.77928" lon="-0.3191">
        <ele>61</ele>
        <time>2012-12-02T12:59:27Z</time>
      </trkpt>
      <trkpt lat="44.77928" lon="-0.31903">
        <ele>61</ele>
        <time>2012-12-02T12:59:28Z</time>
      </trkpt>
      <trkpt lat="44.77942" lon="-0.31828">
        <ele>63</ele>
        <time>2012-12-02T12:59:40Z</time>
      </trkpt>
      <trkpt lat="44.77956" lon="-0.3175">
        <ele>65</ele>
        <time>2012-12-02T12:59:54Z</time>
      </trkpt>
      <trkpt lat="44.77966" lon="-0.31691">
        <ele>67</ele>
        <time>2012-12-02T13:00:06Z</time>
      </trkpt>
      <trkpt lat="44.77968" lon="-0.31683">
        <ele>67</ele>
        <time>2012-12-02T13:00:08Z</time>
      </trkpt>
      <trkpt lat="44.7797" lon="-0.3168">
        <ele>67</ele>
        <time>2012-12-02T13:00:09Z</time>
      </trkpt>
      <trkpt lat="44.77972" lon="-0.31678">
        <ele>67</ele>
        <time>2012-12-02T13:00:10Z</time>
      </trkpt>
      <trkpt lat="44.77983" lon="-0.3168">
        <ele>67</ele>
        <time>2012-12-02T13:00:13Z</time>
      </trkpt>
      <trkpt lat="44.7803" lon="-0.31701">
        <ele>66</ele>
        <time>2012-12-02T13:00:26Z</time>
      </trkpt>
      <trkpt lat="44.78067" lon="-0.31722">
        <ele>66</ele>
        <time>2012-12-02T13:00:38Z</time>
      </trkpt>
      <trkpt lat="44.78095" lon="-0.31736">
        <ele>66</ele>
        <time>2012-12-02T13:00:49Z</time>
      </trkpt>
      <trkpt lat="44.78118" lon="-0.3174">
        <ele>67</ele>
        <time>2012-12-02T13:00:59Z</time>
      </trkpt>
      <trkpt lat="44.78144" lon="-0.31737">
        <ele>67</ele>
        <time>2012-12-02T13:01:07Z</time>
      </trkpt>
      <trkpt lat="44.78177" lon="-0.31736">
        <ele>67</ele>
        <time>2012-12-02T13:01:16Z</time>
      </trkpt>
      <trkpt lat="44.78213" lon="-0.31742">
        <ele>67</ele>
        <time>2012-12-02T13:01:26Z</time>
      </trkpt>
      <trkpt lat="44.78234" lon="-0.31742">
        <ele>67</ele>
        <time>2012-12-02T13:01:33Z</time>
      </trkpt>
      <trkpt lat="44.78238" lon="-0.31741">
        <ele>67</ele>
        <time>2012-12-02T13:01:34Z</time>
      </trkpt>
      <trkpt lat="44.78282" lon="-0.31749">
        <ele>67</ele>
        <time>2012-12-02T13:01:45Z</time>
      </trkpt>
      <trkpt lat="44.78312" lon="-0.31758">
        <ele>66</ele>
        <time>2012-12-02T13:01:53Z</time>
      </trkpt>
      <trkpt lat="44.78316" lon="-0.31758">
        <ele>66</ele>
        <time>2012-12-02T13:01:54Z</time>
      </trkpt>
      <trkpt lat="44.78325" lon="-0.3176">
        <ele>66</ele>
        <time>2012-12-02T13:01:56Z</time>
      </trkpt>
      <trkpt lat="44.78349" lon="-0.31761">
        <ele>65</ele>
        <time>2012-12-02T13:02:01Z</time>
      </trkpt>
      <trkpt lat="44.78359" lon="-0.31761">
        <ele>64</ele>
        <time>2012-12-02T13:02:03Z</time>
      </trkpt>
      <trkpt lat="44.78383" lon="-0.31758">
        <ele>63</ele>
        <time>2012-12-02T13:02:08Z</time>
      </trkpt>
      <trkpt lat="44.78415" lon="-0.31747">
        <ele>61</ele>
        <time>2012-12-02T13:02:16Z</time>
      </trkpt>
      <trkpt lat="44.78446" lon="-0.31743">
        <ele>60</ele>
        <time>2012-12-02T13:02:24Z</time>
      </trkpt>
      <trkpt lat="44.78477" lon="-0.31752">
        <ele>60</ele>
        <time>2012-12-02T13:02:33Z</time>
      </trkpt>
      <trkpt lat="44.78516" lon="-0.31763">
        <ele>61</ele>
        <time>2012-12-02T13:02:44Z</time>
      </trkpt>
      <trkpt lat="44.78549" lon="-0.31781">
        <ele>62</ele>
        <time>2012-12-02T13:02:54Z</time>
      </trkpt>
      <trkpt lat="44.78587" lon="-0.31796">
        <ele>64</ele>
        <time>2012-12-02T13:03:04Z</time>
      </trkpt>
      <trkpt lat="44.78623" lon="-0.31801">
        <ele>65</ele>
        <time>2012-12-02T13:03:15Z</time>
      </trkpt>
      <trkpt lat="44.78649" lon="-0.31801">
        <ele>66</ele>
        <time>2012-12-02T13:03:27Z</time>
      </trkpt>
      <trkpt lat="44.78651" lon="-0.31792">
        <ele>66</ele>
        <time>2012-12-02T13:03:31Z</time>
      </trkpt>
      <trkpt lat="44.78658" lon="-0.31764">
        <ele>66</ele>
        <time>2012-12-02T13:03:42Z</time>
      </trkpt>
      <trkpt lat="44.7867" lon="-0.31717">
        <ele>66</ele>
        <time>2012-12-02T13:03:54Z</time>
      </trkpt>
      <trkpt lat="44.78678" lon="-0.3168">
        <ele>66</ele>
        <time>2012-12-02T13:04:02Z</time>
      </trkpt>
      <trkpt lat="44.78687" lon="-0.31648">
        <ele>67</ele>
        <time>2012-12-02T13:04:09Z</time>
      </trkpt>
      <trkpt lat="44.78693" lon="-0.31615">
        <ele>68</ele>
        <time>2012-12-02T13:04:16Z</time>
      </trkpt>
      <trkpt lat="44.78695" lon="-0.31574">
        <ele>68</ele>
        <time>2012-12-02T13:04:24Z</time>
      </trkpt>
      <trkpt lat="44.78694" lon="-0.31501">
        <ele>70</ele>
        <time>2012-12-02T13:04:37Z</time>
      </trkpt>
      <trkpt lat="44.7869" lon="-0.31442">
        <ele>71</ele>
        <time>2012-12-02T13:04:48Z</time>
      </trkpt>
      <trkpt lat="44.78686" lon="-0.31373">
        <ele>72</ele>
        <time>2012-12-02T13:05:01Z</time>
      </trkpt>
      <trkpt lat="44.78683" lon="-0.31314">
        <ele>72</ele>
        <time>2012-12-02T13:05:12Z</time>
      </trkpt>
      <trkpt lat="44.78685" lon="-0.31243">
        <ele>71</ele>
        <time>2012-12-02T13:05:23Z</time>
      </trkpt>
      <trkpt lat="44.78687" lon="-0.31219">
        <ele>71</ele>
        <time>2012-12-02T13:05:26Z</time>
      </trkpt>
      <trkpt lat="44.78692" lon="-0.31118">
        <ele>69</ele>
        <time>2012-12-02T13:05:38Z</time>
      </trkpt>
      <trkpt lat="44.78697" lon="-0.31025">
        <ele>70</ele>
        <time>2012-12-02T13:05:51Z</time>
      </trkpt>
      <trkpt lat="44.787" lon="-0.30998">
        <ele>70</ele>
        <time>2012-12-02T13:05:55Z</time>
      </trkpt>
      <trkpt lat="44.78704" lon="-0.30952">
        <ele>70</ele>
        <time>2012-12-02T13:06:02Z</time>
      </trkpt>
      <trkpt lat="44.78709" lon="-0.30882">
        <ele>70</ele>
        <time>2012-12-02T13:06:13Z</time>
      </trkpt>
      <trkpt lat="44.7871" lon="-0.30857">
        <ele>70</ele>
        <time>2012-12-02T13:06:17Z</time>
      </trkpt>
      <trkpt lat="44.78717" lon="-0.30755">
        <ele>71</ele>
        <time>2012-12-02T13:06:32Z</time>
      </trkpt>
      <trkpt lat="44.78723" lon="-0.30677">
        <ele>72</ele>
        <time>2012-12-02T13:06:44Z</time>
      </trkpt>
      <trkpt lat="44.78724" lon="-0.30664">
        <ele>72</ele>
        <time>2012-12-02T13:06:46Z</time>
      </trkpt>
      <trkpt lat="44.78724" lon="-0.30658">
        <ele>72</ele>
        <time>2012-12-02T13:06:47Z</time>
      </trkpt>
      <trkpt lat="44.78729" lon="-0.30577">
        <ele>71</ele>
        <time>2012-12-02T13:06:59Z</time>
      </trkpt>
      <trkpt lat="44.78728" lon="-0.30524">
        <ele>72</ele>
        <time>2012-12-02T13:07:08Z</time>
      </trkpt>
      <trkpt lat="44.78731" lon="-0.30467">
        <ele>72</ele>
        <time>2012-12-02T13:07:18Z</time>
      </trkpt>
      <trkpt lat="44.78729" lon="-0.3045">
        <ele>72</ele>
        <time>2012-12-02T13:07:21Z</time>
      </trkpt>
      <trkpt lat="44.78726" lon="-0.30392">
        <ele>73</ele>
        <time>2012-12-02T13:07:31Z</time>
      </trkpt>
      <trkpt lat="44.78726" lon="-0.30346">
        <ele>73</ele>
        <time>2012-12-02T13:07:42Z</time>
      </trkpt>
      <trkpt lat="44.78726" lon="-0.30326">
        <ele>73</ele>
        <time>2012-12-02T13:07:51Z</time>
      </trkpt>
      <trkpt lat="44.78726" lon="-0.30313">
        <ele>73</ele>
        <time>2012-12-02T13:07:56Z</time>
      </trkpt>
      <trkpt lat="44.78725" lon="-0.30303">
        <ele>74</ele>
        <time>2012-12-02T13:08:01Z</time>
      </trkpt>
      <trkpt lat="44.78724" lon="-0.30289">
        <ele>74</ele>
        <time>2012-12-02T13:08:08Z</time>
      </trkpt>
      <trkpt lat="44.78716" lon="-0.3027">
        <ele>74</ele>
        <time>2012-12-02T13:08:18Z</time>
      </trkpt>
      <trkpt lat="44.78714" lon="-0.30241">
        <ele>74</ele>
        <time>2012-12-02T13:08:26Z</time>
      </trkpt>
      <trkpt lat="44.78712" lon="-0.30215">
        <ele>75</ele>
        <time>2012-12-02T13:08:34Z</time>
      </trkpt>
      <trkpt lat="44.78709" lon="-0.30187">
        <ele>75</ele>
        <time>2012-12-02T13:08:41Z</time>
      </trkpt>
      <trkpt lat="44.7871" lon="-0.30168">
        <ele>76</ele>
        <time>2012-12-02T13:08:46Z</time>
      </trkpt>
      <trkpt lat="44.78716" lon="-0.30146">
        <ele>76</ele>
        <time>2012-12-02T13:08:54Z</time>
      </trkpt>
      <trkpt lat="44.78716" lon="-0.30138">
        <ele>76</ele>
        <time>2012-12-02T13:09:02Z</time>
      </trkpt>
      <trkpt lat="44.78713" lon="-0.30127">
        <ele>76</ele>
        <time>2012-12-02T13:09:11Z</time>
      </trkpt>
      <trkpt lat="44.78714" lon="-0.30123">
        <ele>76</ele>
        <time>2012-12-02T13:09:16Z</time>
      </trkpt>
      <trkpt lat="44.7871" lon="-0.30093">
        <ele>77</ele>
        <time>2012-12-02T13:09:27Z</time>
      </trkpt>
      <trkpt lat="44.78707" lon="-0.30057">
        <ele>78</ele>
        <time>2012-12-02T13:09:36Z</time>
      </trkpt>
      <trkpt lat="44.7871" lon="-0.30016">
        <ele>79</ele>
        <time>2012-12-02T13:09:45Z</time>
      </trkpt>
      <trkpt lat="44.78704" lon="-0.29972">
        <ele>80</ele>
        <time>2012-12-02T13:09:55Z</time>
      </trkpt>
      <trkpt lat="44.78704" lon="-0.29928">
        <ele>81</ele>
        <time>2012-12-02T13:10:05Z</time>
      </trkpt>
      <trkpt lat="44.78702" lon="-0.29884">
        <ele>81</ele>
        <time>2012-12-02T13:10:16Z</time>
      </trkpt>
      <trkpt lat="44.78697" lon="-0.29835">
        <ele>82</ele>
        <time>2012-12-02T13:10:29Z</time>
      </trkpt>
      <trkpt lat="44.78691" lon="-0.29801">
        <ele>83</ele>
        <time>2012-12-02T13:10:38Z</time>
      </trkpt>
      <trkpt lat="44.78689" lon="-0.29764">
        <ele>84</ele>
        <time>2012-12-02T13:10:47Z</time>
      </trkpt>
      <trkpt lat="44.78681" lon="-0.29736">
        <ele>84</ele>
        <time>2012-12-02T13:10:57Z</time>
      </trkpt>
      <trkpt lat="44.78681" lon="-0.29736">
        <ele>84</ele>
        <time>2012-12-02T13:11:10Z</time>
      </trkpt>
      <trkpt lat="44.78681" lon="-0.29736">
        <ele>84</ele>
        <time>2012-12-02T13:11:33Z</time>
      </trkpt>
      <trkpt lat="44.78681" lon="-0.29736">
        <ele>84</ele>
        <time>2012-12-02T13:11:53Z</time>
      </trkpt>
      <trkpt lat="44.78682" lon="-0.29735">
        <ele>84</ele>
        <time>2012-12-02T13:12:15Z</time>
      </trkpt>
      <trkpt lat="44.78682" lon="-0.29735">
        <ele>84</ele>
        <time>2012-12-02T13:12:43Z</time>
      </trkpt>
      <trkpt lat="44.78682" lon="-0.29735">
        <ele>84</ele>
        <time>2012-12-02T13:12:49Z</time>
      </trkpt>
      <trkpt lat="44.78678" lon="-0.2972">
        <ele>84</ele>
        <time>2012-12-02T13:12:57Z</time>
      </trkpt>
      <trkpt lat="44.78667" lon="-0.29693">
        <ele>83</ele>
        <time>2012-12-02T13:13:05Z</time>
      </trkpt>
      <trkpt lat="44.78643" lon="-0.29664">
        <ele>82</ele>
        <time>2012-12-02T13:13:15Z</time>
      </trkpt>
      <trkpt lat="44.78619" lon="-0.29628">
        <ele>79</ele>
        <time>2012-12-02T13:13:26Z</time>
      </trkpt>
      <trkpt lat="44.78584" lon="-0.29574">
        <ele>76</ele>
        <time>2012-12-02T13:13:39Z</time>
      </trkpt>
      <trkpt lat="44.78563" lon="-0.29542">
        <ele>74</ele>
        <time>2012-12-02T13:13:48Z</time>
      </trkpt>
      <trkpt lat="44.7856" lon="-0.29526">
        <ele>74</ele>
        <time>2012-12-02T13:13:51Z</time>
      </trkpt>
      <trkpt lat="44.78551" lon="-0.29503">
        <ele>74</ele>
        <time>2012-12-02T13:13:55Z</time>
      </trkpt>
      <trkpt lat="44.78544" lon="-0.29493">
        <ele>73</ele>
        <time>2012-12-02T13:13:57Z</time>
      </trkpt>
      <trkpt lat="44.78534" lon="-0.29479">
        <ele>72</ele>
        <time>2012-12-02T13:14:00Z</time>
      </trkpt>
      <trkpt lat="44.78526" lon="-0.29462">
        <ele>72</ele>
        <time>2012-12-02T13:14:03Z</time>
      </trkpt>
      <trkpt lat="44.78502" lon="-0.29419">
        <ele>71</ele>
        <time>2012-12-02T13:14:11Z</time>
      </trkpt>
      <trkpt lat="44.78473" lon="-0.29368">
        <ele>70</ele>
        <time>2012-12-02T13:14:21Z</time>
      </trkpt>
      <trkpt lat="44.78467" lon="-0.29358">
        <ele>70</ele>
        <time>2012-12-02T13:14:24Z</time>
      </trkpt>
      <trkpt lat="44.78467" lon="-0.29357">
        <ele>70</ele>
        <time>2012-12-02T13:14:32Z</time>
      </trkpt>
      <trkpt lat="44.78468" lon="-0.29361">
        <ele>70</ele>
        <time>2012-12-02T13:14:43Z</time>
      </trkpt>
      <trkpt lat="44.78468" lon="-0.29359">
        <ele>70</ele>
        <time>2012-12-02T13:14:47Z</time>
      </trkpt>
      <trkpt lat="44.78468" lon="-0.29352">
        <ele>70</ele>
        <time>2012-12-02T13:14:53Z</time>
      </trkpt>
      <trkpt lat="44.78468" lon="-0.29352">
        <ele>70</ele>
        <time>2012-12-02T13:14:59Z</time>
      </trkpt>
      <trkpt lat="44.78466" lon="-0.29347">
        <ele>70</ele>
        <time>2012-12-02T13:15:03Z</time>
      </trkpt>
      <trkpt lat="44.78461" lon="-0.2934">
        <ele>69</ele>
        <time>2012-12-02T13:15:07Z</time>
      </trkpt>
      <trkpt lat="44.78461" lon="-0.29322">
        <ele>69</ele>
        <time>2012-12-02T13:15:16Z</time>
      </trkpt>
      <trkpt lat="44.78464" lon="-0.29315">
        <ele>70</ele>
        <time>2012-12-02T13:15:21Z</time>
      </trkpt>
      <trkpt lat="44.78471" lon="-0.29302">
        <ele>70</ele>
        <time>2012-12-02T13:15:27Z</time>
      </trkpt>
      <trkpt lat="44.78492" lon="-0.29269">
        <ele>71</ele>
        <time>2012-12-02T13:15:38Z</time>
      </trkpt>
      <trkpt lat="44.78507" lon="-0.29244">
        <ele>71</ele>
        <time>2012-12-02T13:15:46Z</time>
      </trkpt>
      <trkpt lat="44.78512" lon="-0.29238">
        <ele>71</ele>
        <time>2012-12-02T13:15:48Z</time>
      </trkpt>
      <trkpt lat="44.78524" lon="-0.29233">
        <ele>71</ele>
        <time>2012-12-02T13:15:56Z</time>
      </trkpt>
      <trkpt lat="44.78528" lon="-0.29227">
        <ele>71</ele>
        <time>2012-12-02T13:15:59Z</time>
      </trkpt>
      <trkpt lat="44.78552" lon="-0.29199">
        <ele>71</ele>
        <time>2012-12-02T13:16:11Z</time>
      </trkpt>
      <trkpt lat="44.78573" lon="-0.29174">
        <ele>70</ele>
        <time>2012-12-02T13:16:22Z</time>
      </trkpt>
      <trkpt lat="44.78575" lon="-0.29171">
        <ele>70</ele>
        <time>2012-12-02T13:16:31Z</time>
      </trkpt>
      <trkpt lat="44.78579" lon="-0.29162">
        <ele>70</ele>
        <time>2012-12-02T13:16:45Z</time>
      </trkpt>
      <trkpt lat="44.78595" lon="-0.29138">
        <ele>70</ele>
        <time>2012-12-02T13:16:53Z</time>
      </trkpt>
      <trkpt lat="44.78631" lon="-0.29102">
        <ele>69</ele>
        <time>2012-12-02T13:17:05Z</time>
      </trkpt>
      <trkpt lat="44.78674" lon="-0.29068">
        <ele>69</ele>
        <time>2012-12-02T13:17:16Z</time>
      </trkpt>
      <trkpt lat="44.78693" lon="-0.29051">
        <ele>68</ele>
        <time>2012-12-02T13:17:21Z</time>
      </trkpt>
      <trkpt lat="44.7873" lon="-0.29022">
        <ele>67</ele>
        <time>2012-12-02T13:17:32Z</time>
      </trkpt>
      <trkpt lat="44.78734" lon="-0.2902">
        <ele>67</ele>
        <time>2012-12-02T13:17:33Z</time>
      </trkpt>
      <trkpt lat="44.78745" lon="-0.29012">
        <ele>66</ele>
        <time>2012-12-02T13:17:36Z</time>
      </trkpt>
      <trkpt lat="44.78788" lon="-0.28955">
        <ele>65</ele>
        <time>2012-12-02T13:17:50Z</time>
      </trkpt>
      <trkpt lat="44.78821" lon="-0.28907">
        <ele>64</ele>
        <time>2012-12-02T13:18:01Z</time>
      </trkpt>
      <trkpt lat="44.78863" lon="-0.28867">
        <ele>63</ele>
        <time>2012-12-02T13:18:13Z</time>
      </trkpt>
      <trkpt lat="44.78885" lon="-0.28843">
        <ele>63</ele>
        <time>2012-12-02T13:18:21Z</time>
      </trkpt>
      <trkpt lat="44.78885" lon="-0.28825">
        <ele>63</ele>
        <time>2012-12-02T13:18:25Z</time>
      </trkpt>
      <trkpt lat="44.78871" lon="-0.28775">
        <ele>63</ele>
        <time>2012-12-02T13:18:35Z</time>
      </trkpt>
      <trkpt lat="44.78859" lon="-0.28722">
        <ele>62</ele>
        <time>2012-12-02T13:18:47Z</time>
      </trkpt>
      <trkpt lat="44.78853" lon="-0.28685">
        <ele>61</ele>
        <time>2012-12-02T13:18:56Z</time>
      </trkpt>
      <trkpt lat="44.78842" lon="-0.28618">
        <ele>60</ele>
        <time>2012-12-02T13:19:09Z</time>
      </trkpt>
      <trkpt lat="44.78837" lon="-0.28558">
        <ele>58</ele>
        <time>2012-12-02T13:19:21Z</time>
      </trkpt>
      <trkpt lat="44.78826" lon="-0.28496">
        <ele>56</ele>
        <time>2012-12-02T13:19:32Z</time>
      </trkpt>
      <trkpt lat="44.78809" lon="-0.28431">
        <ele>55</ele>
        <time>2012-12-02T13:19:44Z</time>
      </trkpt>
      <trkpt lat="44.78807" lon="-0.28425">
        <ele>55</ele>
        <time>2012-12-02T13:19:46Z</time>
      </trkpt>
      <trkpt lat="44.78813" lon="-0.28414">
        <ele>55</ele>
        <time>2012-12-02T13:19:51Z</time>
      </trkpt>
      <trkpt lat="44.78835" lon="-0.284">
        <ele>55</ele>
        <time>2012-12-02T13:20:01Z</time>
      </trkpt>
      <trkpt lat="44.78839" lon="-0.28396">
        <ele>55</ele>
        <time>2012-12-02T13:20:03Z</time>
      </trkpt>
      <trkpt lat="44.7885" lon="-0.28387">
        <ele>56</ele>
        <time>2012-12-02T13:20:09Z</time>
      </trkpt>
      <trkpt lat="44.78866" lon="-0.28372">
        <ele>57</ele>
        <time>2012-12-02T13:20:18Z</time>
      </trkpt>
      <trkpt lat="44.78872" lon="-0.28362">
        <ele>58</ele>
        <time>2012-12-02T13:20:22Z</time>
      </trkpt>
      <trkpt lat="44.78894" lon="-0.28326">
        <ele>58</ele>
        <time>2012-12-02T13:20:33Z</time>
      </trkpt>
      <trkpt lat="44.78927" lon="-0.28302">
        <ele>59</ele>
        <time>2012-12-02T13:20:44Z</time>
      </trkpt>
      <trkpt lat="44.78956" lon="-0.28279">
        <ele>59</ele>
        <time>2012-12-02T13:20:54Z</time>
      </trkpt>
      <trkpt lat="44.78993" lon="-0.28247">
        <ele>60</ele>
        <time>2012-12-02T13:21:08Z</time>
      </trkpt>
      <trkpt lat="44.79028" lon="-0.28225">
        <ele>60</ele>
        <time>2012-12-02T13:21:20Z</time>
      </trkpt>
      <trkpt lat="44.79065" lon="-0.28229">
        <ele>60</ele>
        <time>2012-12-02T13:21:31Z</time>
      </trkpt>
      <trkpt lat="44.79102" lon="-0.28233">
        <ele>59</ele>
        <time>2012-12-02T13:21:41Z</time>
      </trkpt>
      <trkpt lat="44.79136" lon="-0.28228">
        <ele>58</ele>
        <time>2012-12-02T13:21:51Z</time>
      </trkpt>
      <trkpt lat="44.79166" lon="-0.28205">
        <ele>60</ele>
        <time>2012-12-02T13:22:01Z</time>
      </trkpt>
      <trkpt lat="44.79194" lon="-0.28168">
        <ele>63</ele>
        <time>2012-12-02T13:22:13Z</time>
      </trkpt>
      <trkpt lat="44.7921" lon="-0.28144">
        <ele>63</ele>
        <time>2012-12-02T13:22:22Z</time>
      </trkpt>
      <trkpt lat="44.79229" lon="-0.28115">
        <ele>63</ele>
        <time>2012-12-02T13:22:32Z</time>
      </trkpt>
      <trkpt lat="44.79244" lon="-0.28068">
        <ele>63</ele>
        <time>2012-12-02T13:22:43Z</time>
      </trkpt>
      <trkpt lat="44.79262" lon="-0.28034">
        <ele>62</ele>
        <time>2012-12-02T13:22:52Z</time>
      </trkpt>
      <trkpt lat="44.793" lon="-0.27992">
        <ele>62</ele>
        <time>2012-12-02T13:23:04Z</time>
      </trkpt>
      <trkpt lat="44.7935" lon="-0.27936">
        <ele>61</ele>
        <time>2012-12-02T13:23:16Z</time>
      </trkpt>
      <trkpt lat="44.79361" lon="-0.27923">
        <ele>61</ele>
        <time>2012-12-02T13:23:19Z</time>
      </trkpt>
      <trkpt lat="44.79365" lon="-0.27921">
        <ele>61</ele>
        <time>2012-12-02T13:23:20Z</time>
      </trkpt>
      <trkpt lat="44.7937" lon="-0.27923">
        <ele>61</ele>
        <time>2012-12-02T13:23:21Z</time>
      </trkpt>
      <trkpt lat="44.79374" lon="-0.27927">
        <ele>61</ele>
        <time>2012-12-02T13:23:22Z</time>
      </trkpt>
      <trkpt lat="44.79377" lon="-0.27932">
        <ele>61</ele>
        <time>2012-12-02T13:23:23Z</time>
      </trkpt>
      <trkpt lat="44.7938" lon="-0.27936">
        <ele>61</ele>
        <time>2012-12-02T13:23:24Z</time>
      </trkpt>
      <trkpt lat="44.79382" lon="-0.27942">
        <ele>62</ele>
        <time>2012-12-02T13:23:25Z</time>
      </trkpt>
      <trkpt lat="44.79384" lon="-0.27947">
        <ele>62</ele>
        <time>2012-12-02T13:23:26Z</time>
      </trkpt>
      <trkpt lat="44.79403" lon="-0.28009">
        <ele>64</ele>
        <time>2012-12-02T13:23:39Z</time>
      </trkpt>
      <trkpt lat="44.79428" lon="-0.28079">
        <ele>65</ele>
        <time>2012-12-02T13:23:55Z</time>
      </trkpt>
      <trkpt lat="44.79454" lon="-0.28116">
        <ele>65</ele>
        <time>2012-12-02T13:24:05Z</time>
      </trkpt>
      <trkpt lat="44.79492" lon="-0.28129">
        <ele>66</ele>
        <time>2012-12-02T13:24:16Z</time>
      </trkpt>
      <trkpt lat="44.79533" lon="-0.28143">
        <ele>66</ele>
        <time>2012-12-02T13:24:29Z</time>
      </trkpt>
      <trkpt lat="44.79551" lon="-0.28153">
        <ele>66</ele>
        <time>2012-12-02T13:24:34Z</time>
      </trkpt>
      <trkpt lat="44.79555" lon="-0.28157">
        <ele>66</ele>
        <time>2012-12-02T13:24:35Z</time>
      </trkpt>
      <trkpt lat="44.79582" lon="-0.28183">
        <ele>65</ele>
        <time>2012-12-02T13:24:41Z</time>
      </trkpt>
      <trkpt lat="44.79611" lon="-0.28215">
        <ele>64</ele>
        <time>2012-12-02T13:24:49Z</time>
      </trkpt>
      <trkpt lat="44.79613" lon="-0.28216">
        <ele>64</ele>
        <time>2012-12-02T13:24:50Z</time>
      </trkpt>
      <trkpt lat="44.79617" lon="-0.28215">
        <ele>64</ele>
        <time>2012-12-02T13:24:51Z</time>
      </trkpt>
      <trkpt lat="44.79624" lon="-0.28211">
        <ele>64</ele>
        <time>2012-12-02T13:24:53Z</time>
      </trkpt>
      <trkpt lat="44.79628" lon="-0.28208">
        <ele>64</ele>
        <time>2012-12-02T13:24:54Z</time>
      </trkpt>
      <trkpt lat="44.79688" lon="-0.28156">
        <ele>60</ele>
        <time>2012-12-02T13:25:08Z</time>
      </trkpt>
      <trkpt lat="44.7975" lon="-0.28102">
        <ele>60</ele>
        <time>2012-12-02T13:25:20Z</time>
      </trkpt>
      <trkpt lat="44.79805" lon="-0.28069">
        <ele>61</ele>
        <time>2012-12-02T13:25:30Z</time>
      </trkpt>
      <trkpt lat="44.7981" lon="-0.28067">
        <ele>61</ele>
        <time>2012-12-02T13:25:31Z</time>
      </trkpt>
      <trkpt lat="44.79835" lon="-0.2806">
        <ele>61</ele>
        <time>2012-12-02T13:25:37Z</time>
      </trkpt>
      <trkpt lat="44.79837" lon="-0.28057">
        <ele>61</ele>
        <time>2012-12-02T13:25:38Z</time>
      </trkpt>
      <trkpt lat="44.79838" lon="-0.28054">
        <ele>60</ele>
        <time>2012-12-02T13:25:39Z</time>
      </trkpt>
      <trkpt lat="44.79839" lon="-0.28049">
        <ele>60</ele>
        <time>2012-12-02T13:25:40Z</time>
      </trkpt>
      <trkpt lat="44.7984" lon="-0.28044">
        <ele>60</ele>
        <time>2012-12-02T13:25:41Z</time>
      </trkpt>
      <trkpt lat="44.79841" lon="-0.28038">
        <ele>60</ele>
        <time>2012-12-02T13:25:42Z</time>
      </trkpt>
      <trkpt lat="44.79841" lon="-0.28032">
        <ele>60</ele>
        <time>2012-12-02T13:25:43Z</time>
      </trkpt>
      <trkpt lat="44.79842" lon="-0.28026">
        <ele>60</ele>
        <time>2012-12-02T13:25:44Z</time>
      </trkpt>
      <trkpt lat="44.79841" lon="-0.28021">
        <ele>60</ele>
        <time>2012-12-02T13:25:45Z</time>
      </trkpt>
      <trkpt lat="44.79841" lon="-0.28014">
        <ele>59</ele>
        <time>2012-12-02T13:25:46Z</time>
      </trkpt>
      <trkpt lat="44.7984" lon="-0.28008">
        <ele>59</ele>
        <time>2012-12-02T13:25:47Z</time>
      </trkpt>
      <trkpt lat="44.79838" lon="-0.28001">
        <ele>59</ele>
        <time>2012-12-02T13:25:48Z</time>
      </trkpt>
      <trkpt lat="44.79836" lon="-0.27995">
        <ele>59</ele>
        <time>2012-12-02T13:25:49Z</time>
      </trkpt>
      <trkpt lat="44.79834" lon="-0.2799">
        <ele>59</ele>
        <time>2012-12-02T13:25:50Z</time>
      </trkpt>
      <trkpt lat="44.79832" lon="-0.27984">
        <ele>59</ele>
        <time>2012-12-02T13:25:51Z</time>
      </trkpt>
      <trkpt lat="44.7983" lon="-0.27978">
        <ele>59</ele>
        <time>2012-12-02T13:25:52Z</time>
      </trkpt>
      <trkpt lat="44.79808" lon="-0.27924">
        <ele>58</ele>
        <time>2012-12-02T13:26:03Z</time>
      </trkpt>
      <trkpt lat="44.79791" lon="-0.27885">
        <ele>57</ele>
        <time>2012-12-02T13:26:11Z</time>
      </trkpt>
      <trkpt lat="44.79789" lon="-0.2788">
        <ele>57</ele>
        <time>2012-12-02T13:26:12Z</time>
      </trkpt>
      <trkpt lat="44.79775" lon="-0.27843">
        <ele>57</ele>
        <time>2012-12-02T13:26:19Z</time>
      </trkpt>
      <trkpt lat="44.79757" lon="-0.27792">
        <ele>56</ele>
        <time>2012-12-02T13:26:30Z</time>
      </trkpt>
      <trkpt lat="44.79758" lon="-0.27788">
        <ele>56</ele>
        <time>2012-12-02T13:26:31Z</time>
      </trkpt>
      <trkpt lat="44.7976" lon="-0.27785">
        <ele>56</ele>
        <time>2012-12-02T13:26:32Z</time>
      </trkpt>
      <trkpt lat="44.79763" lon="-0.27782">
        <ele>56</ele>
        <time>2012-12-02T13:26:33Z</time>
      </trkpt>
      <trkpt lat="44.79766" lon="-0.27781">
        <ele>56</ele>
        <time>2012-12-02T13:26:34Z</time>
      </trkpt>
      <trkpt lat="44.79769" lon="-0.27779">
        <ele>57</ele>
        <time>2012-12-02T13:26:35Z</time>
      </trkpt>
      <trkpt lat="44.79773" lon="-0.27778">
        <ele>57</ele>
        <time>2012-12-02T13:26:36Z</time>
      </trkpt>
      <trkpt lat="44.79776" lon="-0.27776">
        <ele>57</ele>
        <time>2012-12-02T13:26:37Z</time>
      </trkpt>
      <trkpt lat="44.79779" lon="-0.27774">
        <ele>57</ele>
        <time>2012-12-02T13:26:38Z</time>
      </trkpt>
      <trkpt lat="44.79809" lon="-0.27745">
        <ele>57</ele>
        <time>2012-12-02T13:26:48Z</time>
      </trkpt>
      <trkpt lat="44.79838" lon="-0.27714">
        <ele>56</ele>
        <time>2012-12-02T13:26:57Z</time>
      </trkpt>
      <trkpt lat="44.79854" lon="-0.27702">
        <ele>56</ele>
        <time>2012-12-02T13:27:01Z</time>
      </trkpt>
      <trkpt lat="44.79876" lon="-0.27688">
        <ele>55</ele>
        <time>2012-12-02T13:27:09Z</time>
      </trkpt>
      <trkpt lat="44.79898" lon="-0.27675">
        <ele>56</ele>
        <time>2012-12-02T13:27:17Z</time>
      </trkpt>
      <trkpt lat="44.79933" lon="-0.27656">
        <ele>57</ele>
        <time>2012-12-02T13:27:27Z</time>
      </trkpt>
      <trkpt lat="44.79968" lon="-0.27639">
        <ele>57</ele>
        <time>2012-12-02T13:27:37Z</time>
      </trkpt>
      <trkpt lat="44.8001" lon="-0.27616">
        <ele>56</ele>
        <time>2012-12-02T13:27:49Z</time>
      </trkpt>
      <trkpt lat="44.80051" lon="-0.27595">
        <ele>55</ele>
        <time>2012-12-02T13:28:01Z</time>
      </trkpt>
      <trkpt lat="44.80081" lon="-0.27583">
        <ele>55</ele>
        <time>2012-12-02T13:28:11Z</time>
      </trkpt>
      <trkpt lat="44.80083" lon="-0.27585">
        <ele>55</ele>
        <time>2012-12-02T13:28:12Z</time>
      </trkpt>
      <trkpt lat="44.80085" lon="-0.27589">
        <ele>55</ele>
        <time>2012-12-02T13:28:13Z</time>
      </trkpt>
      <trkpt lat="44.80086" lon="-0.27593">
        <ele>55</ele>
        <time>2012-12-02T13:28:14Z</time>
      </trkpt>
      <trkpt lat="44.80087" lon="-0.27596">
        <ele>55</ele>
        <time>2012-12-02T13:28:15Z</time>
      </trkpt>
      <trkpt lat="44.80088" lon="-0.276">
        <ele>55</ele>
        <time>2012-12-02T13:28:16Z</time>
      </trkpt>
      <trkpt lat="44.80089" lon="-0.27604">
        <ele>55</ele>
        <time>2012-12-02T13:28:17Z</time>
      </trkpt>
      <trkpt lat="44.801" lon="-0.27641">
        <ele>55</ele>
        <time>2012-12-02T13:28:28Z</time>
      </trkpt>
      <trkpt lat="44.80104" lon="-0.2765">
        <ele>55</ele>
        <time>2012-12-02T13:28:32Z</time>
      </trkpt>
      <trkpt lat="44.80113" lon="-0.27646">
        <ele>55</ele>
        <time>2012-12-02T13:28:37Z</time>
      </trkpt>
      <trkpt lat="44.80136" lon="-0.27633">
        <ele>55</ele>
        <time>2012-12-02T13:28:49Z</time>
      </trkpt>
      <trkpt lat="44.8015" lon="-0.27626">
        <ele>55</ele>
        <time>2012-12-02T13:28:59Z</time>
      </trkpt>
      <trkpt lat="44.80154" lon="-0.27624">
        <ele>55</ele>
        <time>2012-12-02T13:29:02Z</time>
      </trkpt>
      <trkpt lat="44.80158" lon="-0.27617">
        <ele>55</ele>
        <time>2012-12-02T13:29:12Z</time>
      </trkpt>
      <trkpt lat="44.80171" lon="-0.27608">
        <ele>55</ele>
        <time>2012-12-02T13:29:20Z</time>
      </trkpt>
      <trkpt lat="44.80211" lon="-0.27585">
        <ele>55</ele>
        <time>2012-12-02T13:29:34Z</time>
      </trkpt>
      <trkpt lat="44.80252" lon="-0.27561">
        <ele>56</ele>
        <time>2012-12-02T13:29:48Z</time>
      </trkpt>
      <trkpt lat="44.80291" lon="-0.27538">
        <ele>56</ele>
        <time>2012-12-02T13:30:02Z</time>
      </trkpt>
      <trkpt lat="44.8031" lon="-0.27528">
        <ele>55</ele>
        <time>2012-12-02T13:30:12Z</time>
      </trkpt>
      <trkpt lat="44.80311" lon="-0.27517">
        <ele>55</ele>
        <time>2012-12-02T13:30:20Z</time>
      </trkpt>
      <trkpt lat="44.80311" lon="-0.27516">
        <ele>55</ele>
        <time>2012-12-02T13:30:32Z</time>
      </trkpt>
      <trkpt lat="44.80311" lon="-0.27516">
        <ele>55</ele>
        <time>2012-12-02T13:30:50Z</time>
      </trkpt>
      <trkpt lat="44.80311" lon="-0.27516">
        <ele>55</ele>
        <time>2012-12-02T13:31:08Z</time>
      </trkpt>
      <trkpt lat="44.80311" lon="-0.27516">
        <ele>55</ele>
        <time>2012-12-02T13:31:30Z</time>
      </trkpt>
      <trkpt lat="44.8031" lon="-0.27515">
        <ele>55</ele>
        <time>2012-12-02T13:31:48Z</time>
      </trkpt>
      <trkpt lat="44.8031" lon="-0.27516">
        <ele>55</ele>
        <time>2012-12-02T13:32:08Z</time>
      </trkpt>
      <trkpt lat="44.80305" lon="-0.27505">
        <ele>54</ele>
        <time>2012-12-02T13:32:16Z</time>
      </trkpt>
      <trkpt lat="44.80289" lon="-0.27476">
        <ele>54</ele>
        <time>2012-12-02T13:32:26Z</time>
      </trkpt>
      <trkpt lat="44.80263" lon="-0.27425">
        <ele>54</ele>
        <time>2012-12-02T13:32:38Z</time>
      </trkpt>
      <trkpt lat="44.80238" lon="-0.27379">
        <ele>53</ele>
        <time>2012-12-02T13:32:50Z</time>
      </trkpt>
      <trkpt lat="44.80221" lon="-0.27351">
        <ele>53</ele>
        <time>2012-12-02T13:32:59Z</time>
      </trkpt>
      <trkpt lat="44.80221" lon="-0.27348">
        <ele>52</ele>
        <time>2012-12-02T13:33:00Z</time>
      </trkpt>
      <trkpt lat="44.80222" lon="-0.27345">
        <ele>52</ele>
        <time>2012-12-02T13:33:01Z</time>
      </trkpt>
      <trkpt lat="44.80224" lon="-0.27343">
        <ele>52</ele>
        <time>2012-12-02T13:33:02Z</time>
      </trkpt>
      <trkpt lat="44.80256" lon="-0.27319">
        <ele>51</ele>
        <time>2012-12-02T13:33:13Z</time>
      </trkpt>
      <trkpt lat="44.80278" lon="-0.27305">
        <ele>49</ele>
        <time>2012-12-02T13:33:19Z</time>
      </trkpt>
      <trkpt lat="44.80283" lon="-0.27303">
        <ele>48</ele>
        <time>2012-12-02T13:33:20Z</time>
      </trkpt>
      <trkpt lat="44.80287" lon="-0.27302">
        <ele>48</ele>
        <time>2012-12-02T13:33:21Z</time>
      </trkpt>
      <trkpt lat="44.80299" lon="-0.27298">
        <ele>47</ele>
        <time>2012-12-02T13:33:24Z</time>
      </trkpt>
      <trkpt lat="44.80332" lon="-0.27279">
        <ele>44</ele>
        <time>2012-12-02T13:33:33Z</time>
      </trkpt>
      <trkpt lat="44.80335" lon="-0.27279">
        <ele>44</ele>
        <time>2012-12-02T13:33:34Z</time>
      </trkpt>
      <trkpt lat="44.80337" lon="-0.27281">
        <ele>45</ele>
        <time>2012-12-02T13:33:35Z</time>
      </trkpt>
      <trkpt lat="44.80342" lon="-0.27287">
        <ele>45</ele>
        <time>2012-12-02T13:33:37Z</time>
      </trkpt>
      <trkpt lat="44.80355" lon="-0.27311">
        <ele>46</ele>
        <time>2012-12-02T13:33:44Z</time>
      </trkpt>
      <trkpt lat="44.80366" lon="-0.27298">
        <ele>45</ele>
        <time>2012-12-02T13:33:50Z</time>
      </trkpt>
      <trkpt lat="44.80367" lon="-0.27293">
        <ele>45</ele>
        <time>2012-12-02T13:33:51Z</time>
      </trkpt>
      <trkpt lat="44.80368" lon="-0.27287">
        <ele>44</ele>
        <time>2012-12-02T13:33:52Z</time>
      </trkpt>
      <trkpt lat="44.8037" lon="-0.27281">
        <ele>44</ele>
        <time>2012-12-02T13:33:53Z</time>
      </trkpt>
      <trkpt lat="44.80372" lon="-0.2727">
        <ele>43</ele>
        <time>2012-12-02T13:33:55Z</time>
      </trkpt>
      <trkpt lat="44.80383" lon="-0.2723">
        <ele>41</ele>
        <time>2012-12-02T13:34:03Z</time>
      </trkpt>
      <trkpt lat="44.80386" lon="-0.27228">
        <ele>41</ele>
        <time>2012-12-02T13:34:04Z</time>
      </trkpt>
      <trkpt lat="44.8039" lon="-0.27225">
        <ele>41</ele>
        <time>2012-12-02T13:34:05Z</time>
      </trkpt>
      <trkpt lat="44.80393" lon="-0.27223">
        <ele>41</ele>
        <time>2012-12-02T13:34:06Z</time>
      </trkpt>
      <trkpt lat="44.80397" lon="-0.27222">
        <ele>41</ele>
        <time>2012-12-02T13:34:07Z</time>
      </trkpt>
      <trkpt lat="44.80401" lon="-0.27222">
        <ele>41</ele>
        <time>2012-12-02T13:34:08Z</time>
      </trkpt>
      <trkpt lat="44.80406" lon="-0.27222">
        <ele>41</ele>
        <time>2012-12-02T13:34:09Z</time>
      </trkpt>
      <trkpt lat="44.8041" lon="-0.27222">
        <ele>41</ele>
        <time>2012-12-02T13:34:10Z</time>
      </trkpt>
      <trkpt lat="44.80467" lon="-0.2723">
        <ele>40</ele>
        <time>2012-12-02T13:34:23Z</time>
      </trkpt>
      <trkpt lat="44.80505" lon="-0.27247">
        <ele>39</ele>
        <time>2012-12-02T13:34:33Z</time>
      </trkpt>
      <trkpt lat="44.80528" lon="-0.2727">
        <ele>39</ele>
        <time>2012-12-02T13:34:41Z</time>
      </trkpt>
      <trkpt lat="44.80539" lon="-0.27284">
        <ele>40</ele>
        <time>2012-12-02T13:34:46Z</time>
      </trkpt>
      <trkpt lat="44.8054" lon="-0.27287">
        <ele>40</ele>
        <time>2012-12-02T13:34:47Z</time>
      </trkpt>
      <trkpt lat="44.80541" lon="-0.27289">
        <ele>41</ele>
        <time>2012-12-02T13:34:48Z</time>
      </trkpt>
      <trkpt lat="44.80543" lon="-0.2729">
        <ele>41</ele>
        <time>2012-12-02T13:34:49Z</time>
      </trkpt>
      <trkpt lat="44.80544" lon="-0.27289">
        <ele>41</ele>
        <time>2012-12-02T13:34:50Z</time>
      </trkpt>
      <trkpt lat="44.80544" lon="-0.27288">
        <ele>41</ele>
        <time>2012-12-02T13:34:51Z</time>
      </trkpt>
      <trkpt lat="44.80544" lon="-0.27285">
        <ele>41</ele>
        <time>2012-12-02T13:34:52Z</time>
      </trkpt>
      <trkpt lat="44.80543" lon="-0.27282">
        <ele>41</ele>
        <time>2012-12-02T13:34:53Z</time>
      </trkpt>
      <trkpt lat="44.80542" lon="-0.27279">
        <ele>40</ele>
        <time>2012-12-02T13:34:54Z</time>
      </trkpt>
      <trkpt lat="44.80542" lon="-0.27276">
        <ele>40</ele>
        <time>2012-12-02T13:34:55Z</time>
      </trkpt>
      <trkpt lat="44.80539" lon="-0.2725">
        <ele>40</ele>
        <time>2012-12-02T13:35:02Z</time>
      </trkpt>
      <trkpt lat="44.80541" lon="-0.27245">
        <ele>40</ele>
        <time>2012-12-02T13:35:04Z</time>
      </trkpt>
      <trkpt lat="44.80544" lon="-0.27233">
        <ele>40</ele>
        <time>2012-12-02T13:35:06Z</time>
      </trkpt>
      <trkpt lat="44.80546" lon="-0.27226">
        <ele>40</ele>
        <time>2012-12-02T13:35:07Z</time>
      </trkpt>
      <trkpt lat="44.80547" lon="-0.2722">
        <ele>40</ele>
        <time>2012-12-02T13:35:08Z</time>
      </trkpt>
      <trkpt lat="44.80547" lon="-0.27211">
        <ele>40</ele>
        <time>2012-12-02T13:35:09Z</time>
      </trkpt>
      <trkpt lat="44.80547" lon="-0.27205">
        <ele>39</ele>
        <time>2012-12-02T13:35:10Z</time>
      </trkpt>
      <trkpt lat="44.80547" lon="-0.27194">
        <ele>39</ele>
        <time>2012-12-02T13:35:12Z</time>
      </trkpt>
      <trkpt lat="44.80555" lon="-0.27186">
        <ele>39</ele>
        <time>2012-12-02T13:35:16Z</time>
      </trkpt>
      <trkpt lat="44.80569" lon="-0.27147">
        <ele>36</ele>
        <time>2012-12-02T13:35:24Z</time>
      </trkpt>
      <trkpt lat="44.80579" lon="-0.27131">
        <ele>37</ele>
        <time>2012-12-02T13:35:28Z</time>
      </trkpt>
      <trkpt lat="44.8059" lon="-0.27099">
        <ele>36</ele>
        <time>2012-12-02T13:35:35Z</time>
      </trkpt>
      <trkpt lat="44.80607" lon="-0.27053">
        <ele>36</ele>
        <time>2012-12-02T13:35:45Z</time>
      </trkpt>
      <trkpt lat="44.80613" lon="-0.27029">
        <ele>35</ele>
        <time>2012-12-02T13:35:50Z</time>
      </trkpt>
      <trkpt lat="44.80635" lon="-0.27001">
        <ele>34</ele>
        <time>2012-12-02T13:35:58Z</time>
      </trkpt>
      <trkpt lat="44.8066" lon="-0.27001">
        <ele>33</ele>
        <time>2012-12-02T13:36:05Z</time>
      </trkpt>
      <trkpt lat="44.80689" lon="-0.27006">
        <ele>33</ele>
        <time>2012-12-02T13:36:13Z</time>
      </trkpt>
      <trkpt lat="44.80711" lon="-0.27005">
        <ele>32</ele>
        <time>2012-12-02T13:36:20Z</time>
      </trkpt>
      <trkpt lat="44.80737" lon="-0.27001">
        <ele>31</ele>
        <time>2012-12-02T13:36:29Z</time>
      </trkpt>
      <trkpt lat="44.80757" lon="-0.27003">
        <ele>31</ele>
        <time>2012-12-02T13:36:39Z</time>
      </trkpt>
      <trkpt lat="44.80783" lon="-0.27012">
        <ele>30</ele>
        <time>2012-12-02T13:36:47Z</time>
      </trkpt>
      <trkpt lat="44.80789" lon="-0.27014">
        <ele>30</ele>
        <time>2012-12-02T13:36:55Z</time>
      </trkpt>
      <trkpt lat="44.80792" lon="-0.27015">
        <ele>30</ele>
        <time>2012-12-02T13:37:07Z</time>
      </trkpt>
      <trkpt lat="44.80801" lon="-0.27021">
        <ele>30</ele>
        <time>2012-12-02T13:37:15Z</time>
      </trkpt>
      <trkpt lat="44.80804" lon="-0.27021">
        <ele>30</ele>
        <time>2012-12-02T13:37:24Z</time>
      </trkpt>
      <trkpt lat="44.80803" lon="-0.27022">
        <ele>30</ele>
        <time>2012-12-02T13:37:41Z</time>
      </trkpt>
      <trkpt lat="44.80803" lon="-0.27023">
        <ele>30</ele>
        <time>2012-12-02T13:38:00Z</time>
      </trkpt>
      <trkpt lat="44.80804" lon="-0.27023">
        <ele>30</ele>
        <time>2012-12-02T13:38:13Z</time>
      </trkpt>
      <trkpt lat="44.80804" lon="-0.27021">
        <ele>30</ele>
        <time>2012-12-02T13:38:35Z</time>
      </trkpt>
      <trkpt lat="44.80805" lon="-0.27021">
        <ele>30</ele>
        <time>2012-12-02T13:38:56Z</time>
      </trkpt>
      <trkpt lat="44.80805" lon="-0.2702">
        <ele>30</ele>
        <time>2012-12-02T13:39:09Z</time>
      </trkpt>
      <trkpt lat="44.80813" lon="-0.27022">
        <ele>29</ele>
        <time>2012-12-02T13:39:16Z</time>
      </trkpt>
      <trkpt lat="44.80835" lon="-0.27028">
        <ele>29</ele>
        <time>2012-12-02T13:39:24Z</time>
      </trkpt>
      <trkpt lat="44.80854" lon="-0.27043">
        <ele>29</ele>
        <time>2012-12-02T13:39:30Z</time>
      </trkpt>
      <trkpt lat="44.80863" lon="-0.27049">
        <ele>29</ele>
        <time>2012-12-02T13:39:34Z</time>
      </trkpt>
      <trkpt lat="44.80885" lon="-0.27067">
        <ele>32</ele>
        <time>2012-12-02T13:39:44Z</time>
      </trkpt>
      <trkpt lat="44.80888" lon="-0.27086">
        <ele>34</ele>
        <time>2012-12-02T13:39:51Z</time>
      </trkpt>
      <trkpt lat="44.80902" lon="-0.27094">
        <ele>35</ele>
        <time>2012-12-02T13:39:57Z</time>
      </trkpt>
      <trkpt lat="44.80928" lon="-0.27082">
        <ele>33</ele>
        <time>2012-12-02T13:40:07Z</time>
      </trkpt>
      <trkpt lat="44.80947" lon="-0.27072">
        <ele>31</ele>
        <time>2012-12-02T13:40:14Z</time>
      </trkpt>
      <trkpt lat="44.80957" lon="-0.27061">
        <ele>30</ele>
        <time>2012-12-02T13:40:18Z</time>
      </trkpt>
      <trkpt lat="44.80972" lon="-0.27047">
        <ele>29</ele>
        <time>2012-12-02T13:40:23Z</time>
      </trkpt>
      <trkpt lat="44.81" lon="-0.27043">
        <ele>29</ele>
        <time>2012-12-02T13:40:32Z</time>
      </trkpt>
      <trkpt lat="44.81025" lon="-0.2704">
        <ele>29</ele>
        <time>2012-12-02T13:40:41Z</time>
      </trkpt>
      <trkpt lat="44.81039" lon="-0.27035">
        <ele>30</ele>
        <time>2012-12-02T13:40:47Z</time>
      </trkpt>
      <trkpt lat="44.81043" lon="-0.27034">
        <ele>30</ele>
        <time>2012-12-02T13:40:57Z</time>
      </trkpt>
      <trkpt lat="44.81044" lon="-0.2703">
        <ele>30</ele>
        <time>2012-12-02T13:41:10Z</time>
      </trkpt>
      <trkpt lat="44.81048" lon="-0.27028">
        <ele>30</ele>
        <time>2012-12-02T13:41:23Z</time>
      </trkpt>
      <trkpt lat="44.81049" lon="-0.27029">
        <ele>30</ele>
        <time>2012-12-02T13:41:36Z</time>
      </trkpt>
      <trkpt lat="44.81049" lon="-0.2703">
        <ele>31</ele>
        <time>2012-12-02T13:41:53Z</time>
      </trkpt>
      <trkpt lat="44.8105" lon="-0.2703">
        <ele>31</ele>
        <time>2012-12-02T13:42:12Z</time>
      </trkpt>
      <trkpt lat="44.8105" lon="-0.2703">
        <ele>31</ele>
        <time>2012-12-02T13:42:19Z</time>
      </trkpt>
      <trkpt lat="44.81057" lon="-0.27007">
        <ele>30</ele>
        <time>2012-12-02T13:42:26Z</time>
      </trkpt>
      <trkpt lat="44.81058" lon="-0.27001">
        <ele>29</ele>
        <time>2012-12-02T13:42:27Z</time>
      </trkpt>
      <trkpt lat="44.81067" lon="-0.2697">
        <ele>29</ele>
        <time>2012-12-02T13:42:32Z</time>
      </trkpt>
      <trkpt lat="44.81069" lon="-0.26963">
        <ele>29</ele>
        <time>2012-12-02T13:42:33Z</time>
      </trkpt>
      <trkpt lat="44.81079" lon="-0.26933">
        <ele>28</ele>
        <time>2012-12-02T13:42:37Z</time>
      </trkpt>
      <trkpt lat="44.81088" lon="-0.26897">
        <ele>29</ele>
        <time>2012-12-02T13:42:45Z</time>
      </trkpt>
      <trkpt lat="44.81098" lon="-0.26882">
        <ele>29</ele>
        <time>2012-12-02T13:42:52Z</time>
      </trkpt>
      <trkpt lat="44.81106" lon="-0.26864">
        <ele>28</ele>
        <time>2012-12-02T13:43:02Z</time>
      </trkpt>
      <trkpt lat="44.81113" lon="-0.26859">
        <ele>27</ele>
        <time>2012-12-02T13:43:11Z</time>
      </trkpt>
      <trkpt lat="44.81117" lon="-0.26856">
        <ele>27</ele>
        <time>2012-12-02T13:43:20Z</time>
      </trkpt>
      <trkpt lat="44.8112" lon="-0.26852">
        <ele>27</ele>
        <time>2012-12-02T13:43:27Z</time>
      </trkpt>
      <trkpt lat="44.81121" lon="-0.26852">
        <ele>27</ele>
        <time>2012-12-02T13:43:45Z</time>
      </trkpt>
      <trkpt lat="44.81123" lon="-0.26849">
        <ele>27</ele>
        <time>2012-12-02T13:44:04Z</time>
      </trkpt>
      <trkpt lat="44.81124" lon="-0.26849">
        <ele>27</ele>
        <time>2012-12-02T13:44:25Z</time>
      </trkpt>
      <trkpt lat="44.81128" lon="-0.2685">
        <ele>27</ele>
        <time>2012-12-02T13:44:36Z</time>
      </trkpt>
      <trkpt lat="44.8113" lon="-0.26849">
        <ele>27</ele>
        <time>2012-12-02T13:44:38Z</time>
      </trkpt>
      <trkpt lat="44.81139" lon="-0.26852">
        <ele>28</ele>
        <time>2012-12-02T13:44:45Z</time>
      </trkpt>
      <trkpt lat="44.81152" lon="-0.26858">
        <ele>29</ele>
        <time>2012-12-02T13:44:53Z</time>
      </trkpt>
      <trkpt lat="44.81166" lon="-0.26862">
        <ele>30</ele>
        <time>2012-12-02T13:45:02Z</time>
      </trkpt>
      <trkpt lat="44.81175" lon="-0.26861">
        <ele>32</ele>
        <time>2012-12-02T13:45:09Z</time>
      </trkpt>
      <trkpt lat="44.81179" lon="-0.26873">
        <ele>33</ele>
        <time>2012-12-02T13:45:15Z</time>
      </trkpt>
      <trkpt lat="44.81195" lon="-0.26889">
        <ele>36</ele>
        <time>2012-12-02T13:45:25Z</time>
      </trkpt>
      <trkpt lat="44.812" lon="-0.26894">
        <ele>37</ele>
        <time>2012-12-02T13:45:30Z</time>
      </trkpt>
      <trkpt lat="44.8121" lon="-0.26902">
        <ele>39</ele>
        <time>2012-12-02T13:45:37Z</time>
      </trkpt>
      <trkpt lat="44.81228" lon="-0.26916">
        <ele>40</ele>
        <time>2012-12-02T13:45:49Z</time>
      </trkpt>
      <trkpt lat="44.81246" lon="-0.26926">
        <ele>42</ele>
        <time>2012-12-02T13:46:00Z</time>
      </trkpt>
      <trkpt lat="44.81269" lon="-0.26938">
        <ele>42</ele>
        <time>2012-12-02T13:46:13Z</time>
      </trkpt>
      <trkpt lat="44.81284" lon="-0.26943">
        <ele>43</ele>
        <time>2012-12-02T13:46:22Z</time>
      </trkpt>
      <trkpt lat="44.8129" lon="-0.26946">
        <ele>43</ele>
        <time>2012-12-02T13:46:27Z</time>
      </trkpt>
      <trkpt lat="44.81301" lon="-0.26956">
        <ele>43</ele>
        <time>2012-12-02T13:46:37Z</time>
      </trkpt>
      <trkpt lat="44.81309" lon="-0.26962">
        <ele>44</ele>
        <time>2012-12-02T13:46:43Z</time>
      </trkpt>
      <trkpt lat="44.81312" lon="-0.26964">
        <ele>44</ele>
        <time>2012-12-02T13:46:45Z</time>
      </trkpt>
      <trkpt lat="44.81324" lon="-0.26973">
        <ele>44</ele>
        <time>2012-12-02T13:46:53Z</time>
      </trkpt>
      <trkpt lat="44.81346" lon="-0.26987">
        <ele>45</ele>
        <time>2012-12-02T13:47:05Z</time>
      </trkpt>
      <trkpt lat="44.81372" lon="-0.2699">
        <ele>46</ele>
        <time>2012-12-02T13:47:17Z</time>
      </trkpt>
      <trkpt lat="44.81377" lon="-0.26988">
        <ele>46</ele>
        <time>2012-12-02T13:47:19Z</time>
      </trkpt>
      <trkpt lat="44.8139" lon="-0.27003">
        <ele>47</ele>
        <time>2012-12-02T13:47:27Z</time>
      </trkpt>
      <trkpt lat="44.81392" lon="-0.27008">
        <ele>47</ele>
        <time>2012-12-02T13:47:29Z</time>
      </trkpt>
      <trkpt lat="44.81394" lon="-0.27012">
        <ele>48</ele>
        <time>2012-12-02T13:47:31Z</time>
      </trkpt>
      <trkpt lat="44.81406" lon="-0.27038">
        <ele>49</ele>
        <time>2012-12-02T13:47:42Z</time>
      </trkpt>
      <trkpt lat="44.81415" lon="-0.27063">
        <ele>50</ele>
        <time>2012-12-02T13:47:52Z</time>
      </trkpt>
      <trkpt lat="44.81415" lon="-0.27065">
        <ele>50</ele>
        <time>2012-12-02T13:47:53Z</time>
      </trkpt>
      <trkpt lat="44.81433" lon="-0.27089">
        <ele>52</ele>
        <time>2012-12-02T13:48:04Z</time>
      </trkpt>
      <trkpt lat="44.81452" lon="-0.27131">
        <ele>54</ele>
        <time>2012-12-02T13:48:17Z</time>
      </trkpt>
      <trkpt lat="44.81469" lon="-0.27159">
        <ele>55</ele>
        <time>2012-12-02T13:48:27Z</time>
      </trkpt>
      <trkpt lat="44.81483" lon="-0.27189">
        <ele>56</ele>
        <time>2012-12-02T13:48:37Z</time>
      </trkpt>
      <trkpt lat="44.81495" lon="-0.27227">
        <ele>56</ele>
        <time>2012-12-02T13:48:47Z</time>
      </trkpt>
      <trkpt lat="44.81506" lon="-0.27267">
        <ele>56</ele>
        <time>2012-12-02T13:48:57Z</time>
      </trkpt>
      <trkpt lat="44.81514" lon="-0.27293">
        <ele>56</ele>
        <time>2012-12-02T13:49:04Z</time>
      </trkpt>
      <trkpt lat="44.81521" lon="-0.27339">
        <ele>55</ele>
        <time>2012-12-02T13:49:14Z</time>
      </trkpt>
      <trkpt lat="44.81524" lon="-0.2739">
        <ele>55</ele>
        <time>2012-12-02T13:49:23Z</time>
      </trkpt>
      <trkpt lat="44.81534" lon="-0.2744">
        <ele>55</ele>
        <time>2012-12-02T13:49:33Z</time>
      </trkpt>
      <trkpt lat="44.81544" lon="-0.27505">
        <ele>55</ele>
        <time>2012-12-02T13:49:46Z</time>
      </trkpt>
      <trkpt lat="44.81553" lon="-0.27549">
        <ele>55</ele>
        <time>2012-12-02T13:49:55Z</time>
      </trkpt>
      <trkpt lat="44.81565" lon="-0.27581">
        <ele>54</ele>
        <time>2012-12-02T13:50:04Z</time>
      </trkpt>
      <trkpt lat="44.81579" lon="-0.27634">
        <ele>54</ele>
        <time>2012-12-02T13:50:15Z</time>
      </trkpt>
      <trkpt lat="44.81584" lon="-0.27684">
        <ele>54</ele>
        <time>2012-12-02T13:50:26Z</time>
      </trkpt>
      <trkpt lat="44.81585" lon="-0.27734">
        <ele>54</ele>
        <time>2012-12-02T13:50:38Z</time>
      </trkpt>
      <trkpt lat="44.81592" lon="-0.27779">
        <ele>54</ele>
        <time>2012-12-02T13:50:48Z</time>
      </trkpt>
      <trkpt lat="44.81607" lon="-0.27831">
        <ele>53</ele>
        <time>2012-12-02T13:51:01Z</time>
      </trkpt>
      <trkpt lat="44.81612" lon="-0.27874">
        <ele>54</ele>
        <time>2012-12-02T13:51:12Z</time>
      </trkpt>
      <trkpt lat="44.81615" lon="-0.27919">
        <ele>55</ele>
        <time>2012-12-02T13:51:25Z</time>
      </trkpt>
      <trkpt lat="44.81622" lon="-0.27967">
        <ele>55</ele>
        <time>2012-12-02T13:51:39Z</time>
      </trkpt>
      <trkpt lat="44.81637" lon="-0.28009">
        <ele>56</ele>
        <time>2012-12-02T13:51:52Z</time>
      </trkpt>
      <trkpt lat="44.81651" lon="-0.2805">
        <ele>58</ele>
        <time>2012-12-02T13:52:05Z</time>
      </trkpt>
      <trkpt lat="44.81651" lon="-0.28072">
        <ele>58</ele>
        <time>2012-12-02T13:52:12Z</time>
      </trkpt>
      <trkpt lat="44.81632" lon="-0.28096">
        <ele>59</ele>
        <time>2012-12-02T13:52:24Z</time>
      </trkpt>
      <trkpt lat="44.81607" lon="-0.28115">
        <ele>60</ele>
        <time>2012-12-02T13:52:36Z</time>
      </trkpt>
      <trkpt lat="44.81586" lon="-0.28132">
        <ele>60</ele>
        <time>2012-12-02T13:52:48Z</time>
      </trkpt>
      <trkpt lat="44.81576" lon="-0.28142">
        <ele>60</ele>
        <time>2012-12-02T13:52:54Z</time>
      </trkpt>
      <trkpt lat="44.81578" lon="-0.28166">
        <ele>60</ele>
        <time>2012-12-02T13:53:03Z</time>
      </trkpt>
      <trkpt lat="44.81581" lon="-0.2819">
        <ele>61</ele>
        <time>2012-12-02T13:53:14Z</time>
      </trkpt>
      <trkpt lat="44.81586" lon="-0.28213">
        <ele>61</ele>
        <time>2012-12-02T13:53:25Z</time>
      </trkpt>
      <trkpt lat="44.81593" lon="-0.28245">
        <ele>61</ele>
        <time>2012-12-02T13:53:38Z</time>
      </trkpt>
      <trkpt lat="44.81607" lon="-0.28273">
        <ele>61</ele>
        <time>2012-12-02T13:53:47Z</time>
      </trkpt>
      <trkpt lat="44.81619" lon="-0.28302">
        <ele>61</ele>
        <time>2012-12-02T13:53:57Z</time>
      </trkpt>
      <trkpt lat="44.8163" lon="-0.28335">
        <ele>61</ele>
        <time>2012-12-02T13:54:08Z</time>
      </trkpt>
      <trkpt lat="44.81636" lon="-0.28372">
        <ele>61</ele>
        <time>2012-12-02T13:54:18Z</time>
      </trkpt>
      <trkpt lat="44.81651" lon="-0.2841">
        <ele>61</ele>
        <time>2012-12-02T13:54:29Z</time>
      </trkpt>
      <trkpt lat="44.81672" lon="-0.2842">
        <ele>61</ele>
        <time>2012-12-02T13:54:38Z</time>
      </trkpt>
      <trkpt lat="44.81698" lon="-0.28423">
        <ele>61</ele>
        <time>2012-12-02T13:54:48Z</time>
      </trkpt>
      <trkpt lat="44.81709" lon="-0.28425">
        <ele>61</ele>
        <time>2012-12-02T13:54:52Z</time>
      </trkpt>
      <trkpt lat="44.81719" lon="-0.28453">
        <ele>61</ele>
        <time>2012-12-02T13:55:01Z</time>
      </trkpt>
      <trkpt lat="44.81725" lon="-0.28493">
        <ele>61</ele>
        <time>2012-12-02T13:55:11Z</time>
      </trkpt>
      <trkpt lat="44.81731" lon="-0.28533">
        <ele>61</ele>
        <time>2012-12-02T13:55:20Z</time>
      </trkpt>
      <trkpt lat="44.81754" lon="-0.28566">
        <ele>61</ele>
        <time>2012-12-02T13:55:32Z</time>
      </trkpt>
      <trkpt lat="44.81772" lon="-0.28609">
        <ele>60</ele>
        <time>2012-12-02T13:55:41Z</time>
      </trkpt>
      <trkpt lat="44.8179" lon="-0.28654">
        <ele>59</ele>
        <time>2012-12-02T13:55:48Z</time>
      </trkpt>
      <trkpt lat="44.81804" lon="-0.28709">
        <ele>57</ele>
        <time>2012-12-02T13:55:56Z</time>
      </trkpt>
      <trkpt lat="44.81807" lon="-0.28714">
        <ele>57</ele>
        <time>2012-12-02T13:55:57Z</time>
      </trkpt>
      <trkpt lat="44.81811" lon="-0.28718">
        <ele>57</ele>
        <time>2012-12-02T13:55:58Z</time>
      </trkpt>
      <trkpt lat="44.81815" lon="-0.28721">
        <ele>57</ele>
        <time>2012-12-02T13:55:59Z</time>
      </trkpt>
      <trkpt lat="44.81819" lon="-0.28724">
        <ele>57</ele>
        <time>2012-12-02T13:56:00Z</time>
      </trkpt>
      <trkpt lat="44.81824" lon="-0.28725">
        <ele>57</ele>
        <time>2012-12-02T13:56:01Z</time>
      </trkpt>
      <trkpt lat="44.81828" lon="-0.28725">
        <ele>57</ele>
        <time>2012-12-02T13:56:02Z</time>
      </trkpt>
      <trkpt lat="44.81855" lon="-0.28726">
        <ele>57</ele>
        <time>2012-12-02T13:56:09Z</time>
      </trkpt>
      <trkpt lat="44.81857" lon="-0.28728">
        <ele>57</ele>
        <time>2012-12-02T13:56:10Z</time>
      </trkpt>
      <trkpt lat="44.81859" lon="-0.28732">
        <ele>57</ele>
        <time>2012-12-02T13:56:11Z</time>
      </trkpt>
      <trkpt lat="44.8186" lon="-0.28737">
        <ele>57</ele>
        <time>2012-12-02T13:56:12Z</time>
      </trkpt>
      <trkpt lat="44.8186" lon="-0.28742">
        <ele>57</ele>
        <time>2012-12-02T13:56:13Z</time>
      </trkpt>
      <trkpt lat="44.81859" lon="-0.28748">
        <ele>57</ele>
        <time>2012-12-02T13:56:14Z</time>
      </trkpt>
      <trkpt lat="44.81859" lon="-0.28754">
        <ele>57</ele>
        <time>2012-12-02T13:56:15Z</time>
      </trkpt>
      <trkpt lat="44.81854" lon="-0.28821">
        <ele>54</ele>
        <time>2012-12-02T13:56:26Z</time>
      </trkpt>
      <trkpt lat="44.8183" lon="-0.28872">
        <ele>49</ele>
        <time>2012-12-02T13:56:37Z</time>
      </trkpt>
      <trkpt lat="44.81813" lon="-0.28907">
        <ele>47</ele>
        <time>2012-12-02T13:56:46Z</time>
      </trkpt>
      <trkpt lat="44.81794" lon="-0.28908">
        <ele>46</ele>
        <time>2012-12-02T13:56:54Z</time>
      </trkpt>
      <trkpt lat="44.81792" lon="-0.28907">
        <ele>46</ele>
        <time>2012-12-02T13:57:02Z</time>
      </trkpt>
      <trkpt lat="44.81793" lon="-0.28907">
        <ele>46</ele>
        <time>2012-12-02T13:57:20Z</time>
      </trkpt>
      <trkpt lat="44.81792" lon="-0.28906">
        <ele>46</ele>
        <time>2012-12-02T13:57:34Z</time>
      </trkpt>
      <trkpt lat="44.81794" lon="-0.28907">
        <ele>46</ele>
        <time>2012-12-02T13:57:45Z</time>
      </trkpt>
      <trkpt lat="44.81794" lon="-0.28906">
        <ele>47</ele>
        <time>2012-12-02T13:57:55Z</time>
      </trkpt>
      <trkpt lat="44.81787" lon="-0.28907">
        <ele>46</ele>
        <time>2012-12-02T13:58:04Z</time>
      </trkpt>
      <trkpt lat="44.81784" lon="-0.28906">
        <ele>46</ele>
        <time>2012-12-02T13:58:06Z</time>
      </trkpt>
      <trkpt lat="44.81781" lon="-0.28905">
        <ele>46</ele>
        <time>2012-12-02T13:58:07Z</time>
      </trkpt>
      <trkpt lat="44.81779" lon="-0.28906">
        <ele>46</ele>
        <time>2012-12-02T13:58:08Z</time>
      </trkpt>
      <trkpt lat="44.81751" lon="-0.2891">
        <ele>45</ele>
        <time>2012-12-02T13:58:17Z</time>
      </trkpt>
      <trkpt lat="44.81718" lon="-0.28919">
        <ele>44</ele>
        <time>2012-12-02T13:58:28Z</time>
      </trkpt>
      <trkpt lat="44.81714" lon="-0.28927">
        <ele>44</ele>
        <time>2012-12-02T13:58:32Z</time>
      </trkpt>
      <trkpt lat="44.81714" lon="-0.28929">
        <ele>44</ele>
        <time>2012-12-02T13:58:33Z</time>
      </trkpt>
      <trkpt lat="44.81715" lon="-0.28932">
        <ele>44</ele>
        <time>2012-12-02T13:58:34Z</time>
      </trkpt>
      <trkpt lat="44.81713" lon="-0.28965">
        <ele>45</ele>
        <time>2012-12-02T13:58:44Z</time>
      </trkpt>
      <trkpt lat="44.81711" lon="-0.29">
        <ele>46</ele>
        <time>2012-12-02T13:58:52Z</time>
      </trkpt>
      <trkpt lat="44.81709" lon="-0.29038">
        <ele>48</ele>
        <time>2012-12-02T13:59:04Z</time>
      </trkpt>
      <trkpt lat="44.81705" lon="-0.29071">
        <ele>50</ele>
        <time>2012-12-02T13:59:16Z</time>
      </trkpt>
      <trkpt lat="44.81698" lon="-0.29108">
        <ele>51</ele>
        <time>2012-12-02T13:59:28Z</time>
      </trkpt>
      <trkpt lat="44.81689" lon="-0.29147">
        <ele>53</ele>
        <time>2012-12-02T13:59:40Z</time>
      </trkpt>
      <trkpt lat="44.81675" lon="-0.29181">
        <ele>55</ele>
        <time>2012-12-02T13:59:51Z</time>
      </trkpt>
      <trkpt lat="44.81675" lon="-0.29213">
        <ele>55</ele>
        <time>2012-12-02T14:00:01Z</time>
      </trkpt>
      <trkpt lat="44.8168" lon="-0.29246">
        <ele>56</ele>
        <time>2012-12-02T14:00:13Z</time>
      </trkpt>
      <trkpt lat="44.81689" lon="-0.29281">
        <ele>57</ele>
        <time>2012-12-02T14:00:25Z</time>
      </trkpt>
      <trkpt lat="44.81697" lon="-0.29309">
        <ele>58</ele>
        <time>2012-12-02T14:00:35Z</time>
      </trkpt>
      <trkpt lat="44.81705" lon="-0.29337">
        <ele>59</ele>
        <time>2012-12-02T14:00:46Z</time>
      </trkpt>
      <trkpt lat="44.81714" lon="-0.29372">
        <ele>60</ele>
        <time>2012-12-02T14:00:59Z</time>
      </trkpt>
      <trkpt lat="44.8172" lon="-0.29404">
        <ele>60</ele>
        <time>2012-12-02T14:01:11Z</time>
      </trkpt>
      <trkpt lat="44.81727" lon="-0.29435">
        <ele>60</ele>
        <time>2012-12-02T14:01:23Z</time>
      </trkpt>
      <trkpt lat="44.81731" lon="-0.29457">
        <ele>61</ele>
        <time>2012-12-02T14:01:32Z</time>
      </trkpt>
      <trkpt lat="44.81738" lon="-0.29488">
        <ele>63</ele>
        <time>2012-12-02T14:01:44Z</time>
      </trkpt>
      <trkpt lat="44.81752" lon="-0.29502">
        <ele>64</ele>
        <time>2012-12-02T14:01:54Z</time>
      </trkpt>
      <trkpt lat="44.81772" lon="-0.29515">
        <ele>66</ele>
        <time>2012-12-02T14:02:06Z</time>
      </trkpt>
      <trkpt lat="44.8179" lon="-0.29527">
        <ele>66</ele>
        <time>2012-12-02T14:02:17Z</time>
      </trkpt>
      <trkpt lat="44.81808" lon="-0.29541">
        <ele>67</ele>
        <time>2012-12-02T14:02:27Z</time>
      </trkpt>
      <trkpt lat="44.81822" lon="-0.2956">
        <ele>67</ele>
        <time>2012-12-02T14:02:38Z</time>
      </trkpt>
      <trkpt lat="44.81823" lon="-0.29562">
        <ele>67</ele>
        <time>2012-12-02T14:02:39Z</time>
      </trkpt>
      <trkpt lat="44.81833" lon="-0.29583">
        <ele>67</ele>
        <time>2012-12-02T14:02:50Z</time>
      </trkpt>
      <trkpt lat="44.8185" lon="-0.29611">
        <ele>67</ele>
        <time>2012-12-02T14:03:01Z</time>
      </trkpt>
      <trkpt lat="44.81877" lon="-0.29643">
        <ele>67</ele>
        <time>2012-12-02T14:03:12Z</time>
      </trkpt>
      <trkpt lat="44.81884" lon="-0.29693">
        <ele>68</ele>
        <time>2012-12-02T14:03:24Z</time>
      </trkpt>
      <trkpt lat="44.81886" lon="-0.29748">
        <ele>68</ele>
        <time>2012-12-02T14:03:38Z</time>
      </trkpt>
      <trkpt lat="44.81887" lon="-0.29802">
        <ele>68</ele>
        <time>2012-12-02T14:03:50Z</time>
      </trkpt>
      <trkpt lat="44.8189" lon="-0.29866">
        <ele>67</ele>
        <time>2012-12-02T14:04:04Z</time>
      </trkpt>
      <trkpt lat="44.8189" lon="-0.29874">
        <ele>66</ele>
        <time>2012-12-02T14:04:06Z</time>
      </trkpt>
      <trkpt lat="44.81886" lon="-0.29881">
        <ele>66</ele>
        <time>2012-12-02T14:04:10Z</time>
      </trkpt>
      <trkpt lat="44.81856" lon="-0.2988">
        <ele>68</ele>
        <time>2012-12-02T14:04:22Z</time>
      </trkpt>
      <trkpt lat="44.81825" lon="-0.29877">
        <ele>69</ele>
        <time>2012-12-02T14:04:33Z</time>
      </trkpt>
      <trkpt lat="44.81801" lon="-0.29866">
        <ele>70</ele>
        <time>2012-12-02T14:04:42Z</time>
      </trkpt>
      <trkpt lat="44.81783" lon="-0.29858">
        <ele>71</ele>
        <time>2012-12-02T14:04:49Z</time>
      </trkpt>
      <trkpt lat="44.81759" lon="-0.29852">
        <ele>71</ele>
        <time>2012-12-02T14:04:58Z</time>
      </trkpt>
      <trkpt lat="44.81725" lon="-0.29843">
        <ele>71</ele>
        <time>2012-12-02T14:05:11Z</time>
      </trkpt>
      <trkpt lat="44.81694" lon="-0.29836">
        <ele>71</ele>
        <time>2012-12-02T14:05:23Z</time>
      </trkpt>
      <trkpt lat="44.81675" lon="-0.29832">
        <ele>71</ele>
        <time>2012-12-02T14:05:32Z</time>
      </trkpt>
      <trkpt lat="44.81652" lon="-0.29808">
        <ele>70</ele>
        <time>2012-12-02T14:05:44Z</time>
      </trkpt>
      <trkpt lat="44.81622" lon="-0.29808">
        <ele>69</ele>
        <time>2012-12-02T14:05:54Z</time>
      </trkpt>
      <trkpt lat="44.81582" lon="-0.29808">
        <ele>67</ele>
        <time>2012-12-02T14:06:07Z</time>
      </trkpt>
      <trkpt lat="44.81561" lon="-0.29807">
        <ele>66</ele>
        <time>2012-12-02T14:06:16Z</time>
      </trkpt>
      <trkpt lat="44.81554" lon="-0.29808">
        <ele>66</ele>
        <time>2012-12-02T14:06:21Z</time>
      </trkpt>
      <trkpt lat="44.8155" lon="-0.29835">
        <ele>67</ele>
        <time>2012-12-02T14:06:29Z</time>
      </trkpt>
      <trkpt lat="44.81543" lon="-0.29883">
        <ele>68</ele>
        <time>2012-12-02T14:06:42Z</time>
      </trkpt>
      <trkpt lat="44.81529" lon="-0.29934">
        <ele>68</ele>
        <time>2012-12-02T14:06:55Z</time>
      </trkpt>
      <trkpt lat="44.81517" lon="-0.29966">
        <ele>69</ele>
        <time>2012-12-02T14:07:05Z</time>
      </trkpt>
      <trkpt lat="44.81504" lon="-0.29967">
        <ele>69</ele>
        <time>2012-12-02T14:07:10Z</time>
      </trkpt>
      <trkpt lat="44.81471" lon="-0.29961">
        <ele>69</ele>
        <time>2012-12-02T14:07:22Z</time>
      </trkpt>
      <trkpt lat="44.81429" lon="-0.29954">
        <ele>69</ele>
        <time>2012-12-02T14:07:37Z</time>
      </trkpt>
      <trkpt lat="44.81403" lon="-0.2995">
        <ele>69</ele>
        <time>2012-12-02T14:07:47Z</time>
      </trkpt>
      <trkpt lat="44.81372" lon="-0.29945">
        <ele>70</ele>
        <time>2012-12-02T14:07:58Z</time>
      </trkpt>
      <trkpt lat="44.81329" lon="-0.29939">
        <ele>70</ele>
        <time>2012-12-02T14:08:14Z</time>
      </trkpt>
      <trkpt lat="44.81294" lon="-0.29934">
        <ele>70</ele>
        <time>2012-12-02T14:08:27Z</time>
      </trkpt>
      <trkpt lat="44.81288" lon="-0.29934">
        <ele>70</ele>
        <time>2012-12-02T14:08:30Z</time>
      </trkpt>
      <trkpt lat="44.81278" lon="-0.2995">
        <ele>70</ele>
        <time>2012-12-02T14:08:38Z</time>
      </trkpt>
      <trkpt lat="44.81261" lon="-0.29972">
        <ele>70</ele>
        <time>2012-12-02T14:08:47Z</time>
      </trkpt>
      <trkpt lat="44.81249" lon="-0.3">
        <ele>70</ele>
        <time>2012-12-02T14:08:56Z</time>
      </trkpt>
      <trkpt lat="44.81234" lon="-0.30036">
        <ele>70</ele>
        <time>2012-12-02T14:09:07Z</time>
      </trkpt>
      <trkpt lat="44.81224" lon="-0.30059">
        <ele>70</ele>
        <time>2012-12-02T14:09:15Z</time>
      </trkpt>
      <trkpt lat="44.81209" lon="-0.30093">
        <ele>70</ele>
        <time>2012-12-02T14:09:25Z</time>
      </trkpt>
      <trkpt lat="44.81198" lon="-0.30142">
        <ele>71</ele>
        <time>2012-12-02T14:09:37Z</time>
      </trkpt>
      <trkpt lat="44.81195" lon="-0.30173">
        <ele>71</ele>
        <time>2012-12-02T14:09:47Z</time>
      </trkpt>
      <trkpt lat="44.81177" lon="-0.30189">
        <ele>71</ele>
        <time>2012-12-02T14:09:56Z</time>
      </trkpt>
      <trkpt lat="44.8114" lon="-0.30211">
        <ele>71</ele>
        <time>2012-12-02T14:10:09Z</time>
      </trkpt>
      <trkpt lat="44.81108" lon="-0.30226">
        <ele>71</ele>
        <time>2012-12-02T14:10:20Z</time>
      </trkpt>
      <trkpt lat="44.81074" lon="-0.30243">
        <ele>71</ele>
        <time>2012-12-02T14:10:32Z</time>
      </trkpt>
      <trkpt lat="44.81034" lon="-0.30265">
        <ele>70</ele>
        <time>2012-12-02T14:10:46Z</time>
      </trkpt>
      <trkpt lat="44.81016" lon="-0.30277">
        <ele>70</ele>
        <time>2012-12-02T14:10:53Z</time>
      </trkpt>
      <trkpt lat="44.81002" lon="-0.30309">
        <ele>70</ele>
        <time>2012-12-02T14:11:03Z</time>
      </trkpt>
      <trkpt lat="44.8099" lon="-0.30341">
        <ele>70</ele>
        <time>2012-12-02T14:11:12Z</time>
      </trkpt>
      <trkpt lat="44.80971" lon="-0.30391">
        <ele>70</ele>
        <time>2012-12-02T14:11:25Z</time>
      </trkpt>
      <trkpt lat="44.80948" lon="-0.30423">
        <ele>71</ele>
        <time>2012-12-02T14:11:36Z</time>
      </trkpt>
      <trkpt lat="44.80921" lon="-0.30447">
        <ele>71</ele>
        <time>2012-12-02T14:11:47Z</time>
      </trkpt>
      <trkpt lat="44.80897" lon="-0.3047">
        <ele>71</ele>
        <time>2012-12-02T14:11:59Z</time>
      </trkpt>
      <trkpt lat="44.80883" lon="-0.30489">
        <ele>71</ele>
        <time>2012-12-02T14:12:08Z</time>
      </trkpt>
      <trkpt lat="44.80881" lon="-0.30494">
        <ele>71</ele>
        <time>2012-12-02T14:12:10Z</time>
      </trkpt>
      <trkpt lat="44.80872" lon="-0.30527">
        <ele>71</ele>
        <time>2012-12-02T14:12:20Z</time>
      </trkpt>
      <trkpt lat="44.80864" lon="-0.30568">
        <ele>71</ele>
        <time>2012-12-02T14:12:31Z</time>
      </trkpt>
      <trkpt lat="44.80858" lon="-0.30606">
        <ele>71</ele>
        <time>2012-12-02T14:12:42Z</time>
      </trkpt>
      <trkpt lat="44.80843" lon="-0.30633">
        <ele>71</ele>
        <time>2012-12-02T14:12:52Z</time>
      </trkpt>
      <trkpt lat="44.80826" lon="-0.30655">
        <ele>70</ele>
        <time>2012-12-02T14:13:02Z</time>
      </trkpt>
      <trkpt lat="44.80801" lon="-0.30693">
        <ele>69</ele>
        <time>2012-12-02T14:13:13Z</time>
      </trkpt>
      <trkpt lat="44.80768" lon="-0.30738">
        <ele>66</ele>
        <time>2012-12-02T14:13:25Z</time>
      </trkpt>
      <trkpt lat="44.80742" lon="-0.30755">
        <ele>64</ele>
        <time>2012-12-02T14:13:33Z</time>
      </trkpt>
      <trkpt lat="44.80708" lon="-0.30777">
        <ele>63</ele>
        <time>2012-12-02T14:13:43Z</time>
      </trkpt>
      <trkpt lat="44.80675" lon="-0.30802">
        <ele>64</ele>
        <time>2012-12-02T14:13:54Z</time>
      </trkpt>
      <trkpt lat="44.80641" lon="-0.30833">
        <ele>65</ele>
        <time>2012-12-02T14:14:06Z</time>
      </trkpt>
      <trkpt lat="44.80609" lon="-0.30863">
        <ele>66</ele>
        <time>2012-12-02T14:14:18Z</time>
      </trkpt>
      <trkpt lat="44.80588" lon="-0.30886">
        <ele>67</ele>
        <time>2012-12-02T14:14:27Z</time>
      </trkpt>
      <trkpt lat="44.80562" lon="-0.30915">
        <ele>67</ele>
        <time>2012-12-02T14:14:40Z</time>
      </trkpt>
      <trkpt lat="44.80556" lon="-0.30922">
        <ele>68</ele>
        <time>2012-12-02T14:14:44Z</time>
      </trkpt>
      <trkpt lat="44.80553" lon="-0.30946">
        <ele>68</ele>
        <time>2012-12-02T14:14:54Z</time>
      </trkpt>
      <trkpt lat="44.80553" lon="-0.30948">
        <ele>68</ele>
        <time>2012-12-02T14:15:00Z</time>
      </trkpt>
      <trkpt lat="44.80552" lon="-0.30946">
        <ele>68</ele>
        <time>2012-12-02T14:15:10Z</time>
      </trkpt>
      <trkpt lat="44.80551" lon="-0.30944">
        <ele>68</ele>
        <time>2012-12-02T14:15:20Z</time>
      </trkpt>
      <trkpt lat="44.80549" lon="-0.3094">
        <ele>68</ele>
        <time>2012-12-02T14:15:23Z</time>
      </trkpt>
      <trkpt lat="44.80546" lon="-0.30939">
        <ele>68</ele>
        <time>2012-12-02T14:15:32Z</time>
      </trkpt>
      <trkpt lat="44.80545" lon="-0.30936">
        <ele>68</ele>
        <time>2012-12-02T14:15:42Z</time>
      </trkpt>
      <trkpt lat="44.80548" lon="-0.30931">
        <ele>68</ele>
        <time>2012-12-02T14:15:48Z</time>
      </trkpt>
      <trkpt lat="44.80551" lon="-0.30928">
        <ele>68</ele>
        <time>2012-12-02T14:15:50Z</time>
      </trkpt>
      <trkpt lat="44.80564" lon="-0.30911">
        <ele>67</ele>
        <time>2012-12-02T14:16:00Z</time>
      </trkpt>
      <trkpt lat="44.80568" lon="-0.30905">
        <ele>67</ele>
        <time>2012-12-02T14:16:04Z</time>
      </trkpt>
      <trkpt lat="44.80562" lon="-0.30896">
        <ele>67</ele>
        <time>2012-12-02T14:16:12Z</time>
      </trkpt>
      <trkpt lat="44.8055" lon="-0.30903">
        <ele>68</ele>
        <time>2012-12-02T14:16:21Z</time>
      </trkpt>
      <trkpt lat="44.8054" lon="-0.30908">
        <ele>68</ele>
        <time>2012-12-02T14:16:30Z</time>
      </trkpt>
      <trkpt lat="44.80539" lon="-0.30909">
        <ele>68</ele>
        <time>2012-12-02T14:16:31Z</time>
      </trkpt>
      <trkpt lat="44.80533" lon="-0.30914">
        <ele>69</ele>
        <time>2012-12-02T14:16:35Z</time>
      </trkpt>
      <trkpt lat="44.80519" lon="-0.30928">
        <ele>69</ele>
        <time>2012-12-02T14:16:45Z</time>
      </trkpt>
      <trkpt lat="44.80506" lon="-0.3095">
        <ele>69</ele>
        <time>2012-12-02T14:16:55Z</time>
      </trkpt>
      <trkpt lat="44.8049" lon="-0.30967">
        <ele>69</ele>
        <time>2012-12-02T14:17:03Z</time>
      </trkpt>
      <trkpt lat="44.8048" lon="-0.3098">
        <ele>69</ele>
        <time>2012-12-02T14:17:09Z</time>
      </trkpt>
      <trkpt lat="44.80472" lon="-0.30985">
        <ele>70</ele>
        <time>2012-12-02T14:17:13Z</time>
      </trkpt>
      <trkpt lat="44.80453" lon="-0.31003">
        <ele>70</ele>
        <time>2012-12-02T14:17:23Z</time>
      </trkpt>
      <trkpt lat="44.80449" lon="-0.31006">
        <ele>70</ele>
        <time>2012-12-02T14:17:26Z</time>
      </trkpt>
      <trkpt lat="44.80445" lon="-0.31008">
        <ele>70</ele>
        <time>2012-12-02T14:17:29Z</time>
      </trkpt>
      <trkpt lat="44.80443" lon="-0.31016">
        <ele>70</ele>
        <time>2012-12-02T14:17:38Z</time>
      </trkpt>
      <trkpt lat="44.80442" lon="-0.31018">
        <ele>70</ele>
        <time>2012-12-02T14:17:40Z</time>
      </trkpt>
      <trkpt lat="44.80438" lon="-0.31038">
        <ele>70</ele>
        <time>2012-12-02T14:17:49Z</time>
      </trkpt>
      <trkpt lat="44.80433" lon="-0.31047">
        <ele>70</ele>
        <time>2012-12-02T14:17:54Z</time>
      </trkpt>
      <trkpt lat="44.80424" lon="-0.31064">
        <ele>70</ele>
        <time>2012-12-02T14:18:03Z</time>
      </trkpt>
      <trkpt lat="44.80408" lon="-0.31084">
        <ele>71</ele>
        <time>2012-12-02T14:18:13Z</time>
      </trkpt>
      <trkpt lat="44.80393" lon="-0.31105">
        <ele>71</ele>
        <time>2012-12-02T14:18:23Z</time>
      </trkpt>
      <trkpt lat="44.80391" lon="-0.31107">
        <ele>71</ele>
        <time>2012-12-02T14:18:24Z</time>
      </trkpt>
      <trkpt lat="44.80386" lon="-0.31106">
        <ele>71</ele>
        <time>2012-12-02T14:18:32Z</time>
      </trkpt>
      <trkpt lat="44.80381" lon="-0.31107">
        <ele>72</ele>
        <time>2012-12-02T14:18:43Z</time>
      </trkpt>
      <trkpt lat="44.80376" lon="-0.31105">
        <ele>72</ele>
        <time>2012-12-02T14:18:48Z</time>
      </trkpt>
      <trkpt lat="44.80372" lon="-0.31096">
        <ele>72</ele>
        <time>2012-12-02T14:18:57Z</time>
      </trkpt>
      <trkpt lat="44.80363" lon="-0.31078">
        <ele>73</ele>
        <time>2012-12-02T14:19:06Z</time>
      </trkpt>
      <trkpt lat="44.8036" lon="-0.31076">
        <ele>73</ele>
        <time>2012-12-02T14:19:08Z</time>
      </trkpt>
      <trkpt lat="44.80355" lon="-0.31064">
        <ele>73</ele>
        <time>2012-12-02T14:19:14Z</time>
      </trkpt>
      <trkpt lat="44.80348" lon="-0.31057">
        <ele>74</ele>
        <time>2012-12-02T14:19:19Z</time>
      </trkpt>
      <trkpt lat="44.80338" lon="-0.31043">
        <ele>75</ele>
        <time>2012-12-02T14:19:27Z</time>
      </trkpt>
      <trkpt lat="44.80332" lon="-0.31034">
        <ele>75</ele>
        <time>2012-12-02T14:19:31Z</time>
      </trkpt>
      <trkpt lat="44.80326" lon="-0.31025">
        <ele>76</ele>
        <time>2012-12-02T14:19:37Z</time>
      </trkpt>
      <trkpt lat="44.80324" lon="-0.31023">
        <ele>76</ele>
        <time>2012-12-02T14:19:39Z</time>
      </trkpt>
      <trkpt lat="44.80316" lon="-0.31023">
        <ele>76</ele>
        <time>2012-12-02T14:19:48Z</time>
      </trkpt>
      <trkpt lat="44.8032" lon="-0.31026">
        <ele>76</ele>
        <time>2012-12-02T14:19:58Z</time>
      </trkpt>
      <trkpt lat="44.8032" lon="-0.31027">
        <ele>76</ele>
        <time>2012-12-02T14:19:59Z</time>
      </trkpt>
      <trkpt lat="44.80324" lon="-0.31033">
        <ele>76</ele>
        <time>2012-12-02T14:20:03Z</time>
      </trkpt>
      <trkpt lat="44.80332" lon="-0.3105">
        <ele>75</ele>
        <time>2012-12-02T14:20:11Z</time>
      </trkpt>
      <trkpt lat="44.8034" lon="-0.31065">
        <ele>74</ele>
        <time>2012-12-02T14:20:21Z</time>
      </trkpt>
      <trkpt lat="44.80341" lon="-0.31067">
        <ele>74</ele>
        <time>2012-12-02T14:20:22Z</time>
      </trkpt>
      <trkpt lat="44.80354" lon="-0.31091">
        <ele>73</ele>
        <time>2012-12-02T14:20:33Z</time>
      </trkpt>
      <trkpt lat="44.80363" lon="-0.31113">
        <ele>72</ele>
        <time>2012-12-02T14:20:41Z</time>
      </trkpt>
      <trkpt lat="44.80369" lon="-0.3113">
        <ele>72</ele>
        <time>2012-12-02T14:20:52Z</time>
      </trkpt>
      <trkpt lat="44.80371" lon="-0.31135">
        <ele>72</ele>
        <time>2012-12-02T14:21:01Z</time>
      </trkpt>
      <trkpt lat="44.8037" lon="-0.31144">
        <ele>72</ele>
        <time>2012-12-02T14:21:10Z</time>
      </trkpt>
      <trkpt lat="44.80371" lon="-0.3115">
        <ele>71</ele>
        <time>2012-12-02T14:21:13Z</time>
      </trkpt>
      <trkpt lat="44.80367" lon="-0.31154">
        <ele>72</ele>
        <time>2012-12-02T14:21:16Z</time>
      </trkpt>
      <trkpt lat="44.80359" lon="-0.31173">
        <ele>72</ele>
        <time>2012-12-02T14:21:24Z</time>
      </trkpt>
      <trkpt lat="44.80347" lon="-0.31192">
        <ele>72</ele>
        <time>2012-12-02T14:21:33Z</time>
      </trkpt>
      <trkpt lat="44.80346" lon="-0.31193">
        <ele>72</ele>
        <time>2012-12-02T14:21:34Z</time>
      </trkpt>
      <trkpt lat="44.80334" lon="-0.312">
        <ele>72</ele>
        <time>2012-12-02T14:21:42Z</time>
      </trkpt>
      <trkpt lat="44.80325" lon="-0.3121">
        <ele>73</ele>
        <time>2012-12-02T14:21:47Z</time>
      </trkpt>
      <trkpt lat="44.80318" lon="-0.31217">
        <ele>73</ele>
        <time>2012-12-02T14:21:51Z</time>
      </trkpt>
      <trkpt lat="44.80314" lon="-0.31222">
        <ele>73</ele>
        <time>2012-12-02T14:21:54Z</time>
      </trkpt>
      <trkpt lat="44.803" lon="-0.31225">
        <ele>74</ele>
        <time>2012-12-02T14:21:59Z</time>
      </trkpt>
      <trkpt lat="44.80293" lon="-0.31232">
        <ele>75</ele>
        <time>2012-12-02T14:22:04Z</time>
      </trkpt>
      <trkpt lat="44.80276" lon="-0.31238">
        <ele>76</ele>
        <time>2012-12-02T14:22:12Z</time>
      </trkpt>
      <trkpt lat="44.80267" lon="-0.31243">
        <ele>77</ele>
        <time>2012-12-02T14:22:19Z</time>
      </trkpt>
      <trkpt lat="44.80254" lon="-0.31248">
        <ele>78</ele>
        <time>2012-12-02T14:22:26Z</time>
      </trkpt>
      <trkpt lat="44.80238" lon="-0.31249">
        <ele>80</ele>
        <time>2012-12-02T14:22:34Z</time>
      </trkpt>
      <trkpt lat="44.80229" lon="-0.31251">
        <ele>81</ele>
        <time>2012-12-02T14:22:38Z</time>
      </trkpt>
      <trkpt lat="44.80224" lon="-0.31252">
        <ele>82</ele>
        <time>2012-12-02T14:22:40Z</time>
      </trkpt>
      <trkpt lat="44.80215" lon="-0.3126">
        <ele>83</ele>
        <time>2012-12-02T14:22:46Z</time>
      </trkpt>
      <trkpt lat="44.80208" lon="-0.31265">
        <ele>84</ele>
        <time>2012-12-02T14:22:52Z</time>
      </trkpt>
      <trkpt lat="44.80201" lon="-0.31281">
        <ele>85</ele>
        <time>2012-12-02T14:23:00Z</time>
      </trkpt>
      <trkpt lat="44.802" lon="-0.31291">
        <ele>85</ele>
        <time>2012-12-02T14:23:03Z</time>
      </trkpt>
      <trkpt lat="44.80206" lon="-0.31303">
        <ele>84</ele>
        <time>2012-12-02T14:23:08Z</time>
      </trkpt>
      <trkpt lat="44.80211" lon="-0.31312">
        <ele>84</ele>
        <time>2012-12-02T14:23:11Z</time>
      </trkpt>
      <trkpt lat="44.80212" lon="-0.31325">
        <ele>84</ele>
        <time>2012-12-02T14:23:16Z</time>
      </trkpt>
      <trkpt lat="44.80211" lon="-0.31354">
        <ele>83</ele>
        <time>2012-12-02T14:23:24Z</time>
      </trkpt>
      <trkpt lat="44.80212" lon="-0.31358">
        <ele>83</ele>
        <time>2012-12-02T14:23:30Z</time>
      </trkpt>
      <trkpt lat="44.80216" lon="-0.31358">
        <ele>83</ele>
        <time>2012-12-02T14:23:34Z</time>
      </trkpt>
      <trkpt lat="44.80223" lon="-0.31363">
        <ele>82</ele>
        <time>2012-12-02T14:23:39Z</time>
      </trkpt>
      <trkpt lat="44.80225" lon="-0.31367">
        <ele>82</ele>
        <time>2012-12-02T14:23:41Z</time>
      </trkpt>
      <trkpt lat="44.80232" lon="-0.31379">
        <ele>82</ele>
        <time>2012-12-02T14:23:50Z</time>
      </trkpt>
      <trkpt lat="44.80232" lon="-0.3138">
        <ele>82</ele>
        <time>2012-12-02T14:23:52Z</time>
      </trkpt>
      <trkpt lat="44.80231" lon="-0.31387">
        <ele>82</ele>
        <time>2012-12-02T14:23:54Z</time>
      </trkpt>
      <trkpt lat="44.80233" lon="-0.31402">
        <ele>81</ele>
        <time>2012-12-02T14:23:59Z</time>
      </trkpt>
      <trkpt lat="44.80238" lon="-0.31408">
        <ele>81</ele>
        <time>2012-12-02T14:24:03Z</time>
      </trkpt>
      <trkpt lat="44.80247" lon="-0.31405">
        <ele>80</ele>
        <time>2012-12-02T14:24:12Z</time>
      </trkpt>
      <trkpt lat="44.80251" lon="-0.31406">
        <ele>80</ele>
        <time>2012-12-02T14:24:15Z</time>
      </trkpt>
      <trkpt lat="44.80254" lon="-0.31412">
        <ele>80</ele>
        <time>2012-12-02T14:24:20Z</time>
      </trkpt>
      <trkpt lat="44.80249" lon="-0.31421">
        <ele>80</ele>
        <time>2012-12-02T14:24:25Z</time>
      </trkpt>
      <trkpt lat="44.80254" lon="-0.31441">
        <ele>79</ele>
        <time>2012-12-02T14:24:34Z</time>
      </trkpt>
      <trkpt lat="44.80256" lon="-0.31446">
        <ele>79</ele>
        <time>2012-12-02T14:24:36Z</time>
      </trkpt>
      <trkpt lat="44.80253" lon="-0.31454">
        <ele>79</ele>
        <time>2012-12-02T14:24:40Z</time>
      </trkpt>
      <trkpt lat="44.80262" lon="-0.31471">
        <ele>77</ele>
        <time>2012-12-02T14:24:48Z</time>
      </trkpt>
      <trkpt lat="44.80271" lon="-0.31493">
        <ele>76</ele>
        <time>2012-12-02T14:24:55Z</time>
      </trkpt>
      <trkpt lat="44.80278" lon="-0.315">
        <ele>76</ele>
        <time>2012-12-02T14:24:59Z</time>
      </trkpt>
      <trkpt lat="44.80281" lon="-0.31506">
        <ele>75</ele>
        <time>2012-12-02T14:25:02Z</time>
      </trkpt>
      <trkpt lat="44.80281" lon="-0.31521">
        <ele>75</ele>
        <time>2012-12-02T14:25:07Z</time>
      </trkpt>
      <trkpt lat="44.8028" lon="-0.31542">
        <ele>75</ele>
        <time>2012-12-02T14:25:13Z</time>
      </trkpt>
      <trkpt lat="44.80282" lon="-0.31547">
        <ele>74</ele>
        <time>2012-12-02T14:25:15Z</time>
      </trkpt>
      <trkpt lat="44.80284" lon="-0.3155">
        <ele>74</ele>
        <time>2012-12-02T14:25:19Z</time>
      </trkpt>
      <trkpt lat="44.80285" lon="-0.31586">
        <ele>74</ele>
        <time>2012-12-02T14:25:26Z</time>
      </trkpt>
      <trkpt lat="44.80283" lon="-0.31603">
        <ele>75</ele>
        <time>2012-12-02T14:25:32Z</time>
      </trkpt>
      <trkpt lat="44.80283" lon="-0.31615">
        <ele>75</ele>
        <time>2012-12-02T14:25:37Z</time>
      </trkpt>
      <trkpt lat="44.80285" lon="-0.31635">
        <ele>75</ele>
        <time>2012-12-02T14:25:44Z</time>
      </trkpt>
      <trkpt lat="44.8028" lon="-0.31659">
        <ele>77</ele>
        <time>2012-12-02T14:25:53Z</time>
      </trkpt>
      <trkpt lat="44.80276" lon="-0.31669">
        <ele>78</ele>
        <time>2012-12-02T14:25:58Z</time>
      </trkpt>
      <trkpt lat="44.80271" lon="-0.31679">
        <ele>79</ele>
        <time>2012-12-02T14:26:02Z</time>
      </trkpt>
      <trkpt lat="44.80261" lon="-0.31695">
        <ele>81</ele>
        <time>2012-12-02T14:26:09Z</time>
      </trkpt>
      <trkpt lat="44.80258" lon="-0.31701">
        <ele>81</ele>
        <time>2012-12-02T14:26:12Z</time>
      </trkpt>
      <trkpt lat="44.80254" lon="-0.31714">
        <ele>82</ele>
        <time>2012-12-02T14:26:21Z</time>
      </trkpt>
      <trkpt lat="44.80253" lon="-0.31723">
        <ele>83</ele>
        <time>2012-12-02T14:26:26Z</time>
      </trkpt>
      <trkpt lat="44.8025" lon="-0.31727">
        <ele>83</ele>
        <time>2012-12-02T14:26:28Z</time>
      </trkpt>
      <trkpt lat="44.80248" lon="-0.31732">
        <ele>84</ele>
        <time>2012-12-02T14:26:31Z</time>
      </trkpt>
      <trkpt lat="44.8023" lon="-0.31754">
        <ele>87</ele>
        <time>2012-12-02T14:26:40Z</time>
      </trkpt>
      <trkpt lat="44.80227" lon="-0.31758">
        <ele>87</ele>
        <time>2012-12-02T14:26:43Z</time>
      </trkpt>
      <trkpt lat="44.80222" lon="-0.31769">
        <ele>89</ele>
        <time>2012-12-02T14:26:49Z</time>
      </trkpt>
      <trkpt lat="44.80223" lon="-0.31778">
        <ele>89</ele>
        <time>2012-12-02T14:26:57Z</time>
      </trkpt>
      <trkpt lat="44.80228" lon="-0.31783">
        <ele>89</ele>
        <time>2012-12-02T14:27:06Z</time>
      </trkpt>
      <trkpt lat="44.80233" lon="-0.31784">
        <ele>88</ele>
        <time>2012-12-02T14:27:15Z</time>
      </trkpt>
      <trkpt lat="44.80241" lon="-0.31789">
        <ele>87</ele>
        <time>2012-12-02T14:27:21Z</time>
      </trkpt>
      <trkpt lat="44.80251" lon="-0.3179">
        <ele>86</ele>
        <time>2012-12-02T14:27:29Z</time>
      </trkpt>
      <trkpt lat="44.80251" lon="-0.31793">
        <ele>86</ele>
        <time>2012-12-02T14:27:40Z</time>
      </trkpt>
      <trkpt lat="44.80253" lon="-0.31793">
        <ele>86</ele>
        <time>2012-12-02T14:27:54Z</time>
      </trkpt>
      <trkpt lat="44.8026" lon="-0.31803">
        <ele>86</ele>
        <time>2012-12-02T14:28:03Z</time>
      </trkpt>
      <trkpt lat="44.80265" lon="-0.318">
        <ele>86</ele>
        <time>2012-12-02T14:28:25Z</time>
      </trkpt>
      <trkpt lat="44.80265" lon="-0.31809">
        <ele>86</ele>
        <time>2012-12-02T14:28:38Z</time>
      </trkpt>
      <trkpt lat="44.8027" lon="-0.31813">
        <ele>85</ele>
        <time>2012-12-02T14:28:45Z</time>
      </trkpt>
      <trkpt lat="44.80277" lon="-0.31832">
        <ele>85</ele>
        <time>2012-12-02T14:28:54Z</time>
      </trkpt>
      <trkpt lat="44.80279" lon="-0.3184">
        <ele>85</ele>
        <time>2012-12-02T14:28:58Z</time>
      </trkpt>
      <trkpt lat="44.80281" lon="-0.3184">
        <ele>85</ele>
        <time>2012-12-02T14:29:01Z</time>
      </trkpt>
      <trkpt lat="44.80281" lon="-0.31851">
        <ele>85</ele>
        <time>2012-12-02T14:29:09Z</time>
      </trkpt>
      <trkpt lat="44.80284" lon="-0.31855">
        <ele>85</ele>
        <time>2012-12-02T14:29:16Z</time>
      </trkpt>
      <trkpt lat="44.80285" lon="-0.31857">
        <ele>85</ele>
        <time>2012-12-02T14:29:19Z</time>
      </trkpt>
      <trkpt lat="44.80288" lon="-0.31864">
        <ele>85</ele>
        <time>2012-12-02T14:29:28Z</time>
      </trkpt>
      <trkpt lat="44.80292" lon="-0.31874">
        <ele>84</ele>
        <time>2012-12-02T14:29:39Z</time>
      </trkpt>
      <trkpt lat="44.80293" lon="-0.31876">
        <ele>84</ele>
        <time>2012-12-02T14:29:40Z</time>
      </trkpt>
      <trkpt lat="44.80303" lon="-0.31884">
        <ele>83</ele>
        <time>2012-12-02T14:29:46Z</time>
      </trkpt>
      <trkpt lat="44.80312" lon="-0.31893">
        <ele>82</ele>
        <time>2012-12-02T14:29:53Z</time>
      </trkpt>
      <trkpt lat="44.80315" lon="-0.31892">
        <ele>81</ele>
        <time>2012-12-02T14:29:55Z</time>
      </trkpt>
      <trkpt lat="44.80318" lon="-0.31885">
        <ele>80</ele>
        <time>2012-12-02T14:30:00Z</time>
      </trkpt>
      <trkpt lat="44.8032" lon="-0.31877">
        <ele>80</ele>
        <time>2012-12-02T14:30:09Z</time>
      </trkpt>
      <trkpt lat="44.80324" lon="-0.31875">
        <ele>80</ele>
        <time>2012-12-02T14:30:16Z</time>
      </trkpt>
      <trkpt lat="44.80326" lon="-0.31866">
        <ele>80</ele>
        <time>2012-12-02T14:30:22Z</time>
      </trkpt>
      <trkpt lat="44.80329" lon="-0.31858">
        <ele>79</ele>
        <time>2012-12-02T14:30:27Z</time>
      </trkpt>
      <trkpt lat="44.80347" lon="-0.31849">
        <ele>78</ele>
        <time>2012-12-02T14:30:36Z</time>
      </trkpt>
      <trkpt lat="44.80358" lon="-0.3184">
        <ele>77</ele>
        <time>2012-12-02T14:30:45Z</time>
      </trkpt>
      <trkpt lat="44.80359" lon="-0.3184">
        <ele>77</ele>
        <time>2012-12-02T14:30:54Z</time>
      </trkpt>
      <trkpt lat="44.8036" lon="-0.3184">
        <ele>77</ele>
        <time>2012-12-02T14:31:17Z</time>
      </trkpt>
      <trkpt lat="44.8036" lon="-0.3184">
        <ele>77</ele>
        <time>2012-12-02T14:31:26Z</time>
      </trkpt>
      <trkpt lat="44.80361" lon="-0.3184">
        <ele>77</ele>
        <time>2012-12-02T14:31:44Z</time>
      </trkpt>
      <trkpt lat="44.80361" lon="-0.31839">
        <ele>77</ele>
        <time>2012-12-02T14:32:04Z</time>
      </trkpt>
      <trkpt lat="44.80362" lon="-0.3184">
        <ele>77</ele>
        <time>2012-12-02T14:32:23Z</time>
      </trkpt>
      <trkpt lat="44.80361" lon="-0.31841">
        <ele>77</ele>
        <time>2012-12-02T14:32:48Z</time>
      </trkpt>
      <trkpt lat="44.80361" lon="-0.31842">
        <ele>77</ele>
        <time>2012-12-02T14:33:12Z</time>
      </trkpt>
      <trkpt lat="44.80361" lon="-0.31841">
        <ele>77</ele>
        <time>2012-12-02T14:33:35Z</time>
      </trkpt>
      <trkpt lat="44.80361" lon="-0.31842">
        <ele>77</ele>
        <time>2012-12-02T14:33:58Z</time>
      </trkpt>
      <trkpt lat="44.80361" lon="-0.31842">
        <ele>77</ele>
        <time>2012-12-02T14:34:10Z</time>
      </trkpt>
      <trkpt lat="44.80376" lon="-0.31845">
        <ele>76</ele>
        <time>2012-12-02T14:34:20Z</time>
      </trkpt>
      <trkpt lat="44.80399" lon="-0.3184">
        <ele>75</ele>
        <time>2012-12-02T14:34:29Z</time>
      </trkpt>
      <trkpt lat="44.80406" lon="-0.31854">
        <ele>75</ele>
        <time>2012-12-02T14:34:37Z</time>
      </trkpt>
      <trkpt lat="44.80406" lon="-0.31882">
        <ele>75</ele>
        <time>2012-12-02T14:34:46Z</time>
      </trkpt>
      <trkpt lat="44.80406" lon="-0.31885">
        <ele>75</ele>
        <time>2012-12-02T14:34:47Z</time>
      </trkpt>
      <trkpt lat="44.80406" lon="-0.31915">
        <ele>76</ele>
        <time>2012-12-02T14:34:57Z</time>
      </trkpt>
      <trkpt lat="44.80407" lon="-0.31943">
        <ele>76</ele>
        <time>2012-12-02T14:35:07Z</time>
      </trkpt>
      <trkpt lat="44.80412" lon="-0.31968">
        <ele>76</ele>
        <time>2012-12-02T14:35:17Z</time>
      </trkpt>
      <trkpt lat="44.80412" lon="-0.31998">
        <ele>77</ele>
        <time>2012-12-02T14:35:30Z</time>
      </trkpt>
      <trkpt lat="44.80409" lon="-0.32">
        <ele>77</ele>
        <time>2012-12-02T14:35:32Z</time>
      </trkpt>
      <trkpt lat="44.8039" lon="-0.3201">
        <ele>79</ele>
        <time>2012-12-02T14:35:46Z</time>
      </trkpt>
      <trkpt lat="44.80378" lon="-0.32018">
        <ele>81</ele>
        <time>2012-12-02T14:35:57Z</time>
      </trkpt>
      <trkpt lat="44.80373" lon="-0.32019">
        <ele>81</ele>
        <time>2012-12-02T14:36:00Z</time>
      </trkpt>
      <trkpt lat="44.8036" lon="-0.32022">
        <ele>83</ele>
        <time>2012-12-02T14:36:11Z</time>
      </trkpt>
      <trkpt lat="44.80352" lon="-0.32026">
        <ele>84</ele>
        <time>2012-12-02T14:36:18Z</time>
      </trkpt>
      <trkpt lat="44.80343" lon="-0.32029">
        <ele>85</ele>
        <time>2012-12-02T14:36:25Z</time>
      </trkpt>
      <trkpt lat="44.80332" lon="-0.32034">
        <ele>87</ele>
        <time>2012-12-02T14:36:35Z</time>
      </trkpt>
      <trkpt lat="44.80326" lon="-0.32036">
        <ele>88</ele>
        <time>2012-12-02T14:36:41Z</time>
      </trkpt>
      <trkpt lat="44.80322" lon="-0.32037">
        <ele>88</ele>
        <time>2012-12-02T14:36:45Z</time>
      </trkpt>
      <trkpt lat="44.80317" lon="-0.3205">
        <ele>90</ele>
        <time>2012-12-02T14:36:55Z</time>
      </trkpt>
      <trkpt lat="44.80313" lon="-0.32057">
        <ele>91</ele>
        <time>2012-12-02T14:37:04Z</time>
      </trkpt>
      <trkpt lat="44.80313" lon="-0.32057">
        <ele>91</ele>
        <time>2012-12-02T14:37:13Z</time>
      </trkpt>
      <trkpt lat="44.80315" lon="-0.32055">
        <ele>90</ele>
        <time>2012-12-02T14:37:15Z</time>
      </trkpt>
      <trkpt lat="44.80329" lon="-0.3205">
        <ele>88</ele>
        <time>2012-12-02T14:37:22Z</time>
      </trkpt>
      <trkpt lat="44.80341" lon="-0.32063">
        <ele>88</ele>
        <time>2012-12-02T14:37:32Z</time>
      </trkpt>
      <trkpt lat="44.80349" lon="-0.32082">
        <ele>89</ele>
        <time>2012-12-02T14:37:41Z</time>
      </trkpt>
      <trkpt lat="44.80357" lon="-0.32108">
        <ele>90</ele>
        <time>2012-12-02T14:37:52Z</time>
      </trkpt>
      <trkpt lat="44.80351" lon="-0.32116">
        <ele>92</ele>
        <time>2012-12-02T14:37:58Z</time>
      </trkpt>
      <trkpt lat="44.80335" lon="-0.32127">
        <ele>95</ele>
        <time>2012-12-02T14:38:10Z</time>
      </trkpt>
      <trkpt lat="44.80335" lon="-0.32129">
        <ele>95</ele>
        <time>2012-12-02T14:38:12Z</time>
      </trkpt>
      <trkpt lat="44.80332" lon="-0.32146">
        <ele>97</ele>
        <time>2012-12-02T14:38:22Z</time>
      </trkpt>
      <trkpt lat="44.80331" lon="-0.32148">
        <ele>97</ele>
        <time>2012-12-02T14:38:23Z</time>
      </trkpt>
      <trkpt lat="44.80328" lon="-0.32149">
        <ele>97</ele>
        <time>2012-12-02T14:38:26Z</time>
      </trkpt>
      <trkpt lat="44.80317" lon="-0.32159">
        <ele>99</ele>
        <time>2012-12-02T14:38:36Z</time>
      </trkpt>
      <trkpt lat="44.80323" lon="-0.32175">
        <ele>99</ele>
        <time>2012-12-02T14:38:45Z</time>
      </trkpt>
      <trkpt lat="44.80332" lon="-0.32193">
        <ele>100</ele>
        <time>2012-12-02T14:38:55Z</time>
      </trkpt>
      <trkpt lat="44.80345" lon="-0.32223">
        <ele>101</ele>
        <time>2012-12-02T14:39:09Z</time>
      </trkpt>
      <trkpt lat="44.80347" lon="-0.32227">
        <ele>101</ele>
        <time>2012-12-02T14:39:11Z</time>
      </trkpt>
      <trkpt lat="44.80341" lon="-0.32239">
        <ele>101</ele>
        <time>2012-12-02T14:39:17Z</time>
      </trkpt>
      <trkpt lat="44.80326" lon="-0.32248">
        <ele>101</ele>
        <time>2012-12-02T14:39:25Z</time>
      </trkpt>
      <trkpt lat="44.80307" lon="-0.32266">
        <ele>100</ele>
        <time>2012-12-02T14:39:34Z</time>
      </trkpt>
      <trkpt lat="44.803" lon="-0.32272">
        <ele>98</ele>
        <time>2012-12-02T14:39:39Z</time>
      </trkpt>
      <trkpt lat="44.80293" lon="-0.32284">
        <ele>97</ele>
        <time>2012-12-02T14:39:49Z</time>
      </trkpt>
      <trkpt lat="44.80291" lon="-0.32282">
        <ele>97</ele>
        <time>2012-12-02T14:39:50Z</time>
      </trkpt>
      <trkpt lat="44.80273" lon="-0.32254">
        <ele>97</ele>
        <time>2012-12-02T14:40:01Z</time>
      </trkpt>
      <trkpt lat="44.8026" lon="-0.32226">
        <ele>97</ele>
        <time>2012-12-02T14:40:10Z</time>
      </trkpt>
      <trkpt lat="44.80241" lon="-0.32213">
        <ele>97</ele>
        <time>2012-12-02T14:40:19Z</time>
      </trkpt>
      <trkpt lat="44.8022" lon="-0.32198">
        <ele>97</ele>
        <time>2012-12-02T14:40:27Z</time>
      </trkpt>
      <trkpt lat="44.80198" lon="-0.32186">
        <ele>97</ele>
        <time>2012-12-02T14:40:36Z</time>
      </trkpt>
      <trkpt lat="44.80179" lon="-0.32187">
        <ele>96</ele>
        <time>2012-12-02T14:40:44Z</time>
      </trkpt>
      <trkpt lat="44.80152" lon="-0.32203">
        <ele>96</ele>
        <time>2012-12-02T14:40:53Z</time>
      </trkpt>
      <trkpt lat="44.80127" lon="-0.32233">
        <ele>95</ele>
        <time>2012-12-02T14:41:03Z</time>
      </trkpt>
      <trkpt lat="44.80104" lon="-0.32266">
        <ele>92</ele>
        <time>2012-12-02T14:41:12Z</time>
      </trkpt>
      <trkpt lat="44.80084" lon="-0.32291">
        <ele>91</ele>
        <time>2012-12-02T14:41:19Z</time>
      </trkpt>
      <trkpt lat="44.80071" lon="-0.32304">
        <ele>91</ele>
        <time>2012-12-02T14:41:25Z</time>
      </trkpt>
      <trkpt lat="44.80055" lon="-0.32327">
        <ele>90</ele>
        <time>2012-12-02T14:41:31Z</time>
      </trkpt>
      <trkpt lat="44.80042" lon="-0.32351">
        <ele>89</ele>
        <time>2012-12-02T14:41:37Z</time>
      </trkpt>
      <trkpt lat="44.80021" lon="-0.32383">
        <ele>88</ele>
        <time>2012-12-02T14:41:46Z</time>
      </trkpt>
      <trkpt lat="44.79998" lon="-0.32416">
        <ele>89</ele>
        <time>2012-12-02T14:41:55Z</time>
      </trkpt>
      <trkpt lat="44.79989" lon="-0.32441">
        <ele>88</ele>
        <time>2012-12-02T14:42:03Z</time>
      </trkpt>
      <trkpt lat="44.79979" lon="-0.32464">
        <ele>88</ele>
        <time>2012-12-02T14:42:08Z</time>
      </trkpt>
      <trkpt lat="44.79972" lon="-0.32496">
        <ele>87</ele>
        <time>2012-12-02T14:42:14Z</time>
      </trkpt>
      <trkpt lat="44.79967" lon="-0.32518">
        <ele>85</ele>
        <time>2012-12-02T14:42:18Z</time>
      </trkpt>
      <trkpt lat="44.79947" lon="-0.32561">
        <ele>83</ele>
        <time>2012-12-02T14:42:27Z</time>
      </trkpt>
      <trkpt lat="44.79938" lon="-0.32572">
        <ele>83</ele>
        <time>2012-12-02T14:42:29Z</time>
      </trkpt>
      <trkpt lat="44.79925" lon="-0.32588">
        <ele>82</ele>
        <time>2012-12-02T14:42:32Z</time>
      </trkpt>
      <trkpt lat="44.79892" lon="-0.32613">
        <ele>82</ele>
        <time>2012-12-02T14:42:40Z</time>
      </trkpt>
      <trkpt lat="44.79867" lon="-0.32621">
        <ele>84</ele>
        <time>2012-12-02T14:42:48Z</time>
      </trkpt>
      <trkpt lat="44.79841" lon="-0.32644">
        <ele>84</ele>
        <time>2012-12-02T14:42:56Z</time>
      </trkpt>
      <trkpt lat="44.7982" lon="-0.32671">
        <ele>84</ele>
        <time>2012-12-02T14:43:03Z</time>
      </trkpt>
      <trkpt lat="44.79791" lon="-0.32715">
        <ele>82</ele>
        <time>2012-12-02T14:43:13Z</time>
      </trkpt>
      <trkpt lat="44.79788" lon="-0.3272">
        <ele>82</ele>
        <time>2012-12-02T14:43:14Z</time>
      </trkpt>
      <trkpt lat="44.79785" lon="-0.32725">
        <ele>82</ele>
        <time>2012-12-02T14:43:15Z</time>
      </trkpt>
      <trkpt lat="44.79783" lon="-0.3273">
        <ele>81</ele>
        <time>2012-12-02T14:43:16Z</time>
      </trkpt>
      <trkpt lat="44.7978" lon="-0.32735">
        <ele>81</ele>
        <time>2012-12-02T14:43:17Z</time>
      </trkpt>
      <trkpt lat="44.79777" lon="-0.3274">
        <ele>80</ele>
        <time>2012-12-02T14:43:18Z</time>
      </trkpt>
      <trkpt lat="44.79775" lon="-0.32746">
        <ele>80</ele>
        <time>2012-12-02T14:43:19Z</time>
      </trkpt>
      <trkpt lat="44.79772" lon="-0.32752">
        <ele>79</ele>
        <time>2012-12-02T14:43:20Z</time>
      </trkpt>
      <trkpt lat="44.79765" lon="-0.32762">
        <ele>79</ele>
        <time>2012-12-02T14:43:22Z</time>
      </trkpt>
      <trkpt lat="44.79758" lon="-0.32773">
        <ele>78</ele>
        <time>2012-12-02T14:43:24Z</time>
      </trkpt>
      <trkpt lat="44.79755" lon="-0.32778">
        <ele>77</ele>
        <time>2012-12-02T14:43:25Z</time>
      </trkpt>
      <trkpt lat="44.79753" lon="-0.32783">
        <ele>77</ele>
        <time>2012-12-02T14:43:26Z</time>
      </trkpt>
      <trkpt lat="44.7975" lon="-0.32787">
        <ele>76</ele>
        <time>2012-12-02T14:43:27Z</time>
      </trkpt>
      <trkpt lat="44.79748" lon="-0.3279">
        <ele>76</ele>
        <time>2012-12-02T14:43:28Z</time>
      </trkpt>
      <trkpt lat="44.79747" lon="-0.32793">
        <ele>76</ele>
        <time>2012-12-02T14:43:29Z</time>
      </trkpt>
      <trkpt lat="44.79745" lon="-0.32797">
        <ele>76</ele>
        <time>2012-12-02T14:43:30Z</time>
      </trkpt>
      <trkpt lat="44.79744" lon="-0.32802">
        <ele>75</ele>
        <time>2012-12-02T14:43:31Z</time>
      </trkpt>
      <trkpt lat="44.79743" lon="-0.32806">
        <ele>75</ele>
        <time>2012-12-02T14:43:32Z</time>
      </trkpt>
      <trkpt lat="44.79742" lon="-0.3281">
        <ele>75</ele>
        <time>2012-12-02T14:43:33Z</time>
      </trkpt>
      <trkpt lat="44.79742" lon="-0.32815">
        <ele>74</ele>
        <time>2012-12-02T14:43:34Z</time>
      </trkpt>
      <trkpt lat="44.79743" lon="-0.3282">
        <ele>74</ele>
        <time>2012-12-02T14:43:35Z</time>
      </trkpt>
      <trkpt lat="44.79743" lon="-0.32861">
        <ele>70</ele>
        <time>2012-12-02T14:43:44Z</time>
      </trkpt>
      <trkpt lat="44.79738" lon="-0.32883">
        <ele>68</ele>
        <time>2012-12-02T14:43:54Z</time>
      </trkpt>
      <trkpt lat="44.79735" lon="-0.329">
        <ele>67</ele>
        <time>2012-12-02T14:44:03Z</time>
      </trkpt>
      <trkpt lat="44.79735" lon="-0.32902">
        <ele>67</ele>
        <time>2012-12-02T14:44:04Z</time>
      </trkpt>
      <trkpt lat="44.79735" lon="-0.32906">
        <ele>66</ele>
        <time>2012-12-02T14:44:05Z</time>
      </trkpt>
      <trkpt lat="44.79734" lon="-0.32921">
        <ele>65</ele>
        <time>2012-12-02T14:44:10Z</time>
      </trkpt>
      <trkpt lat="44.79734" lon="-0.32923">
        <ele>65</ele>
        <time>2012-12-02T14:44:11Z</time>
      </trkpt>
      <trkpt lat="44.79733" lon="-0.32927">
        <ele>65</ele>
        <time>2012-12-02T14:44:12Z</time>
      </trkpt>
      <trkpt lat="44.79733" lon="-0.3293">
        <ele>64</ele>
        <time>2012-12-02T14:44:13Z</time>
      </trkpt>
      <trkpt lat="44.79733" lon="-0.32933">
        <ele>64</ele>
        <time>2012-12-02T14:44:14Z</time>
      </trkpt>
      <trkpt lat="44.79732" lon="-0.32935">
        <ele>64</ele>
        <time>2012-12-02T14:44:15Z</time>
      </trkpt>
      <trkpt lat="44.79732" lon="-0.32938">
        <ele>64</ele>
        <time>2012-12-02T14:44:16Z</time>
      </trkpt>
      <trkpt lat="44.79731" lon="-0.3294">
        <ele>64</ele>
        <time>2012-12-02T14:44:17Z</time>
      </trkpt>
      <trkpt lat="44.7973" lon="-0.32951">
        <ele>63</ele>
        <time>2012-12-02T14:44:21Z</time>
      </trkpt>
      <trkpt lat="44.79729" lon="-0.32954">
        <ele>62</ele>
        <time>2012-12-02T14:44:22Z</time>
      </trkpt>
      <trkpt lat="44.79727" lon="-0.32968">
        <ele>61</ele>
        <time>2012-12-02T14:44:26Z</time>
      </trkpt>
      <trkpt lat="44.79727" lon="-0.32972">
        <ele>61</ele>
        <time>2012-12-02T14:44:27Z</time>
      </trkpt>
      <trkpt lat="44.79727" lon="-0.32976">
        <ele>61</ele>
        <time>2012-12-02T14:44:28Z</time>
      </trkpt>
      <trkpt lat="44.79726" lon="-0.3298">
        <ele>60</ele>
        <time>2012-12-02T14:44:29Z</time>
      </trkpt>
      <trkpt lat="44.79726" lon="-0.32984">
        <ele>60</ele>
        <time>2012-12-02T14:44:30Z</time>
      </trkpt>
      <trkpt lat="44.79725" lon="-0.32987">
        <ele>60</ele>
        <time>2012-12-02T14:44:31Z</time>
      </trkpt>
      <trkpt lat="44.79725" lon="-0.3299">
        <ele>60</ele>
        <time>2012-12-02T14:44:32Z</time>
      </trkpt>
      <trkpt lat="44.79724" lon="-0.32994">
        <ele>59</ele>
        <time>2012-12-02T14:44:33Z</time>
      </trkpt>
      <trkpt lat="44.79723" lon="-0.32997">
        <ele>59</ele>
        <time>2012-12-02T14:44:34Z</time>
      </trkpt>
      <trkpt lat="44.79723" lon="-0.33001">
        <ele>59</ele>
        <time>2012-12-02T14:44:35Z</time>
      </trkpt>
      <trkpt lat="44.79722" lon="-0.33005">
        <ele>59</ele>
        <time>2012-12-02T14:44:36Z</time>
      </trkpt>
      <trkpt lat="44.79721" lon="-0.33035">
        <ele>57</ele>
        <time>2012-12-02T14:44:45Z</time>
      </trkpt>
      <trkpt lat="44.7973" lon="-0.33074">
        <ele>55</ele>
        <time>2012-12-02T14:44:55Z</time>
      </trkpt>
      <trkpt lat="44.79739" lon="-0.33113">
        <ele>53</ele>
        <time>2012-12-02T14:45:05Z</time>
      </trkpt>
      <trkpt lat="44.79737" lon="-0.33124">
        <ele>52</ele>
        <time>2012-12-02T14:45:13Z</time>
      </trkpt>
      <trkpt lat="44.79738" lon="-0.33134">
        <ele>52</ele>
        <time>2012-12-02T14:45:19Z</time>
      </trkpt>
      <trkpt lat="44.79744" lon="-0.3314">
        <ele>52</ele>
        <time>2012-12-02T14:45:26Z</time>
      </trkpt>
      <trkpt lat="44.79748" lon="-0.33146">
        <ele>53</ele>
        <time>2012-12-02T14:45:31Z</time>
      </trkpt>
      <trkpt lat="44.79749" lon="-0.33148">
        <ele>53</ele>
        <time>2012-12-02T14:45:32Z</time>
      </trkpt>
      <trkpt lat="44.79749" lon="-0.3315">
        <ele>53</ele>
        <time>2012-12-02T14:45:33Z</time>
      </trkpt>
      <trkpt lat="44.79751" lon="-0.33157">
        <ele>53</ele>
        <time>2012-12-02T14:45:37Z</time>
      </trkpt>
      <trkpt lat="44.79755" lon="-0.33169">
        <ele>54</ele>
        <time>2012-12-02T14:45:44Z</time>
      </trkpt>
      <trkpt lat="44.79756" lon="-0.33172">
        <ele>54</ele>
        <time>2012-12-02T14:45:45Z</time>
      </trkpt>
      <trkpt lat="44.79757" lon="-0.33174">
        <ele>54</ele>
        <time>2012-12-02T14:45:46Z</time>
      </trkpt>
      <trkpt lat="44.79759" lon="-0.33176">
        <ele>54</ele>
        <time>2012-12-02T14:45:47Z</time>
      </trkpt>
      <trkpt lat="44.79764" lon="-0.33186">
        <ele>55</ele>
        <time>2012-12-02T14:45:53Z</time>
      </trkpt>
      <trkpt lat="44.79768" lon="-0.33192">
        <ele>55</ele>
        <time>2012-12-02T14:46:01Z</time>
      </trkpt>
      <trkpt lat="44.79771" lon="-0.33199">
        <ele>56</ele>
        <time>2012-12-02T14:46:11Z</time>
      </trkpt>
      <trkpt lat="44.79779" lon="-0.3321">
        <ele>57</ele>
        <time>2012-12-02T14:46:20Z</time>
      </trkpt>
      <trkpt lat="44.79784" lon="-0.33219">
        <ele>58</ele>
        <time>2012-12-02T14:46:30Z</time>
      </trkpt>
      <trkpt lat="44.79784" lon="-0.33219">
        <ele>58</ele>
        <time>2012-12-02T14:46:40Z</time>
      </trkpt>
      <trkpt lat="44.79784" lon="-0.3322">
        <ele>58</ele>
        <time>2012-12-02T14:47:04Z</time>
      </trkpt>
      <trkpt lat="44.79784" lon="-0.33221">
        <ele>58</ele>
        <time>2012-12-02T14:47:20Z</time>
      </trkpt>
      <trkpt lat="44.79786" lon="-0.33222">
        <ele>59</ele>
        <time>2012-12-02T14:47:39Z</time>
      </trkpt>
      <trkpt lat="44.79786" lon="-0.33222">
        <ele>59</ele>
        <time>2012-12-02T14:47:52Z</time>
      </trkpt>
      <trkpt lat="44.79786" lon="-0.33222">
        <ele>59</ele>
        <time>2012-12-02T14:48:12Z</time>
      </trkpt>
      <trkpt lat="44.79788" lon="-0.33226">
        <ele>59</ele>
        <time>2012-12-02T14:48:26Z</time>
      </trkpt>
      <trkpt lat="44.79788" lon="-0.33227">
        <ele>59</ele>
        <time>2012-12-02T14:48:38Z</time>
      </trkpt>
      <trkpt lat="44.79789" lon="-0.33227">
        <ele>59</ele>
        <time>2012-12-02T14:48:54Z</time>
      </trkpt>
      <trkpt lat="44.7979" lon="-0.33228">
        <ele>59</ele>
        <time>2012-12-02T14:48:57Z</time>
      </trkpt>
      <trkpt lat="44.7979" lon="-0.3323">
        <ele>59</ele>
        <time>2012-12-02T14:48:58Z</time>
      </trkpt>
      <trkpt lat="44.79791" lon="-0.33232">
        <ele>59</ele>
        <time>2012-12-02T14:48:59Z</time>
      </trkpt>
      <trkpt lat="44.79804" lon="-0.33253">
        <ele>61</ele>
        <time>2012-12-02T14:49:08Z</time>
      </trkpt>
      <trkpt lat="44.79823" lon="-0.33276">
        <ele>60</ele>
        <time>2012-12-02T14:49:18Z</time>
      </trkpt>
      <trkpt lat="44.79835" lon="-0.33295">
        <ele>60</ele>
        <time>2012-12-02T14:49:25Z</time>
      </trkpt>
      <trkpt lat="44.7986" lon="-0.33327">
        <ele>60</ele>
        <time>2012-12-02T14:49:37Z</time>
      </trkpt>
      <trkpt lat="44.79883" lon="-0.33358">
        <ele>61</ele>
        <time>2012-12-02T14:49:49Z</time>
      </trkpt>
      <trkpt lat="44.79905" lon="-0.33385">
        <ele>62</ele>
        <time>2012-12-02T14:50:00Z</time>
      </trkpt>
      <trkpt lat="44.79928" lon="-0.33415">
        <ele>62</ele>
        <time>2012-12-02T14:50:12Z</time>
      </trkpt>
      <trkpt lat="44.79946" lon="-0.33439">
        <ele>62</ele>
        <time>2012-12-02T14:50:22Z</time>
      </trkpt>
      <trkpt lat="44.79968" lon="-0.33465">
        <ele>62</ele>
        <time>2012-12-02T14:50:33Z</time>
      </trkpt>
      <trkpt lat="44.79993" lon="-0.33495">
        <ele>62</ele>
        <time>2012-12-02T14:50:45Z</time>
      </trkpt>
      <trkpt lat="44.80016" lon="-0.33522">
        <ele>62</ele>
        <time>2012-12-02T14:50:56Z</time>
      </trkpt>
      <trkpt lat="44.80034" lon="-0.33547">
        <ele>62</ele>
        <time>2012-12-02T14:51:08Z</time>
      </trkpt>
      <trkpt lat="44.80046" lon="-0.33564">
        <ele>62</ele>
        <time>2012-12-02T14:51:15Z</time>
      </trkpt>
      <trkpt lat="44.80056" lon="-0.33565">
        <ele>62</ele>
        <time>2012-12-02T14:51:19Z</time>
      </trkpt>
      <trkpt lat="44.80071" lon="-0.33544">
        <ele>63</ele>
        <time>2012-12-02T14:51:30Z</time>
      </trkpt>
      <trkpt lat="44.80081" lon="-0.3353">
        <ele>64</ele>
        <time>2012-12-02T14:51:38Z</time>
      </trkpt>
      <trkpt lat="44.80091" lon="-0.33509">
        <ele>66</ele>
        <time>2012-12-02T14:51:50Z</time>
      </trkpt>
      <trkpt lat="44.80099" lon="-0.33494">
        <ele>67</ele>
        <time>2012-12-02T14:51:59Z</time>
      </trkpt>
      <trkpt lat="44.80109" lon="-0.33484">
        <ele>67</ele>
        <time>2012-12-02T14:52:08Z</time>
      </trkpt>
      <trkpt lat="44.80114" lon="-0.33486">
        <ele>67</ele>
        <time>2012-12-02T14:52:11Z</time>
      </trkpt>
      <trkpt lat="44.80122" lon="-0.33498">
        <ele>66</ele>
        <time>2012-12-02T14:52:17Z</time>
      </trkpt>
      <trkpt lat="44.80143" lon="-0.33512">
        <ele>65</ele>
        <time>2012-12-02T14:52:24Z</time>
      </trkpt>
      <trkpt lat="44.8015" lon="-0.33519">
        <ele>65</ele>
        <time>2012-12-02T14:52:28Z</time>
      </trkpt>
      <trkpt lat="44.80153" lon="-0.33522">
        <ele>65</ele>
        <time>2012-12-02T14:52:30Z</time>
      </trkpt>
      <trkpt lat="44.80162" lon="-0.3353">
        <ele>65</ele>
        <time>2012-12-02T14:52:35Z</time>
      </trkpt>
      <trkpt lat="44.80189" lon="-0.33544">
        <ele>66</ele>
        <time>2012-12-02T14:52:46Z</time>
      </trkpt>
      <trkpt lat="44.802" lon="-0.33548">
        <ele>67</ele>
        <time>2012-12-02T14:52:52Z</time>
      </trkpt>
      <trkpt lat="44.80223" lon="-0.33555">
        <ele>69</ele>
        <time>2012-12-02T14:53:04Z</time>
      </trkpt>
      <trkpt lat="44.80241" lon="-0.33556">
        <ele>70</ele>
        <time>2012-12-02T14:53:15Z</time>
      </trkpt>
      <trkpt lat="44.80252" lon="-0.33555">
        <ele>72</ele>
        <time>2012-12-02T14:53:24Z</time>
      </trkpt>
      <trkpt lat="44.80264" lon="-0.33552">
        <ele>73</ele>
        <time>2012-12-02T14:53:34Z</time>
      </trkpt>
      <trkpt lat="44.80265" lon="-0.33553">
        <ele>73</ele>
        <time>2012-12-02T14:53:35Z</time>
      </trkpt>
      <trkpt lat="44.80272" lon="-0.33554">
        <ele>74</ele>
        <time>2012-12-02T14:53:41Z</time>
      </trkpt>
      <trkpt lat="44.80276" lon="-0.33569">
        <ele>74</ele>
        <time>2012-12-02T14:53:49Z</time>
      </trkpt>
      <trkpt lat="44.80282" lon="-0.33598">
        <ele>72</ele>
        <time>2012-12-02T14:53:58Z</time>
      </trkpt>
      <trkpt lat="44.80302" lon="-0.33629">
        <ele>72</ele>
        <time>2012-12-02T14:54:05Z</time>
      </trkpt>
      <trkpt lat="44.80311" lon="-0.33644">
        <ele>72</ele>
        <time>2012-12-02T14:54:08Z</time>
      </trkpt>
      <trkpt lat="44.80314" lon="-0.33649">
        <ele>72</ele>
        <time>2012-12-02T14:54:09Z</time>
      </trkpt>
      <trkpt lat="44.80318" lon="-0.33654">
        <ele>72</ele>
        <time>2012-12-02T14:54:10Z</time>
      </trkpt>
      <trkpt lat="44.80343" lon="-0.3371">
        <ele>70</ele>
        <time>2012-12-02T14:54:20Z</time>
      </trkpt>
      <trkpt lat="44.8035" lon="-0.33727">
        <ele>70</ele>
        <time>2012-12-02T14:54:23Z</time>
      </trkpt>
      <trkpt lat="44.80352" lon="-0.33733">
        <ele>70</ele>
        <time>2012-12-02T14:54:24Z</time>
      </trkpt>
      <trkpt lat="44.80352" lon="-0.33739">
        <ele>70</ele>
        <time>2012-12-02T14:54:25Z</time>
      </trkpt>
      <trkpt lat="44.80352" lon="-0.33746">
        <ele>70</ele>
        <time>2012-12-02T14:54:26Z</time>
      </trkpt>
      <trkpt lat="44.8035" lon="-0.33753">
        <ele>70</ele>
        <time>2012-12-02T14:54:27Z</time>
      </trkpt>
      <trkpt lat="44.80347" lon="-0.3376">
        <ele>69</ele>
        <time>2012-12-02T14:54:28Z</time>
      </trkpt>
      <trkpt lat="44.80342" lon="-0.33767">
        <ele>69</ele>
        <time>2012-12-02T14:54:29Z</time>
      </trkpt>
      <trkpt lat="44.80307" lon="-0.33836">
        <ele>63</ele>
        <time>2012-12-02T14:54:38Z</time>
      </trkpt>
      <trkpt lat="44.80295" lon="-0.33859">
        <ele>61</ele>
        <time>2012-12-02T14:54:44Z</time>
      </trkpt>
      <trkpt lat="44.80295" lon="-0.33863">
        <ele>61</ele>
        <time>2012-12-02T14:54:45Z</time>
      </trkpt>
      <trkpt lat="44.80297" lon="-0.33865">
        <ele>61</ele>
        <time>2012-12-02T14:54:46Z</time>
      </trkpt>
      <trkpt lat="44.80298" lon="-0.33867">
        <ele>60</ele>
        <time>2012-12-02T14:54:47Z</time>
      </trkpt>
      <trkpt lat="44.803" lon="-0.33868">
        <ele>60</ele>
        <time>2012-12-02T14:54:48Z</time>
      </trkpt>
      <trkpt lat="44.80313" lon="-0.33878">
        <ele>60</ele>
        <time>2012-12-02T14:54:57Z</time>
      </trkpt>
      <trkpt lat="44.80334" lon="-0.33893">
        <ele>58</ele>
        <time>2012-12-02T14:55:08Z</time>
      </trkpt>
      <trkpt lat="44.80363" lon="-0.33914">
        <ele>54</ele>
        <time>2012-12-02T14:55:16Z</time>
      </trkpt>
      <trkpt lat="44.80404" lon="-0.33945">
        <ele>51</ele>
        <time>2012-12-02T14:55:22Z</time>
      </trkpt>
      <trkpt lat="44.8041" lon="-0.33953">
        <ele>51</ele>
        <time>2012-12-02T14:55:23Z</time>
      </trkpt>
      <trkpt lat="44.80416" lon="-0.33961">
        <ele>51</ele>
        <time>2012-12-02T14:55:24Z</time>
      </trkpt>
      <trkpt lat="44.80421" lon="-0.33968">
        <ele>51</ele>
        <time>2012-12-02T14:55:25Z</time>
      </trkpt>
      <trkpt lat="44.80426" lon="-0.33975">
        <ele>51</ele>
        <time>2012-12-02T14:55:26Z</time>
      </trkpt>
      <trkpt lat="44.80451" lon="-0.34013">
        <ele>55</ele>
        <time>2012-12-02T14:55:34Z</time>
      </trkpt>
      <trkpt lat="44.80452" lon="-0.34016">
        <ele>55</ele>
        <time>2012-12-02T14:55:35Z</time>
      </trkpt>
      <trkpt lat="44.80454" lon="-0.34018">
        <ele>55</ele>
        <time>2012-12-02T14:55:36Z</time>
      </trkpt>
      <trkpt lat="44.80456" lon="-0.34021">
        <ele>56</ele>
        <time>2012-12-02T14:55:37Z</time>
      </trkpt>
      <trkpt lat="44.80458" lon="-0.34024">
        <ele>56</ele>
        <time>2012-12-02T14:55:38Z</time>
      </trkpt>
      <trkpt lat="44.8046" lon="-0.34027">
        <ele>56</ele>
        <time>2012-12-02T14:55:39Z</time>
      </trkpt>
      <trkpt lat="44.80474" lon="-0.34053">
        <ele>58</ele>
        <time>2012-12-02T14:55:47Z</time>
      </trkpt>
      <trkpt lat="44.80486" lon="-0.34085">
        <ele>56</ele>
        <time>2012-12-02T14:55:56Z</time>
      </trkpt>
      <trkpt lat="44.80505" lon="-0.34129">
        <ele>53</ele>
        <time>2012-12-02T14:56:03Z</time>
      </trkpt>
      <trkpt lat="44.8051" lon="-0.34139">
        <ele>52</ele>
        <time>2012-12-02T14:56:04Z</time>
      </trkpt>
      <trkpt lat="44.80534" lon="-0.34174">
        <ele>50</ele>
        <time>2012-12-02T14:56:08Z</time>
      </trkpt>
      <trkpt lat="44.80566" lon="-0.34233">
        <ele>50</ele>
        <time>2012-12-02T14:56:15Z</time>
      </trkpt>
      <trkpt lat="44.80588" lon="-0.34273">
        <ele>53</ele>
        <time>2012-12-02T14:56:23Z</time>
      </trkpt>
      <trkpt lat="44.80604" lon="-0.34299">
        <ele>55</ele>
        <time>2012-12-02T14:56:32Z</time>
      </trkpt>
      <trkpt lat="44.80608" lon="-0.34308">
        <ele>55</ele>
        <time>2012-12-02T14:56:36Z</time>
      </trkpt>
      <trkpt lat="44.80609" lon="-0.3431">
        <ele>55</ele>
        <time>2012-12-02T14:56:37Z</time>
      </trkpt>
      <trkpt lat="44.8061" lon="-0.34313">
        <ele>55</ele>
        <time>2012-12-02T14:56:38Z</time>
      </trkpt>
      <trkpt lat="44.80615" lon="-0.34325">
        <ele>56</ele>
        <time>2012-12-02T14:56:47Z</time>
      </trkpt>
      <trkpt lat="44.80615" lon="-0.34327">
        <ele>56</ele>
        <time>2012-12-02T14:56:53Z</time>
      </trkpt>
      <trkpt lat="44.80614" lon="-0.34329">
        <ele>55</ele>
        <time>2012-12-02T14:56:57Z</time>
      </trkpt>
      <trkpt lat="44.80612" lon="-0.3433">
        <ele>55</ele>
        <time>2012-12-02T14:56:58Z</time>
      </trkpt>
      <trkpt lat="44.80609" lon="-0.34332">
        <ele>54</ele>
        <time>2012-12-02T14:56:59Z</time>
      </trkpt>
      <trkpt lat="44.80607" lon="-0.34333">
        <ele>54</ele>
        <time>2012-12-02T14:57:00Z</time>
      </trkpt>
      <trkpt lat="44.80605" lon="-0.34335">
        <ele>53</ele>
        <time>2012-12-02T14:57:02Z</time>
      </trkpt>
      <trkpt lat="44.80603" lon="-0.34338">
        <ele>53</ele>
        <time>2012-12-02T14:57:10Z</time>
      </trkpt>
      <trkpt lat="44.80602" lon="-0.34338">
        <ele>53</ele>
        <time>2012-12-02T14:57:25Z</time>
      </trkpt>
      <trkpt lat="44.80601" lon="-0.34344">
        <ele>52</ele>
        <time>2012-12-02T14:57:30Z</time>
      </trkpt>
      <trkpt lat="44.80601" lon="-0.34345">
        <ele>52</ele>
        <time>2012-12-02T14:57:31Z</time>
      </trkpt>
      <trkpt lat="44.806" lon="-0.34351">
        <ele>52</ele>
        <time>2012-12-02T14:57:35Z</time>
      </trkpt>
      <trkpt lat="44.80599" lon="-0.34354">
        <ele>51</ele>
        <time>2012-12-02T14:57:38Z</time>
      </trkpt>
      <trkpt lat="44.80598" lon="-0.34356">
        <ele>51</ele>
        <time>2012-12-02T14:57:39Z</time>
      </trkpt>
      <trkpt lat="44.80586" lon="-0.34384">
        <ele>48</ele>
        <time>2012-12-02T14:57:49Z</time>
      </trkpt>
      <trkpt lat="44.80576" lon="-0.34406">
        <ele>45</ele>
        <time>2012-12-02T14:57:58Z</time>
      </trkpt>
      <trkpt lat="44.80561" lon="-0.34429">
        <ele>43</ele>
        <time>2012-12-02T14:58:06Z</time>
      </trkpt>
      <trkpt lat="44.80542" lon="-0.34457">
        <ele>42</ele>
        <time>2012-12-02T14:58:15Z</time>
      </trkpt>
      <trkpt lat="44.8052" lon="-0.345">
        <ele>41</ele>
        <time>2012-12-02T14:58:26Z</time>
      </trkpt>
      <trkpt lat="44.80517" lon="-0.3451">
        <ele>42</ele>
        <time>2012-12-02T14:58:34Z</time>
      </trkpt>
      <trkpt lat="44.80516" lon="-0.34512">
        <ele>42</ele>
        <time>2012-12-02T14:58:37Z</time>
      </trkpt>
      <trkpt lat="44.80512" lon="-0.34519">
        <ele>42</ele>
        <time>2012-12-02T14:58:47Z</time>
      </trkpt>
      <trkpt lat="44.80511" lon="-0.3452">
        <ele>42</ele>
        <time>2012-12-02T14:58:49Z</time>
      </trkpt>
      <trkpt lat="44.80504" lon="-0.34523">
        <ele>42</ele>
        <time>2012-12-02T14:58:53Z</time>
      </trkpt>
      <trkpt lat="44.80503" lon="-0.34526">
        <ele>42</ele>
        <time>2012-12-02T14:58:55Z</time>
      </trkpt>
      <trkpt lat="44.80489" lon="-0.34538">
        <ele>43</ele>
        <time>2012-12-02T14:59:03Z</time>
      </trkpt>
      <trkpt lat="44.80463" lon="-0.34558">
        <ele>44</ele>
        <time>2012-12-02T14:59:12Z</time>
      </trkpt>
      <trkpt lat="44.80446" lon="-0.34573">
        <ele>45</ele>
        <time>2012-12-02T14:59:20Z</time>
      </trkpt>
      <trkpt lat="44.8044" lon="-0.34578">
        <ele>45</ele>
        <time>2012-12-02T14:59:23Z</time>
      </trkpt>
      <trkpt lat="44.80436" lon="-0.34586">
        <ele>45</ele>
        <time>2012-12-02T14:59:29Z</time>
      </trkpt>
      <trkpt lat="44.80436" lon="-0.34593">
        <ele>45</ele>
        <time>2012-12-02T14:59:32Z</time>
      </trkpt>
      <trkpt lat="44.8044" lon="-0.34606">
        <ele>45</ele>
        <time>2012-12-02T14:59:36Z</time>
      </trkpt>
      <trkpt lat="44.80461" lon="-0.34656">
        <ele>45</ele>
        <time>2012-12-02T14:59:49Z</time>
      </trkpt>
      <trkpt lat="44.80475" lon="-0.34692">
        <ele>45</ele>
        <time>2012-12-02T14:59:58Z</time>
      </trkpt>
      <trkpt lat="44.80489" lon="-0.34729">
        <ele>44</ele>
        <time>2012-12-02T15:00:07Z</time>
      </trkpt>
      <trkpt lat="44.80497" lon="-0.34743">
        <ele>44</ele>
        <time>2012-12-02T15:00:11Z</time>
      </trkpt>
      <trkpt lat="44.80487" lon="-0.34766">
        <ele>45</ele>
        <time>2012-12-02T15:00:18Z</time>
      </trkpt>
      <trkpt lat="44.80485" lon="-0.34768">
        <ele>45</ele>
        <time>2012-12-02T15:00:19Z</time>
      </trkpt>
      <trkpt lat="44.80474" lon="-0.34789">
        <ele>45</ele>
        <time>2012-12-02T15:00:28Z</time>
      </trkpt>
      <trkpt lat="44.80459" lon="-0.34803">
        <ele>46</ele>
        <time>2012-12-02T15:00:37Z</time>
      </trkpt>
      <trkpt lat="44.80459" lon="-0.34804">
        <ele>46</ele>
        <time>2012-12-02T15:00:38Z</time>
      </trkpt>
      <trkpt lat="44.80457" lon="-0.34806">
        <ele>46</ele>
        <time>2012-12-02T15:00:40Z</time>
      </trkpt>
      <trkpt lat="44.80446" lon="-0.34815">
        <ele>47</ele>
        <time>2012-12-02T15:00:48Z</time>
      </trkpt>
      <trkpt lat="44.8044" lon="-0.34826">
        <ele>47</ele>
        <time>2012-12-02T15:00:53Z</time>
      </trkpt>
      <trkpt lat="44.80439" lon="-0.34836">
        <ele>47</ele>
        <time>2012-12-02T15:00:57Z</time>
      </trkpt>
      <trkpt lat="44.80438" lon="-0.34847">
        <ele>48</ele>
        <time>2012-12-02T15:01:03Z</time>
      </trkpt>
      <trkpt lat="44.80432" lon="-0.34872">
        <ele>48</ele>
        <time>2012-12-02T15:01:14Z</time>
      </trkpt>
      <trkpt lat="44.80425" lon="-0.34897">
        <ele>50</ele>
        <time>2012-12-02T15:01:23Z</time>
      </trkpt>
      <trkpt lat="44.80419" lon="-0.34913">
        <ele>50</ele>
        <time>2012-12-02T15:01:28Z</time>
      </trkpt>
      <trkpt lat="44.80418" lon="-0.3492">
        <ele>51</ele>
        <time>2012-12-02T15:01:31Z</time>
      </trkpt>
      <trkpt lat="44.80417" lon="-0.34925">
        <ele>51</ele>
        <time>2012-12-02T15:01:33Z</time>
      </trkpt>
      <trkpt lat="44.80414" lon="-0.3494">
        <ele>52</ele>
        <time>2012-12-02T15:01:38Z</time>
      </trkpt>
      <trkpt lat="44.80411" lon="-0.3495">
        <ele>52</ele>
        <time>2012-12-02T15:01:42Z</time>
      </trkpt>
      <trkpt lat="44.80404" lon="-0.34968">
        <ele>54</ele>
        <time>2012-12-02T15:01:50Z</time>
      </trkpt>
      <trkpt lat="44.804" lon="-0.34973">
        <ele>54</ele>
        <time>2012-12-02T15:01:53Z</time>
      </trkpt>
      <trkpt lat="44.80395" lon="-0.34992">
        <ele>55</ele>
        <time>2012-12-02T15:02:02Z</time>
      </trkpt>
      <trkpt lat="44.80393" lon="-0.34995">
        <ele>55</ele>
        <time>2012-12-02T15:02:11Z</time>
      </trkpt>
      <trkpt lat="44.80392" lon="-0.34998">
        <ele>56</ele>
        <time>2012-12-02T15:02:20Z</time>
      </trkpt>
      <trkpt lat="44.80391" lon="-0.35">
        <ele>56</ele>
        <time>2012-12-02T15:02:24Z</time>
      </trkpt>
      <trkpt lat="44.80386" lon="-0.3501">
        <ele>56</ele>
        <time>2012-12-02T15:02:34Z</time>
      </trkpt>
      <trkpt lat="44.80382" lon="-0.35016">
        <ele>57</ele>
        <time>2012-12-02T15:02:42Z</time>
      </trkpt>
      <trkpt lat="44.80379" lon="-0.35023">
        <ele>57</ele>
        <time>2012-12-02T15:02:51Z</time>
      </trkpt>
      <trkpt lat="44.80378" lon="-0.35025">
        <ele>57</ele>
        <time>2012-12-02T15:03:00Z</time>
      </trkpt>
      <trkpt lat="44.80376" lon="-0.35027">
        <ele>57</ele>
        <time>2012-12-02T15:03:10Z</time>
      </trkpt>
      <trkpt lat="44.80376" lon="-0.35028">
        <ele>57</ele>
        <time>2012-12-02T15:03:20Z</time>
      </trkpt>
      <trkpt lat="44.80371" lon="-0.3503">
        <ele>57</ele>
        <time>2012-12-02T15:03:30Z</time>
      </trkpt>
      <trkpt lat="44.80369" lon="-0.35031">
        <ele>57</ele>
        <time>2012-12-02T15:03:41Z</time>
      </trkpt>
      <trkpt lat="44.80368" lon="-0.35032">
        <ele>57</ele>
        <time>2012-12-02T15:03:53Z</time>
      </trkpt>
      <trkpt lat="44.80368" lon="-0.35032">
        <ele>57</ele>
        <time>2012-12-02T15:04:07Z</time>
      </trkpt>
      <trkpt lat="44.80367" lon="-0.35032">
        <ele>57</ele>
        <time>2012-12-02T15:04:23Z</time>
      </trkpt>
      <trkpt lat="44.80368" lon="-0.35031">
        <ele>57</ele>
        <time>2012-12-02T15:04:46Z</time>
      </trkpt>
      <trkpt lat="44.80368" lon="-0.3503">
        <ele>57</ele>
        <time>2012-12-02T15:05:05Z</time>
      </trkpt>
      <trkpt lat="44.80368" lon="-0.35031">
        <ele>57</ele>
        <time>2012-12-02T15:05:18Z</time>
      </trkpt>
      <trkpt lat="44.80368" lon="-0.35033">
        <ele>57</ele>
        <time>2012-12-02T15:05:37Z</time>
      </trkpt>
      <trkpt lat="44.80369" lon="-0.35032">
        <ele>57</ele>
        <time>2012-12-02T15:05:54Z</time>
      </trkpt>
      <trkpt lat="44.80369" lon="-0.35033">
        <ele>57</ele>
        <time>2012-12-02T15:06:17Z</time>
      </trkpt>
      <trkpt lat="44.80368" lon="-0.35032">
        <ele>57</ele>
        <time>2012-12-02T15:06:33Z</time>
      </trkpt>
      <trkpt lat="44.80368" lon="-0.35033">
        <ele>57</ele>
        <time>2012-12-02T15:06:47Z</time>
      </trkpt>
      <trkpt lat="44.80368" lon="-0.35033">
        <ele>57</ele>
        <time>2012-12-02T15:07:06Z</time>
      </trkpt>
      <trkpt lat="44.80368" lon="-0.35033">
        <ele>57</ele>
        <time>2012-12-02T15:07:23Z</time>
      </trkpt>
      <trkpt lat="44.80367" lon="-0.35033">
        <ele>57</ele>
        <time>2012-12-02T15:07:42Z</time>
      </trkpt>
      <trkpt lat="44.80368" lon="-0.35032">
        <ele>57</ele>
        <time>2012-12-02T15:07:59Z</time>
      </trkpt>
      <trkpt lat="44.80367" lon="-0.35033">
        <ele>57</ele>
        <time>2012-12-02T15:08:13Z</time>
      </trkpt>
      <trkpt lat="44.80367" lon="-0.35033">
        <ele>57</ele>
        <time>2012-12-02T15:08:33Z</time>
      </trkpt>
      <trkpt lat="44.80367" lon="-0.35033">
        <ele>57</ele>
        <time>2012-12-02T15:08:55Z</time>
      </trkpt>
      <trkpt lat="44.80367" lon="-0.35035">
        <ele>57</ele>
        <time>2012-12-02T15:09:22Z</time>
      </trkpt>
      <trkpt lat="44.80366" lon="-0.35035">
        <ele>57</ele>
        <time>2012-12-02T15:09:39Z</time>
      </trkpt>
      <trkpt lat="44.80364" lon="-0.35037">
        <ele>57</ele>
        <time>2012-12-02T15:09:41Z</time>
      </trkpt>
      <trkpt lat="44.80356" lon="-0.3506">
        <ele>58</ele>
        <time>2012-12-02T15:09:53Z</time>
      </trkpt>
      <trkpt lat="44.80351" lon="-0.35073">
        <ele>59</ele>
        <time>2012-12-02T15:10:00Z</time>
      </trkpt>
      <trkpt lat="44.80348" lon="-0.35081">
        <ele>59</ele>
        <time>2012-12-02T15:10:04Z</time>
      </trkpt>
      <trkpt lat="44.80337" lon="-0.35106">
        <ele>61</ele>
        <time>2012-12-02T15:10:17Z</time>
      </trkpt>
      <trkpt lat="44.80332" lon="-0.35118">
        <ele>62</ele>
        <time>2012-12-02T15:10:23Z</time>
      </trkpt>
      <trkpt lat="44.80322" lon="-0.35135">
        <ele>63</ele>
        <time>2012-12-02T15:10:32Z</time>
      </trkpt>
      <trkpt lat="44.80316" lon="-0.3515">
        <ele>64</ele>
        <time>2012-12-02T15:10:40Z</time>
      </trkpt>
      <trkpt lat="44.80316" lon="-0.35153">
        <ele>64</ele>
        <time>2012-12-02T15:10:42Z</time>
      </trkpt>
      <trkpt lat="44.80307" lon="-0.35168">
        <ele>65</ele>
        <time>2012-12-02T15:10:53Z</time>
      </trkpt>
      <trkpt lat="44.80301" lon="-0.35177">
        <ele>66</ele>
        <time>2012-12-02T15:11:03Z</time>
      </trkpt>
      <trkpt lat="44.80301" lon="-0.35179">
        <ele>66</ele>
        <time>2012-12-02T15:11:14Z</time>
      </trkpt>
      <trkpt lat="44.80301" lon="-0.35181">
        <ele>66</ele>
        <time>2012-12-02T15:11:27Z</time>
      </trkpt>
      <trkpt lat="44.80301" lon="-0.35182">
        <ele>66</ele>
        <time>2012-12-02T15:11:40Z</time>
      </trkpt>
      <trkpt lat="44.80302" lon="-0.35185">
        <ele>67</ele>
        <time>2012-12-02T15:11:51Z</time>
      </trkpt>
      <trkpt lat="44.80303" lon="-0.35187">
        <ele>67</ele>
        <time>2012-12-02T15:12:03Z</time>
      </trkpt>
      <trkpt lat="44.80302" lon="-0.3519">
        <ele>67</ele>
        <time>2012-12-02T15:12:14Z</time>
      </trkpt>
      <trkpt lat="44.80299" lon="-0.35194">
        <ele>67</ele>
        <time>2012-12-02T15:12:24Z</time>
      </trkpt>
      <trkpt lat="44.80298" lon="-0.35193">
        <ele>67</ele>
        <time>2012-12-02T15:12:38Z</time>
      </trkpt>
      <trkpt lat="44.80298" lon="-0.35199">
        <ele>68</ele>
        <time>2012-12-02T15:12:47Z</time>
      </trkpt>
      <trkpt lat="44.80298" lon="-0.3522">
        <ele>70</ele>
        <time>2012-12-02T15:12:56Z</time>
      </trkpt>
      <trkpt lat="44.80295" lon="-0.3524">
        <ele>71</ele>
        <time>2012-12-02T15:13:04Z</time>
      </trkpt>
      <trkpt lat="44.80294" lon="-0.35258">
        <ele>73</ele>
        <time>2012-12-02T15:13:12Z</time>
      </trkpt>
      <trkpt lat="44.80294" lon="-0.35259">
        <ele>73</ele>
        <time>2012-12-02T15:13:13Z</time>
      </trkpt>
      <trkpt lat="44.80294" lon="-0.35265">
        <ele>73</ele>
        <time>2012-12-02T15:13:16Z</time>
      </trkpt>
      <trkpt lat="44.80294" lon="-0.35277">
        <ele>74</ele>
        <time>2012-12-02T15:13:21Z</time>
      </trkpt>
      <trkpt lat="44.80292" lon="-0.35295">
        <ele>76</ele>
        <time>2012-12-02T15:13:31Z</time>
      </trkpt>
      <trkpt lat="44.80291" lon="-0.35305">
        <ele>77</ele>
        <time>2012-12-02T15:13:40Z</time>
      </trkpt>
      <trkpt lat="44.80286" lon="-0.35319">
        <ele>78</ele>
        <time>2012-12-02T15:13:49Z</time>
      </trkpt>
      <trkpt lat="44.80283" lon="-0.35331">
        <ele>80</ele>
        <time>2012-12-02T15:13:57Z</time>
      </trkpt>
      <trkpt lat="44.8028" lon="-0.35349">
        <ele>82</ele>
        <time>2012-12-02T15:14:06Z</time>
      </trkpt>
      <trkpt lat="44.80278" lon="-0.35361">
        <ele>83</ele>
        <time>2012-12-02T15:14:15Z</time>
      </trkpt>
      <trkpt lat="44.80278" lon="-0.35378">
        <ele>84</ele>
        <time>2012-12-02T15:14:25Z</time>
      </trkpt>
      <trkpt lat="44.80278" lon="-0.35386">
        <ele>84</ele>
        <time>2012-12-02T15:14:31Z</time>
      </trkpt>
      <trkpt lat="44.80266" lon="-0.35395">
        <ele>85</ele>
        <time>2012-12-02T15:14:43Z</time>
      </trkpt>
      <trkpt lat="44.80262" lon="-0.35399">
        <ele>86</ele>
        <time>2012-12-02T15:14:47Z</time>
      </trkpt>
      <trkpt lat="44.80248" lon="-0.35411">
        <ele>88</ele>
        <time>2012-12-02T15:14:59Z</time>
      </trkpt>
      <trkpt lat="44.80239" lon="-0.35424">
        <ele>90</ele>
        <time>2012-12-02T15:15:08Z</time>
      </trkpt>
      <trkpt lat="44.80231" lon="-0.35437">
        <ele>90</ele>
        <time>2012-12-02T15:15:14Z</time>
      </trkpt>
      <trkpt lat="44.80217" lon="-0.35463">
        <ele>90</ele>
        <time>2012-12-02T15:15:23Z</time>
      </trkpt>
      <trkpt lat="44.80201" lon="-0.3549">
        <ele>91</ele>
        <time>2012-12-02T15:15:33Z</time>
      </trkpt>
      <trkpt lat="44.80183" lon="-0.35512">
        <ele>91</ele>
        <time>2012-12-02T15:15:42Z</time>
      </trkpt>
      <trkpt lat="44.80177" lon="-0.35523">
        <ele>91</ele>
        <time>2012-12-02T15:15:46Z</time>
      </trkpt>
      <trkpt lat="44.80168" lon="-0.3554">
        <ele>90</ele>
        <time>2012-12-02T15:15:56Z</time>
      </trkpt>
      <trkpt lat="44.80164" lon="-0.35548">
        <ele>90</ele>
        <time>2012-12-02T15:16:03Z</time>
      </trkpt>
      <trkpt lat="44.80161" lon="-0.35553">
        <ele>90</ele>
        <time>2012-12-02T15:16:06Z</time>
      </trkpt>
      <trkpt lat="44.80144" lon="-0.35569">
        <ele>91</ele>
        <time>2012-12-02T15:16:14Z</time>
      </trkpt>
      <trkpt lat="44.80116" lon="-0.35591">
        <ele>92</ele>
        <time>2012-12-02T15:16:23Z</time>
      </trkpt>
      <trkpt lat="44.80087" lon="-0.35623">
        <ele>93</ele>
        <time>2012-12-02T15:16:33Z</time>
      </trkpt>
      <trkpt lat="44.80058" lon="-0.35655">
        <ele>94</ele>
        <time>2012-12-02T15:16:43Z</time>
      </trkpt>
      <trkpt lat="44.80029" lon="-0.35687">
        <ele>95</ele>
        <time>2012-12-02T15:16:53Z</time>
      </trkpt>
      <trkpt lat="44.80002" lon="-0.35716">
        <ele>97</ele>
        <time>2012-12-02T15:17:03Z</time>
      </trkpt>
      <trkpt lat="44.79978" lon="-0.35747">
        <ele>97</ele>
        <time>2012-12-02T15:17:12Z</time>
      </trkpt>
      <trkpt lat="44.79954" lon="-0.35775">
        <ele>97</ele>
        <time>2012-12-02T15:17:21Z</time>
      </trkpt>
      <trkpt lat="44.79923" lon="-0.35799">
        <ele>97</ele>
        <time>2012-12-02T15:17:31Z</time>
      </trkpt>
      <trkpt lat="44.79914" lon="-0.35816">
        <ele>97</ele>
        <time>2012-12-02T15:17:36Z</time>
      </trkpt>
      <trkpt lat="44.79914" lon="-0.35821">
        <ele>97</ele>
        <time>2012-12-02T15:17:37Z</time>
      </trkpt>
      <trkpt lat="44.79915" lon="-0.35825">
        <ele>97</ele>
        <time>2012-12-02T15:17:38Z</time>
      </trkpt>
      <trkpt lat="44.79916" lon="-0.3583">
        <ele>97</ele>
        <time>2012-12-02T15:17:39Z</time>
      </trkpt>
      <trkpt lat="44.79918" lon="-0.35834">
        <ele>97</ele>
        <time>2012-12-02T15:17:40Z</time>
      </trkpt>
      <trkpt lat="44.7992" lon="-0.35838">
        <ele>97</ele>
        <time>2012-12-02T15:17:41Z</time>
      </trkpt>
      <trkpt lat="44.79941" lon="-0.35884">
        <ele>97</ele>
        <time>2012-12-02T15:17:52Z</time>
      </trkpt>
      <trkpt lat="44.79945" lon="-0.35917">
        <ele>96</ele>
        <time>2012-12-02T15:18:01Z</time>
      </trkpt>
      <trkpt lat="44.79944" lon="-0.35919">
        <ele>96</ele>
        <time>2012-12-02T15:18:02Z</time>
      </trkpt>
      <trkpt lat="44.79943" lon="-0.35921">
        <ele>96</ele>
        <time>2012-12-02T15:18:03Z</time>
      </trkpt>
      <trkpt lat="44.79941" lon="-0.35921">
        <ele>96</ele>
        <time>2012-12-02T15:18:04Z</time>
      </trkpt>
      <trkpt lat="44.79939" lon="-0.35922">
        <ele>96</ele>
        <time>2012-12-02T15:18:05Z</time>
      </trkpt>
      <trkpt lat="44.79938" lon="-0.35923">
        <ele>96</ele>
        <time>2012-12-02T15:18:06Z</time>
      </trkpt>
      <trkpt lat="44.79913" lon="-0.35934">
        <ele>97</ele>
        <time>2012-12-02T15:18:17Z</time>
      </trkpt>
      <trkpt lat="44.79879" lon="-0.35946">
        <ele>97</ele>
        <time>2012-12-02T15:18:28Z</time>
      </trkpt>
      <trkpt lat="44.79859" lon="-0.35953">
        <ele>97</ele>
        <time>2012-12-02T15:18:33Z</time>
      </trkpt>
      <trkpt lat="44.79855" lon="-0.35954">
        <ele>97</ele>
        <time>2012-12-02T15:18:34Z</time>
      </trkpt>
      <trkpt lat="44.79794" lon="-0.35967">
        <ele>97</ele>
        <time>2012-12-02T15:18:48Z</time>
      </trkpt>
      <trkpt lat="44.79725" lon="-0.35982">
        <ele>98</ele>
        <time>2012-12-02T15:19:03Z</time>
      </trkpt>
      <trkpt lat="44.79675" lon="-0.36005">
        <ele>99</ele>
        <time>2012-12-02T15:19:14Z</time>
      </trkpt>
      <trkpt lat="44.7967" lon="-0.36008">
        <ele>99</ele>
        <time>2012-12-02T15:19:15Z</time>
      </trkpt>
      <trkpt lat="44.7962" lon="-0.36028">
        <ele>100</ele>
        <time>2012-12-02T15:19:26Z</time>
      </trkpt>
      <trkpt lat="44.79607" lon="-0.36032">
        <ele>100</ele>
        <time>2012-12-02T15:19:29Z</time>
      </trkpt>
      <trkpt lat="44.79551" lon="-0.36041">
        <ele>99</ele>
        <time>2012-12-02T15:19:41Z</time>
      </trkpt>
      <trkpt lat="44.79492" lon="-0.36041">
        <ele>100</ele>
        <time>2012-12-02T15:19:52Z</time>
      </trkpt>
      <trkpt lat="44.79472" lon="-0.36044">
        <ele>101</ele>
        <time>2012-12-02T15:19:56Z</time>
      </trkpt>
      <trkpt lat="44.79463" lon="-0.36044">
        <ele>101</ele>
        <time>2012-12-02T15:19:58Z</time>
      </trkpt>
      <trkpt lat="44.79417" lon="-0.36036">
        <ele>102</ele>
        <time>2012-12-02T15:20:10Z</time>
      </trkpt>
      <trkpt lat="44.79394" lon="-0.36025">
        <ele>104</ele>
        <time>2012-12-02T15:20:18Z</time>
      </trkpt>
      <trkpt lat="44.79391" lon="-0.36022">
        <ele>104</ele>
        <time>2012-12-02T15:20:20Z</time>
      </trkpt>
      <trkpt lat="44.7939" lon="-0.36018">
        <ele>104</ele>
        <time>2012-12-02T15:20:21Z</time>
      </trkpt>
      <trkpt lat="44.79391" lon="-0.36014">
        <ele>104</ele>
        <time>2012-12-02T15:20:22Z</time>
      </trkpt>
      <trkpt lat="44.79392" lon="-0.36009">
        <ele>104</ele>
        <time>2012-12-02T15:20:23Z</time>
      </trkpt>
      <trkpt lat="44.79393" lon="-0.36004">
        <ele>104</ele>
        <time>2012-12-02T15:20:24Z</time>
      </trkpt>
      <trkpt lat="44.79401" lon="-0.35967">
        <ele>103</ele>
        <time>2012-12-02T15:20:32Z</time>
      </trkpt>
      <trkpt lat="44.79411" lon="-0.35897">
        <ele>102</ele>
        <time>2012-12-02T15:20:42Z</time>
      </trkpt>
      <trkpt lat="44.79432" lon="-0.3579">
        <ele>99</ele>
        <time>2012-12-02T15:20:55Z</time>
      </trkpt>
      <trkpt lat="44.79453" lon="-0.35704">
        <ele>96</ele>
        <time>2012-12-02T15:21:05Z</time>
      </trkpt>
      <trkpt lat="44.79473" lon="-0.35601">
        <ele>98</ele>
        <time>2012-12-02T15:21:17Z</time>
      </trkpt>
      <trkpt lat="44.79478" lon="-0.35507">
        <ele>99</ele>
        <time>2012-12-02T15:21:28Z</time>
      </trkpt>
      <trkpt lat="44.7948" lon="-0.3546">
        <ele>100</ele>
        <time>2012-12-02T15:21:35Z</time>
      </trkpt>
      <trkpt lat="44.79479" lon="-0.35454">
        <ele>100</ele>
        <time>2012-12-02T15:21:36Z</time>
      </trkpt>
      <trkpt lat="44.79476" lon="-0.3545">
        <ele>100</ele>
        <time>2012-12-02T15:21:37Z</time>
      </trkpt>
      <trkpt lat="44.79472" lon="-0.35449">
        <ele>100</ele>
        <time>2012-12-02T15:21:38Z</time>
      </trkpt>
      <trkpt lat="44.79469" lon="-0.3545">
        <ele>100</ele>
        <time>2012-12-02T15:21:39Z</time>
      </trkpt>
      <trkpt lat="44.79465" lon="-0.35452">
        <ele>100</ele>
        <time>2012-12-02T15:21:40Z</time>
      </trkpt>
      <trkpt lat="44.79462" lon="-0.35453">
        <ele>100</ele>
        <time>2012-12-02T15:21:41Z</time>
      </trkpt>
      <trkpt lat="44.79425" lon="-0.35468">
        <ele>101</ele>
        <time>2012-12-02T15:21:51Z</time>
      </trkpt>
      <trkpt lat="44.79369" lon="-0.35488">
        <ele>101</ele>
        <time>2012-12-02T15:22:04Z</time>
      </trkpt>
      <trkpt lat="44.79309" lon="-0.35511">
        <ele>101</ele>
        <time>2012-12-02T15:22:17Z</time>
      </trkpt>
      <trkpt lat="44.79282" lon="-0.35522">
        <ele>101</ele>
        <time>2012-12-02T15:22:23Z</time>
      </trkpt>
      <trkpt lat="44.79278" lon="-0.35523">
        <ele>101</ele>
        <time>2012-12-02T15:22:24Z</time>
      </trkpt>
      <trkpt lat="44.79274" lon="-0.35525">
        <ele>101</ele>
        <time>2012-12-02T15:22:25Z</time>
      </trkpt>
      <trkpt lat="44.79269" lon="-0.35527">
        <ele>101</ele>
        <time>2012-12-02T15:22:26Z</time>
      </trkpt>
      <trkpt lat="44.79265" lon="-0.35528">
        <ele>101</ele>
        <time>2012-12-02T15:22:27Z</time>
      </trkpt>
      <trkpt lat="44.79224" lon="-0.35541">
        <ele>102</ele>
        <time>2012-12-02T15:22:37Z</time>
      </trkpt>
      <trkpt lat="44.79183" lon="-0.3555">
        <ele>102</ele>
        <time>2012-12-02T15:22:47Z</time>
      </trkpt>
      <trkpt lat="44.79116" lon="-0.35557">
        <ele>101</ele>
        <time>2012-12-02T15:23:01Z</time>
      </trkpt>
      <trkpt lat="44.79063" lon="-0.35562">
        <ele>99</ele>
        <time>2012-12-02T15:23:12Z</time>
      </trkpt>
      <trkpt lat="44.79054" lon="-0.35565">
        <ele>99</ele>
        <time>2012-12-02T15:23:15Z</time>
      </trkpt>
      <trkpt lat="44.79052" lon="-0.35564">
        <ele>99</ele>
        <time>2012-12-02T15:23:16Z</time>
      </trkpt>
      <trkpt lat="44.79051" lon="-0.35562">
        <ele>99</ele>
        <time>2012-12-02T15:23:17Z</time>
      </trkpt>
      <trkpt lat="44.7905" lon="-0.35559">
        <ele>99</ele>
        <time>2012-12-02T15:23:18Z</time>
      </trkpt>
      <trkpt lat="44.79048" lon="-0.35557">
        <ele>98</ele>
        <time>2012-12-02T15:23:19Z</time>
      </trkpt>
      <trkpt lat="44.79047" lon="-0.35555">
        <ele>98</ele>
        <time>2012-12-02T15:23:20Z</time>
      </trkpt>
      <trkpt lat="44.79045" lon="-0.35553">
        <ele>98</ele>
        <time>2012-12-02T15:23:21Z</time>
      </trkpt>
      <trkpt lat="44.7902" lon="-0.35522">
        <ele>97</ele>
        <time>2012-12-02T15:23:33Z</time>
      </trkpt>
      <trkpt lat="44.78998" lon="-0.35493">
        <ele>96</ele>
        <time>2012-12-02T15:23:43Z</time>
      </trkpt>
      <trkpt lat="44.78983" lon="-0.35465">
        <ele>96</ele>
        <time>2012-12-02T15:23:51Z</time>
      </trkpt>
      <trkpt lat="44.7896" lon="-0.35429">
        <ele>96</ele>
        <time>2012-12-02T15:24:01Z</time>
      </trkpt>
      <trkpt lat="44.78936" lon="-0.35395">
        <ele>96</ele>
        <time>2012-12-02T15:24:12Z</time>
      </trkpt>
      <trkpt lat="44.78933" lon="-0.35392">
        <ele>96</ele>
        <time>2012-12-02T15:24:15Z</time>
      </trkpt>
      <trkpt lat="44.78929" lon="-0.354">
        <ele>96</ele>
        <time>2012-12-02T15:24:24Z</time>
      </trkpt>
      <trkpt lat="44.78928" lon="-0.35401">
        <ele>96</ele>
        <time>2012-12-02T15:24:41Z</time>
      </trkpt>
      <trkpt lat="44.78928" lon="-0.35401">
        <ele>96</ele>
        <time>2012-12-02T15:24:42Z</time>
      </trkpt>
      <trkpt lat="44.78918" lon="-0.35423">
        <ele>95</ele>
        <time>2012-12-02T15:24:52Z</time>
      </trkpt>
      <trkpt lat="44.78915" lon="-0.35427">
        <ele>94</ele>
        <time>2012-12-02T15:24:56Z</time>
      </trkpt>
      <trkpt lat="44.78904" lon="-0.35426">
        <ele>94</ele>
        <time>2012-12-02T15:25:03Z</time>
      </trkpt>
      <trkpt lat="44.78879" lon="-0.35409">
        <ele>94</ele>
        <time>2012-12-02T15:25:15Z</time>
      </trkpt>
      <trkpt lat="44.78852" lon="-0.3538">
        <ele>91</ele>
        <time>2012-12-02T15:25:26Z</time>
      </trkpt>
      <trkpt lat="44.78829" lon="-0.35325">
        <ele>89</ele>
        <time>2012-12-02T15:25:37Z</time>
      </trkpt>
      <trkpt lat="44.78814" lon="-0.353">
        <ele>88</ele>
        <time>2012-12-02T15:25:43Z</time>
      </trkpt>
      <trkpt lat="44.78778" lon="-0.35261">
        <ele>84</ele>
        <time>2012-12-02T15:25:53Z</time>
      </trkpt>
      <trkpt lat="44.7874" lon="-0.3522">
        <ele>79</ele>
        <time>2012-12-02T15:26:05Z</time>
      </trkpt>
      <trkpt lat="44.78715" lon="-0.35192">
        <ele>74</ele>
        <time>2012-12-02T15:26:14Z</time>
      </trkpt>
      <trkpt lat="44.78696" lon="-0.3516">
        <ele>71</ele>
        <time>2012-12-02T15:26:24Z</time>
      </trkpt>
      <trkpt lat="44.78683" lon="-0.35148">
        <ele>70</ele>
        <time>2012-12-02T15:26:32Z</time>
      </trkpt>
      <trkpt lat="44.78682" lon="-0.35149">
        <ele>70</ele>
        <time>2012-12-02T15:26:33Z</time>
      </trkpt>
      <trkpt lat="44.78679" lon="-0.35151">
        <ele>70</ele>
        <time>2012-12-02T15:26:35Z</time>
      </trkpt>
      <trkpt lat="44.78678" lon="-0.35151">
        <ele>70</ele>
        <time>2012-12-02T15:26:36Z</time>
      </trkpt>
      <trkpt lat="44.78677" lon="-0.3515">
        <ele>70</ele>
        <time>2012-12-02T15:26:37Z</time>
      </trkpt>
      <trkpt lat="44.78675" lon="-0.35149">
        <ele>70</ele>
        <time>2012-12-02T15:26:38Z</time>
      </trkpt>
      <trkpt lat="44.78674" lon="-0.35147">
        <ele>70</ele>
        <time>2012-12-02T15:26:39Z</time>
      </trkpt>
      <trkpt lat="44.78669" lon="-0.35143">
        <ele>69</ele>
        <time>2012-12-02T15:26:47Z</time>
      </trkpt>
      <trkpt lat="44.78665" lon="-0.3514">
        <ele>69</ele>
        <time>2012-12-02T15:26:55Z</time>
      </trkpt>
      <trkpt lat="44.78663" lon="-0.35144">
        <ele>69</ele>
        <time>2012-12-02T15:27:05Z</time>
      </trkpt>
      <trkpt lat="44.78663" lon="-0.35146">
        <ele>69</ele>
        <time>2012-12-02T15:27:22Z</time>
      </trkpt>
      <trkpt lat="44.78661" lon="-0.35146">
        <ele>69</ele>
        <time>2012-12-02T15:27:51Z</time>
      </trkpt>
      <trkpt lat="44.78662" lon="-0.35145">
        <ele>69</ele>
        <time>2012-12-02T15:28:18Z</time>
      </trkpt>
      <trkpt lat="44.78662" lon="-0.35144">
        <ele>69</ele>
        <time>2012-12-02T15:28:46Z</time>
      </trkpt>
      <trkpt lat="44.78662" lon="-0.35143">
        <ele>69</ele>
        <time>2012-12-02T15:29:14Z</time>
      </trkpt>
      <trkpt lat="44.78661" lon="-0.3514">
        <ele>70</ele>
        <time>2012-12-02T15:29:32Z</time>
      </trkpt>
      <trkpt lat="44.78658" lon="-0.35136">
        <ele>70</ele>
        <time>2012-12-02T15:29:42Z</time>
      </trkpt>
      <trkpt lat="44.78656" lon="-0.35134">
        <ele>70</ele>
        <time>2012-12-02T15:29:44Z</time>
      </trkpt>
      <trkpt lat="44.78654" lon="-0.35133">
        <ele>70</ele>
        <time>2012-12-02T15:29:45Z</time>
      </trkpt>
      <trkpt lat="44.78652" lon="-0.35132">
        <ele>70</ele>
        <time>2012-12-02T15:29:46Z</time>
      </trkpt>
      <trkpt lat="44.78651" lon="-0.35131">
        <ele>71</ele>
        <time>2012-12-02T15:29:47Z</time>
      </trkpt>
      <trkpt lat="44.78649" lon="-0.3513">
        <ele>71</ele>
        <time>2012-12-02T15:29:48Z</time>
      </trkpt>
      <trkpt lat="44.78648" lon="-0.35129">
        <ele>71</ele>
        <time>2012-12-02T15:29:49Z</time>
      </trkpt>
      <trkpt lat="44.78646" lon="-0.35128">
        <ele>71</ele>
        <time>2012-12-02T15:29:50Z</time>
      </trkpt>
      <trkpt lat="44.78645" lon="-0.35127">
        <ele>71</ele>
        <time>2012-12-02T15:29:51Z</time>
      </trkpt>
      <trkpt lat="44.78632" lon="-0.35118">
        <ele>73</ele>
        <time>2012-12-02T15:30:00Z</time>
      </trkpt>
      <trkpt lat="44.78629" lon="-0.35115">
        <ele>73</ele>
        <time>2012-12-02T15:30:02Z</time>
      </trkpt>
      <trkpt lat="44.7862" lon="-0.35106">
        <ele>75</ele>
        <time>2012-12-02T15:30:09Z</time>
      </trkpt>
      <trkpt lat="44.78619" lon="-0.35105">
        <ele>75</ele>
        <time>2012-12-02T15:30:10Z</time>
      </trkpt>
      <trkpt lat="44.78611" lon="-0.35095">
        <ele>77</ele>
        <time>2012-12-02T15:30:15Z</time>
      </trkpt>
      <trkpt lat="44.78609" lon="-0.35093">
        <ele>77</ele>
        <time>2012-12-02T15:30:16Z</time>
      </trkpt>
      <trkpt lat="44.78604" lon="-0.35088">
        <ele>78</ele>
        <time>2012-12-02T15:30:20Z</time>
      </trkpt>
      <trkpt lat="44.78603" lon="-0.35086">
        <ele>78</ele>
        <time>2012-12-02T15:30:21Z</time>
      </trkpt>
      <trkpt lat="44.78602" lon="-0.35085">
        <ele>78</ele>
        <time>2012-12-02T15:30:22Z</time>
      </trkpt>
      <trkpt lat="44.78597" lon="-0.35079">
        <ele>79</ele>
        <time>2012-12-02T15:30:32Z</time>
      </trkpt>
      <trkpt lat="44.78592" lon="-0.35074">
        <ele>80</ele>
        <time>2012-12-02T15:30:40Z</time>
      </trkpt>
      <trkpt lat="44.78585" lon="-0.35066">
        <ele>81</ele>
        <time>2012-12-02T15:30:50Z</time>
      </trkpt>
      <trkpt lat="44.78583" lon="-0.35064">
        <ele>82</ele>
        <time>2012-12-02T15:30:52Z</time>
      </trkpt>
      <trkpt lat="44.78574" lon="-0.35055">
        <ele>83</ele>
        <time>2012-12-02T15:31:01Z</time>
      </trkpt>
      <trkpt lat="44.78572" lon="-0.35053">
        <ele>83</ele>
        <time>2012-12-02T15:31:03Z</time>
      </trkpt>
      <trkpt lat="44.7856" lon="-0.35043">
        <ele>84</ele>
        <time>2012-12-02T15:31:12Z</time>
      </trkpt>
      <trkpt lat="44.7855" lon="-0.35033">
        <ele>85</ele>
        <time>2012-12-02T15:31:22Z</time>
      </trkpt>
      <trkpt lat="44.7854" lon="-0.35022">
        <ele>87</ele>
        <time>2012-12-02T15:31:33Z</time>
      </trkpt>
      <trkpt lat="44.78539" lon="-0.35021">
        <ele>87</ele>
        <time>2012-12-02T15:31:34Z</time>
      </trkpt>
      <trkpt lat="44.78538" lon="-0.3502">
        <ele>87</ele>
        <time>2012-12-02T15:31:35Z</time>
      </trkpt>
      <trkpt lat="44.7853" lon="-0.35009">
        <ele>88</ele>
        <time>2012-12-02T15:31:44Z</time>
      </trkpt>
      <trkpt lat="44.78529" lon="-0.35006">
        <ele>88</ele>
        <time>2012-12-02T15:31:46Z</time>
      </trkpt>
      <trkpt lat="44.78526" lon="-0.35004">
        <ele>88</ele>
        <time>2012-12-02T15:31:48Z</time>
      </trkpt>
      <trkpt lat="44.78525" lon="-0.35002">
        <ele>88</ele>
        <time>2012-12-02T15:31:49Z</time>
      </trkpt>
      <trkpt lat="44.78524" lon="-0.35">
        <ele>88</ele>
        <time>2012-12-02T15:31:50Z</time>
      </trkpt>
      <trkpt lat="44.78515" lon="-0.34985">
        <ele>90</ele>
        <time>2012-12-02T15:31:59Z</time>
      </trkpt>
      <trkpt lat="44.78509" lon="-0.34978">
        <ele>90</ele>
        <time>2012-12-02T15:32:08Z</time>
      </trkpt>
      <trkpt lat="44.78508" lon="-0.34977">
        <ele>90</ele>
        <time>2012-12-02T15:32:22Z</time>
      </trkpt>
      <trkpt lat="44.78507" lon="-0.34977">
        <ele>90</ele>
        <time>2012-12-02T15:32:42Z</time>
      </trkpt>
      <trkpt lat="44.78505" lon="-0.34976">
        <ele>90</ele>
        <time>2012-12-02T15:32:51Z</time>
      </trkpt>
      <trkpt lat="44.78504" lon="-0.34975">
        <ele>90</ele>
        <time>2012-12-02T15:32:53Z</time>
      </trkpt>
      <trkpt lat="44.78495" lon="-0.34968">
        <ele>91</ele>
        <time>2012-12-02T15:33:01Z</time>
      </trkpt>
      <trkpt lat="44.7848" lon="-0.34955">
        <ele>92</ele>
        <time>2012-12-02T15:33:13Z</time>
      </trkpt>
      <trkpt lat="44.78462" lon="-0.34944">
        <ele>92</ele>
        <time>2012-12-02T15:33:26Z</time>
      </trkpt>
      <trkpt lat="44.78438" lon="-0.34933">
        <ele>93</ele>
        <time>2012-12-02T15:33:38Z</time>
      </trkpt>
      <trkpt lat="44.78413" lon="-0.34923">
        <ele>95</ele>
        <time>2012-12-02T15:33:50Z</time>
      </trkpt>
      <trkpt lat="44.78387" lon="-0.34914">
        <ele>96</ele>
        <time>2012-12-02T15:34:03Z</time>
      </trkpt>
      <trkpt lat="44.78363" lon="-0.34908">
        <ele>96</ele>
        <time>2012-12-02T15:34:15Z</time>
      </trkpt>
      <trkpt lat="44.78336" lon="-0.349">
        <ele>96</ele>
        <time>2012-12-02T15:34:28Z</time>
      </trkpt>
      <trkpt lat="44.78306" lon="-0.34883">
        <ele>96</ele>
        <time>2012-12-02T15:34:43Z</time>
      </trkpt>
      <trkpt lat="44.78282" lon="-0.34869">
        <ele>96</ele>
        <time>2012-12-02T15:34:55Z</time>
      </trkpt>
      <trkpt lat="44.78262" lon="-0.34857">
        <ele>96</ele>
        <time>2012-12-02T15:35:04Z</time>
      </trkpt>
      <trkpt lat="44.78241" lon="-0.34845">
        <ele>97</ele>
        <time>2012-12-02T15:35:15Z</time>
      </trkpt>
      <trkpt lat="44.78237" lon="-0.34847">
        <ele>97</ele>
        <time>2012-12-02T15:35:17Z</time>
      </trkpt>
      <trkpt lat="44.78209" lon="-0.34869">
        <ele>98</ele>
        <time>2012-12-02T15:35:29Z</time>
      </trkpt>
      <trkpt lat="44.7817" lon="-0.34895">
        <ele>99</ele>
        <time>2012-12-02T15:35:44Z</time>
      </trkpt>
      <trkpt lat="44.78129" lon="-0.34921">
        <ele>101</ele>
        <time>2012-12-02T15:35:58Z</time>
      </trkpt>
      <trkpt lat="44.78087" lon="-0.34946">
        <ele>101</ele>
        <time>2012-12-02T15:36:11Z</time>
      </trkpt>
      <trkpt lat="44.78066" lon="-0.34957">
        <ele>101</ele>
        <time>2012-12-02T15:36:17Z</time>
      </trkpt>
      <trkpt lat="44.78019" lon="-0.3497">
        <ele>102</ele>
        <time>2012-12-02T15:36:29Z</time>
      </trkpt>
      <trkpt lat="44.78011" lon="-0.34973">
        <ele>103</ele>
        <time>2012-12-02T15:36:31Z</time>
      </trkpt>
      <trkpt lat="44.78007" lon="-0.34974">
        <ele>103</ele>
        <time>2012-12-02T15:36:32Z</time>
      </trkpt>
      <trkpt lat="44.77953" lon="-0.34991">
        <ele>103</ele>
        <time>2012-12-02T15:36:45Z</time>
      </trkpt>
      <trkpt lat="44.7795" lon="-0.34994">
        <ele>103</ele>
        <time>2012-12-02T15:36:46Z</time>
      </trkpt>
      <trkpt lat="44.77946" lon="-0.34997">
        <ele>103</ele>
        <time>2012-12-02T15:36:47Z</time>
      </trkpt>
      <trkpt lat="44.77943" lon="-0.35001">
        <ele>103</ele>
        <time>2012-12-02T15:36:48Z</time>
      </trkpt>
      <trkpt lat="44.7794" lon="-0.35004">
        <ele>103</ele>
        <time>2012-12-02T15:36:49Z</time>
      </trkpt>
      <trkpt lat="44.77937" lon="-0.35009">
        <ele>103</ele>
        <time>2012-12-02T15:36:50Z</time>
      </trkpt>
      <trkpt lat="44.77935" lon="-0.35013">
        <ele>103</ele>
        <time>2012-12-02T15:36:51Z</time>
      </trkpt>
      <trkpt lat="44.77933" lon="-0.35018">
        <ele>103</ele>
        <time>2012-12-02T15:36:52Z</time>
      </trkpt>
      <trkpt lat="44.77931" lon="-0.35023">
        <ele>103</ele>
        <time>2012-12-02T15:36:53Z</time>
      </trkpt>
      <trkpt lat="44.77929" lon="-0.35028">
        <ele>103</ele>
        <time>2012-12-02T15:36:54Z</time>
      </trkpt>
      <trkpt lat="44.77922" lon="-0.35042">
        <ele>103</ele>
        <time>2012-12-02T15:36:57Z</time>
      </trkpt>
      <trkpt lat="44.77919" lon="-0.35047">
        <ele>103</ele>
        <time>2012-12-02T15:36:58Z</time>
      </trkpt>
      <trkpt lat="44.77915" lon="-0.35051">
        <ele>103</ele>
        <time>2012-12-02T15:36:59Z</time>
      </trkpt>
      <trkpt lat="44.77911" lon="-0.35054">
        <ele>103</ele>
        <time>2012-12-02T15:37:00Z</time>
      </trkpt>
      <trkpt lat="44.77907" lon="-0.35056">
        <ele>103</ele>
        <time>2012-12-02T15:37:01Z</time>
      </trkpt>
      <trkpt lat="44.77902" lon="-0.35056">
        <ele>103</ele>
        <time>2012-12-02T15:37:02Z</time>
      </trkpt>
      <trkpt lat="44.77898" lon="-0.35056">
        <ele>103</ele>
        <time>2012-12-02T15:37:03Z</time>
      </trkpt>
      <trkpt lat="44.77893" lon="-0.35056">
        <ele>103</ele>
        <time>2012-12-02T15:37:04Z</time>
      </trkpt>
      <trkpt lat="44.77885" lon="-0.35054">
        <ele>103</ele>
        <time>2012-12-02T15:37:06Z</time>
      </trkpt>
      <trkpt lat="44.77856" lon="-0.35044">
        <ele>102</ele>
        <time>2012-12-02T15:37:13Z</time>
      </trkpt>
      <trkpt lat="44.7784" lon="-0.35039">
        <ele>102</ele>
        <time>2012-12-02T15:37:17Z</time>
      </trkpt>
      <trkpt lat="44.77831" lon="-0.35037">
        <ele>102</ele>
        <time>2012-12-02T15:37:19Z</time>
      </trkpt>
      <trkpt lat="44.77827" lon="-0.35036">
        <ele>102</ele>
        <time>2012-12-02T15:37:20Z</time>
      </trkpt>
      <trkpt lat="44.77799" lon="-0.35035">
        <ele>102</ele>
        <time>2012-12-02T15:37:26Z</time>
      </trkpt>
      <trkpt lat="44.7778" lon="-0.35038">
        <ele>101</ele>
        <time>2012-12-02T15:37:30Z</time>
      </trkpt>
      <trkpt lat="44.77776" lon="-0.35038">
        <ele>101</ele>
        <time>2012-12-02T15:37:31Z</time>
      </trkpt>
      <trkpt lat="44.77771" lon="-0.35039">
        <ele>101</ele>
        <time>2012-12-02T15:37:32Z</time>
      </trkpt>
      <trkpt lat="44.77768" lon="-0.35041">
        <ele>101</ele>
        <time>2012-12-02T15:37:33Z</time>
      </trkpt>
      <trkpt lat="44.77764" lon="-0.35044">
        <ele>101</ele>
        <time>2012-12-02T15:37:34Z</time>
      </trkpt>
      <trkpt lat="44.77758" lon="-0.35046">
        <ele>101</ele>
        <time>2012-12-02T15:37:36Z</time>
      </trkpt>
      <trkpt lat="44.77754" lon="-0.35044">
        <ele>101</ele>
        <time>2012-12-02T15:37:37Z</time>
      </trkpt>
      <trkpt lat="44.77747" lon="-0.3504">
        <ele>101</ele>
        <time>2012-12-02T15:37:39Z</time>
      </trkpt>
      <trkpt lat="44.77726" lon="-0.35025">
        <ele>100</ele>
        <time>2012-12-02T15:37:44Z</time>
      </trkpt>
      <trkpt lat="44.77722" lon="-0.35022">
        <ele>100</ele>
        <time>2012-12-02T15:37:45Z</time>
      </trkpt>
      <trkpt lat="44.77717" lon="-0.35019">
        <ele>100</ele>
        <time>2012-12-02T15:37:46Z</time>
      </trkpt>
      <trkpt lat="44.77694" lon="-0.35001">
        <ele>100</ele>
        <time>2012-12-02T15:37:52Z</time>
      </trkpt>
      <trkpt lat="44.77662" lon="-0.34986">
        <ele>98</ele>
        <time>2012-12-02T15:38:01Z</time>
      </trkpt>
      <trkpt lat="44.77642" lon="-0.34975">
        <ele>97</ele>
        <time>2012-12-02T15:38:09Z</time>
      </trkpt>
      <trkpt lat="44.77639" lon="-0.3496">
        <ele>97</ele>
        <time>2012-12-02T15:38:15Z</time>
      </trkpt>
      <trkpt lat="44.77638" lon="-0.34957">
        <ele>97</ele>
        <time>2012-12-02T15:38:16Z</time>
      </trkpt>
      <trkpt lat="44.77636" lon="-0.34955">
        <ele>97</ele>
        <time>2012-12-02T15:38:17Z</time>
      </trkpt>
      <trkpt lat="44.77635" lon="-0.34953">
        <ele>97</ele>
        <time>2012-12-02T15:38:18Z</time>
      </trkpt>
      <trkpt lat="44.77634" lon="-0.3495">
        <ele>97</ele>
        <time>2012-12-02T15:38:19Z</time>
      </trkpt>
      <trkpt lat="44.77633" lon="-0.34948">
        <ele>97</ele>
        <time>2012-12-02T15:38:20Z</time>
      </trkpt>
      <trkpt lat="44.77633" lon="-0.34945">
        <ele>97</ele>
        <time>2012-12-02T15:38:21Z</time>
      </trkpt>
      <trkpt lat="44.77633" lon="-0.34942">
        <ele>97</ele>
        <time>2012-12-02T15:38:22Z</time>
      </trkpt>
      <trkpt lat="44.77634" lon="-0.34939">
        <ele>97</ele>
        <time>2012-12-02T15:38:23Z</time>
      </trkpt>
      <trkpt lat="44.77635" lon="-0.34936">
        <ele>98</ele>
        <time>2012-12-02T15:38:24Z</time>
      </trkpt>
      <trkpt lat="44.77636" lon="-0.34933">
        <ele>98</ele>
        <time>2012-12-02T15:38:25Z</time>
      </trkpt>
      <trkpt lat="44.77635" lon="-0.3493">
        <ele>98</ele>
        <time>2012-12-02T15:38:26Z</time>
      </trkpt>
      <trkpt lat="44.77635" lon="-0.34927">
        <ele>98</ele>
        <time>2012-12-02T15:38:27Z</time>
      </trkpt>
      <trkpt lat="44.77635" lon="-0.34925">
        <ele>98</ele>
        <time>2012-12-02T15:38:28Z</time>
      </trkpt>
      <trkpt lat="44.77634" lon="-0.34897">
        <ele>99</ele>
        <time>2012-12-02T15:38:39Z</time>
      </trkpt>
      <trkpt lat="44.7764" lon="-0.34879">
        <ele>99</ele>
        <time>2012-12-02T15:38:49Z</time>
      </trkpt>
      <trkpt lat="44.77644" lon="-0.3486">
        <ele>100</ele>
        <time>2012-12-02T15:38:58Z</time>
      </trkpt>
      <trkpt lat="44.77644" lon="-0.34859">
        <ele>100</ele>
        <time>2012-12-02T15:39:10Z</time>
      </trkpt>
      <trkpt lat="44.77644" lon="-0.34857">
        <ele>100</ele>
        <time>2012-12-02T15:39:24Z</time>
      </trkpt>
      <trkpt lat="44.77644" lon="-0.34857">
        <ele>100</ele>
        <time>2012-12-02T15:39:33Z</time>
      </trkpt>
      <trkpt lat="44.77645" lon="-0.34856">
        <ele>100</ele>
        <time>2012-12-02T15:39:43Z</time>
      </trkpt>
      <trkpt lat="44.77645" lon="-0.34857">
        <ele>100</ele>
        <time>2012-12-02T15:40:04Z</time>
      </trkpt>
      <trkpt lat="44.77645" lon="-0.34857">
        <ele>100</ele>
        <time>2012-12-02T15:40:25Z</time>
      </trkpt>
      <trkpt lat="44.77645" lon="-0.34856">
        <ele>100</ele>
        <time>2012-12-02T15:40:46Z</time>
      </trkpt>
      <trkpt lat="44.77645" lon="-0.34856">
        <ele>100</ele>
        <time>2012-12-02T15:41:10Z</time>
      </trkpt>
      <trkpt lat="44.77645" lon="-0.34855">
        <ele>100</ele>
        <time>2012-12-02T15:41:33Z</time>
      </trkpt>
      <trkpt lat="44.77645" lon="-0.34857">
        <ele>100</ele>
        <time>2012-12-02T15:41:44Z</time>
      </trkpt>
      <trkpt lat="44.77645" lon="-0.34859">
        <ele>100</ele>
        <time>2012-12-02T15:42:09Z</time>
      </trkpt>
      <trkpt lat="44.77644" lon="-0.34859">
        <ele>100</ele>
        <time>2012-12-02T15:42:39Z</time>
      </trkpt>
      <trkpt lat="44.77645" lon="-0.34858">
        <ele>100</ele>
        <time>2012-12-02T15:43:10Z</time>
      </trkpt>
      <trkpt lat="44.77647" lon="-0.34858">
        <ele>100</ele>
        <time>2012-12-02T15:43:41Z</time>
      </trkpt>
      <trkpt lat="44.77647" lon="-0.34858">
        <ele>100</ele>
        <time>2012-12-02T15:44:13Z</time>
      </trkpt>
      <trkpt lat="44.77646" lon="-0.34858">
        <ele>100</ele>
        <time>2012-12-02T15:44:42Z</time>
      </trkpt>
      <trkpt lat="44.77646" lon="-0.34858">
        <ele>100</ele>
        <time>2012-12-02T15:45:19Z</time>
      </trkpt>
      <trkpt lat="44.77647" lon="-0.34857">
        <ele>100</ele>
        <time>2012-12-02T15:45:52Z</time>
      </trkpt>
      <trkpt lat="44.77647" lon="-0.34857">
        <ele>100</ele>
        <time>2012-12-02T15:46:07Z</time>
      </trkpt>
      <trkpt lat="44.77647" lon="-0.34857">
        <ele>100</ele>
        <time>2012-12-02T15:46:08Z</time>
      </trkpt>
    </trkseg>
  </trk>
</gpx>